<?xml version="1.0" encoding="UTF-8" standalone="no" ?>
<gpx xmlns="http://www.topografix.com/GPX/1/1" xmlns:xsi="http://www.w3.org/2001/XMLSchema-instance" xsi:schemaLocation="http://www.topografix.com/GPX/1/1 http://www.topografix.com/GPX/1/1/gpx.xsd" version="1.1" creator="VisuGPX - https://www.visugpx.com">
  <metadata>
    <name>R 059 Veillon</name>
  </metadata>
  <trk>
    <name><![CDATA[R 59_le Veillon-Bois de la mine]]></name>
    <trkseg>
      <trkpt lat="46.43539" lon="-1.65939">
        <ele>21.9</ele>
        <time>2013-01-25T13:25:45Z</time>
      </trkpt>
      <trkpt lat="46.43539" lon="-1.65939">
        <ele>21.7</ele>
        <time>2013-01-25T13:25:46Z</time>
      </trkpt>
      <trkpt lat="46.4354" lon="-1.65932">
        <ele>21.9</ele>
        <time>2013-01-25T13:26:00Z</time>
      </trkpt>
      <trkpt lat="46.43542" lon="-1.65927">
        <ele>20.9</ele>
        <time>2013-01-25T13:26:09Z</time>
      </trkpt>
      <trkpt lat="46.43545" lon="-1.65922">
        <ele>21.3</ele>
        <time>2013-01-25T13:26:18Z</time>
      </trkpt>
      <trkpt lat="46.43547" lon="-1.65918">
        <ele>21.6</ele>
        <time>2013-01-25T13:26:23Z</time>
      </trkpt>
      <trkpt lat="46.43549" lon="-1.65912">
        <ele>21.2</ele>
        <time>2013-01-25T13:26:27Z</time>
      </trkpt>
      <trkpt lat="46.43551" lon="-1.65908">
        <ele>20.9</ele>
        <time>2013-01-25T13:26:30Z</time>
      </trkpt>
      <trkpt lat="46.43554" lon="-1.65904">
        <ele>20.9</ele>
        <time>2013-01-25T13:26:33Z</time>
      </trkpt>
      <trkpt lat="46.43555" lon="-1.65899">
        <ele>20.8</ele>
        <time>2013-01-25T13:26:36Z</time>
      </trkpt>
      <trkpt lat="46.43558" lon="-1.65895">
        <ele>20.2</ele>
        <time>2013-01-25T13:26:39Z</time>
      </trkpt>
      <trkpt lat="46.43561" lon="-1.6589">
        <ele>20.2</ele>
        <time>2013-01-25T13:26:42Z</time>
      </trkpt>
      <trkpt lat="46.43564" lon="-1.65886">
        <ele>20.2</ele>
        <time>2013-01-25T13:26:45Z</time>
      </trkpt>
      <trkpt lat="46.43569" lon="-1.65881">
        <ele>20.2</ele>
        <time>2013-01-25T13:26:50Z</time>
      </trkpt>
      <trkpt lat="46.4357" lon="-1.6588">
        <ele>20.1</ele>
        <time>2013-01-25T13:26:51Z</time>
      </trkpt>
      <trkpt lat="46.43574" lon="-1.65877">
        <ele>19.8</ele>
        <time>2013-01-25T13:26:55Z</time>
      </trkpt>
      <trkpt lat="46.43578" lon="-1.65877">
        <ele>20.3</ele>
        <time>2013-01-25T13:26:58Z</time>
      </trkpt>
      <trkpt lat="46.43581" lon="-1.65878">
        <ele>20.4</ele>
        <time>2013-01-25T13:27:01Z</time>
      </trkpt>
      <trkpt lat="46.43585" lon="-1.65879">
        <ele>20.4</ele>
        <time>2013-01-25T13:27:04Z</time>
      </trkpt>
      <trkpt lat="46.43589" lon="-1.65879">
        <ele>20.2</ele>
        <time>2013-01-25T13:27:07Z</time>
      </trkpt>
      <trkpt lat="46.43592" lon="-1.6588">
        <ele>20.3</ele>
        <time>2013-01-25T13:27:10Z</time>
      </trkpt>
      <trkpt lat="46.43597" lon="-1.6588">
        <ele>20.9</ele>
        <time>2013-01-25T13:27:14Z</time>
      </trkpt>
      <trkpt lat="46.43601" lon="-1.6588">
        <ele>20.7</ele>
        <time>2013-01-25T13:27:18Z</time>
      </trkpt>
      <trkpt lat="46.43605" lon="-1.65879">
        <ele>21</ele>
        <time>2013-01-25T13:27:22Z</time>
      </trkpt>
      <trkpt lat="46.43609" lon="-1.65879">
        <ele>20.7</ele>
        <time>2013-01-25T13:27:26Z</time>
      </trkpt>
      <trkpt lat="46.43613" lon="-1.65879">
        <ele>21.2</ele>
        <time>2013-01-25T13:27:30Z</time>
      </trkpt>
      <trkpt lat="46.43617" lon="-1.65879">
        <ele>21</ele>
        <time>2013-01-25T13:27:34Z</time>
      </trkpt>
      <trkpt lat="46.43621" lon="-1.65879">
        <ele>21.6</ele>
        <time>2013-01-25T13:27:37Z</time>
      </trkpt>
      <trkpt lat="46.43625" lon="-1.6588">
        <ele>22</ele>
        <time>2013-01-25T13:27:40Z</time>
      </trkpt>
      <trkpt lat="46.43629" lon="-1.6588">
        <ele>22.2</ele>
        <time>2013-01-25T13:27:43Z</time>
      </trkpt>
      <trkpt lat="46.43633" lon="-1.6588">
        <ele>22.5</ele>
        <time>2013-01-25T13:27:46Z</time>
      </trkpt>
      <trkpt lat="46.43636" lon="-1.6588">
        <ele>21.4</ele>
        <time>2013-01-25T13:27:49Z</time>
      </trkpt>
      <trkpt lat="46.43643" lon="-1.65878">
        <ele>22.8</ele>
        <time>2013-01-25T13:27:54Z</time>
      </trkpt>
      <trkpt lat="46.43644" lon="-1.65878">
        <ele>23.3</ele>
        <time>2013-01-25T13:27:55Z</time>
      </trkpt>
      <trkpt lat="46.43648" lon="-1.65878">
        <ele>22.1</ele>
        <time>2013-01-25T13:27:58Z</time>
      </trkpt>
      <trkpt lat="46.43652" lon="-1.65878">
        <ele>21.3</ele>
        <time>2013-01-25T13:28:01Z</time>
      </trkpt>
      <trkpt lat="46.43656" lon="-1.65877">
        <ele>22</ele>
        <time>2013-01-25T13:28:04Z</time>
      </trkpt>
      <trkpt lat="46.43661" lon="-1.65876">
        <ele>22.3</ele>
        <time>2013-01-25T13:28:08Z</time>
      </trkpt>
      <trkpt lat="46.43664" lon="-1.65874">
        <ele>21.7</ele>
        <time>2013-01-25T13:28:11Z</time>
      </trkpt>
      <trkpt lat="46.43668" lon="-1.65873">
        <ele>21.4</ele>
        <time>2013-01-25T13:28:14Z</time>
      </trkpt>
      <trkpt lat="46.43672" lon="-1.65873">
        <ele>21.5</ele>
        <time>2013-01-25T13:28:17Z</time>
      </trkpt>
      <trkpt lat="46.43675" lon="-1.65872">
        <ele>21.9</ele>
        <time>2013-01-25T13:28:20Z</time>
      </trkpt>
      <trkpt lat="46.43679" lon="-1.65871">
        <ele>21.4</ele>
        <time>2013-01-25T13:28:24Z</time>
      </trkpt>
      <trkpt lat="46.43683" lon="-1.65871">
        <ele>21.1</ele>
        <time>2013-01-25T13:28:27Z</time>
      </trkpt>
      <trkpt lat="46.43687" lon="-1.6587">
        <ele>21.6</ele>
        <time>2013-01-25T13:28:30Z</time>
      </trkpt>
      <trkpt lat="46.4369" lon="-1.6587">
        <ele>20.9</ele>
        <time>2013-01-25T13:28:33Z</time>
      </trkpt>
      <trkpt lat="46.43694" lon="-1.6587">
        <ele>20.7</ele>
        <time>2013-01-25T13:28:36Z</time>
      </trkpt>
      <trkpt lat="46.43698" lon="-1.6587">
        <ele>20.6</ele>
        <time>2013-01-25T13:28:40Z</time>
      </trkpt>
      <trkpt lat="46.43702" lon="-1.6587">
        <ele>20.2</ele>
        <time>2013-01-25T13:28:44Z</time>
      </trkpt>
      <trkpt lat="46.43706" lon="-1.65872">
        <ele>20.2</ele>
        <time>2013-01-25T13:28:48Z</time>
      </trkpt>
      <trkpt lat="46.4371" lon="-1.65874">
        <ele>20.5</ele>
        <time>2013-01-25T13:28:51Z</time>
      </trkpt>
      <trkpt lat="46.43716" lon="-1.65876">
        <ele>20.5</ele>
        <time>2013-01-25T13:28:56Z</time>
      </trkpt>
      <trkpt lat="46.43717" lon="-1.65877">
        <ele>20.5</ele>
        <time>2013-01-25T13:28:57Z</time>
      </trkpt>
      <trkpt lat="46.43721" lon="-1.65878">
        <ele>20.3</ele>
        <time>2013-01-25T13:29:00Z</time>
      </trkpt>
      <trkpt lat="46.43724" lon="-1.65881">
        <ele>19.9</ele>
        <time>2013-01-25T13:29:04Z</time>
      </trkpt>
      <trkpt lat="46.43729" lon="-1.65883">
        <ele>19.9</ele>
        <time>2013-01-25T13:29:08Z</time>
      </trkpt>
      <trkpt lat="46.43732" lon="-1.65886">
        <ele>19.9</ele>
        <time>2013-01-25T13:29:11Z</time>
      </trkpt>
      <trkpt lat="46.43735" lon="-1.65888">
        <ele>19.6</ele>
        <time>2013-01-25T13:29:14Z</time>
      </trkpt>
      <trkpt lat="46.43739" lon="-1.6589">
        <ele>19.9</ele>
        <time>2013-01-25T13:29:17Z</time>
      </trkpt>
      <trkpt lat="46.43742" lon="-1.65894">
        <ele>19.5</ele>
        <time>2013-01-25T13:29:20Z</time>
      </trkpt>
      <trkpt lat="46.43745" lon="-1.65897">
        <ele>19.7</ele>
        <time>2013-01-25T13:29:23Z</time>
      </trkpt>
      <trkpt lat="46.43748" lon="-1.659">
        <ele>20.3</ele>
        <time>2013-01-25T13:29:26Z</time>
      </trkpt>
      <trkpt lat="46.43751" lon="-1.65902">
        <ele>19.9</ele>
        <time>2013-01-25T13:29:29Z</time>
      </trkpt>
      <trkpt lat="46.43754" lon="-1.65906">
        <ele>20.1</ele>
        <time>2013-01-25T13:29:32Z</time>
      </trkpt>
      <trkpt lat="46.43757" lon="-1.65909">
        <ele>19.7</ele>
        <time>2013-01-25T13:29:35Z</time>
      </trkpt>
      <trkpt lat="46.43761" lon="-1.65912">
        <ele>19.7</ele>
        <time>2013-01-25T13:29:38Z</time>
      </trkpt>
      <trkpt lat="46.43764" lon="-1.65915">
        <ele>19.5</ele>
        <time>2013-01-25T13:29:41Z</time>
      </trkpt>
      <trkpt lat="46.43767" lon="-1.65919">
        <ele>19.1</ele>
        <time>2013-01-25T13:29:45Z</time>
      </trkpt>
      <trkpt lat="46.43771" lon="-1.65921">
        <ele>19.2</ele>
        <time>2013-01-25T13:29:49Z</time>
      </trkpt>
      <trkpt lat="46.43774" lon="-1.65924">
        <ele>19.5</ele>
        <time>2013-01-25T13:29:52Z</time>
      </trkpt>
      <trkpt lat="46.43779" lon="-1.65928">
        <ele>19.3</ele>
        <time>2013-01-25T13:29:57Z</time>
      </trkpt>
      <trkpt lat="46.4378" lon="-1.65929">
        <ele>19.4</ele>
        <time>2013-01-25T13:29:58Z</time>
      </trkpt>
      <trkpt lat="46.43783" lon="-1.65932">
        <ele>19.7</ele>
        <time>2013-01-25T13:30:01Z</time>
      </trkpt>
      <trkpt lat="46.43787" lon="-1.65934">
        <ele>19.3</ele>
        <time>2013-01-25T13:30:04Z</time>
      </trkpt>
      <trkpt lat="46.43791" lon="-1.65938">
        <ele>19.1</ele>
        <time>2013-01-25T13:30:08Z</time>
      </trkpt>
      <trkpt lat="46.43794" lon="-1.6594">
        <ele>19.5</ele>
        <time>2013-01-25T13:30:12Z</time>
      </trkpt>
      <trkpt lat="46.43797" lon="-1.65944">
        <ele>19.7</ele>
        <time>2013-01-25T13:30:16Z</time>
      </trkpt>
      <trkpt lat="46.438" lon="-1.65947">
        <ele>19.6</ele>
        <time>2013-01-25T13:30:20Z</time>
      </trkpt>
      <trkpt lat="46.43803" lon="-1.65951">
        <ele>19.9</ele>
        <time>2013-01-25T13:30:24Z</time>
      </trkpt>
      <trkpt lat="46.43806" lon="-1.65954">
        <ele>20.4</ele>
        <time>2013-01-25T13:30:28Z</time>
      </trkpt>
      <trkpt lat="46.43809" lon="-1.65958">
        <ele>19.9</ele>
        <time>2013-01-25T13:30:32Z</time>
      </trkpt>
      <trkpt lat="46.43812" lon="-1.65961">
        <ele>20</ele>
        <time>2013-01-25T13:30:35Z</time>
      </trkpt>
      <trkpt lat="46.43815" lon="-1.65965">
        <ele>20.4</ele>
        <time>2013-01-25T13:30:39Z</time>
      </trkpt>
      <trkpt lat="46.43818" lon="-1.65967">
        <ele>20.7</ele>
        <time>2013-01-25T13:30:42Z</time>
      </trkpt>
      <trkpt lat="46.43821" lon="-1.65971">
        <ele>21</ele>
        <time>2013-01-25T13:30:45Z</time>
      </trkpt>
      <trkpt lat="46.43824" lon="-1.65974">
        <ele>20.8</ele>
        <time>2013-01-25T13:30:48Z</time>
      </trkpt>
      <trkpt lat="46.43827" lon="-1.65978">
        <ele>20.9</ele>
        <time>2013-01-25T13:30:51Z</time>
      </trkpt>
      <trkpt lat="46.4383" lon="-1.65982">
        <ele>20.7</ele>
        <time>2013-01-25T13:30:55Z</time>
      </trkpt>
      <trkpt lat="46.43836" lon="-1.65989">
        <ele>20.7</ele>
        <time>2013-01-25T13:31:00Z</time>
      </trkpt>
      <trkpt lat="46.43837" lon="-1.6599">
        <ele>20.5</ele>
        <time>2013-01-25T13:31:01Z</time>
      </trkpt>
      <trkpt lat="46.43839" lon="-1.65993">
        <ele>20.2</ele>
        <time>2013-01-25T13:31:04Z</time>
      </trkpt>
      <trkpt lat="46.43842" lon="-1.65997">
        <ele>20.6</ele>
        <time>2013-01-25T13:31:08Z</time>
      </trkpt>
      <trkpt lat="46.43845" lon="-1.66001">
        <ele>20.1</ele>
        <time>2013-01-25T13:31:11Z</time>
      </trkpt>
      <trkpt lat="46.43848" lon="-1.66004">
        <ele>20.4</ele>
        <time>2013-01-25T13:31:14Z</time>
      </trkpt>
      <trkpt lat="46.4385" lon="-1.66008">
        <ele>20.6</ele>
        <time>2013-01-25T13:31:17Z</time>
      </trkpt>
      <trkpt lat="46.43853" lon="-1.66012">
        <ele>20.9</ele>
        <time>2013-01-25T13:31:20Z</time>
      </trkpt>
      <trkpt lat="46.43856" lon="-1.66016">
        <ele>21.1</ele>
        <time>2013-01-25T13:31:23Z</time>
      </trkpt>
      <trkpt lat="46.43859" lon="-1.66019">
        <ele>21.2</ele>
        <time>2013-01-25T13:31:26Z</time>
      </trkpt>
      <trkpt lat="46.43862" lon="-1.66023">
        <ele>21</ele>
        <time>2013-01-25T13:31:29Z</time>
      </trkpt>
      <trkpt lat="46.43864" lon="-1.66028">
        <ele>20.8</ele>
        <time>2013-01-25T13:31:32Z</time>
      </trkpt>
      <trkpt lat="46.43867" lon="-1.66032">
        <ele>21.2</ele>
        <time>2013-01-25T13:31:35Z</time>
      </trkpt>
      <trkpt lat="46.4387" lon="-1.66035">
        <ele>21</ele>
        <time>2013-01-25T13:31:38Z</time>
      </trkpt>
      <trkpt lat="46.43872" lon="-1.6604">
        <ele>21.3</ele>
        <time>2013-01-25T13:31:41Z</time>
      </trkpt>
      <trkpt lat="46.43875" lon="-1.66044">
        <ele>21.1</ele>
        <time>2013-01-25T13:31:45Z</time>
      </trkpt>
      <trkpt lat="46.43878" lon="-1.66048">
        <ele>21</ele>
        <time>2013-01-25T13:31:48Z</time>
      </trkpt>
      <trkpt lat="46.4388" lon="-1.66052">
        <ele>21.5</ele>
        <time>2013-01-25T13:31:51Z</time>
      </trkpt>
      <trkpt lat="46.43883" lon="-1.66056">
        <ele>21.2</ele>
        <time>2013-01-25T13:31:54Z</time>
      </trkpt>
      <trkpt lat="46.43886" lon="-1.6606">
        <ele>21.1</ele>
        <time>2013-01-25T13:31:57Z</time>
      </trkpt>
      <trkpt lat="46.43891" lon="-1.66068">
        <ele>20.7</ele>
        <time>2013-01-25T13:32:03Z</time>
      </trkpt>
      <trkpt lat="46.43892" lon="-1.6607">
        <ele>20.6</ele>
        <time>2013-01-25T13:32:04Z</time>
      </trkpt>
      <trkpt lat="46.43893" lon="-1.66075">
        <ele>20.7</ele>
        <time>2013-01-25T13:32:07Z</time>
      </trkpt>
      <trkpt lat="46.43895" lon="-1.6608">
        <ele>21</ele>
        <time>2013-01-25T13:32:10Z</time>
      </trkpt>
      <trkpt lat="46.43897" lon="-1.66084">
        <ele>20.9</ele>
        <time>2013-01-25T13:32:13Z</time>
      </trkpt>
      <trkpt lat="46.439" lon="-1.66089">
        <ele>20.6</ele>
        <time>2013-01-25T13:32:16Z</time>
      </trkpt>
      <trkpt lat="46.43903" lon="-1.66094">
        <ele>20.6</ele>
        <time>2013-01-25T13:32:19Z</time>
      </trkpt>
      <trkpt lat="46.43905" lon="-1.66098">
        <ele>20.6</ele>
        <time>2013-01-25T13:32:22Z</time>
      </trkpt>
      <trkpt lat="46.43907" lon="-1.66103">
        <ele>21.2</ele>
        <time>2013-01-25T13:32:26Z</time>
      </trkpt>
      <trkpt lat="46.43909" lon="-1.66108">
        <ele>20.9</ele>
        <time>2013-01-25T13:32:29Z</time>
      </trkpt>
      <trkpt lat="46.43911" lon="-1.66112">
        <ele>20.7</ele>
        <time>2013-01-25T13:32:33Z</time>
      </trkpt>
      <trkpt lat="46.43914" lon="-1.66116">
        <ele>20.5</ele>
        <time>2013-01-25T13:32:36Z</time>
      </trkpt>
      <trkpt lat="46.43916" lon="-1.66121">
        <ele>20.4</ele>
        <time>2013-01-25T13:32:39Z</time>
      </trkpt>
      <trkpt lat="46.43918" lon="-1.66126">
        <ele>20.4</ele>
        <time>2013-01-25T13:32:43Z</time>
      </trkpt>
      <trkpt lat="46.43921" lon="-1.66131">
        <ele>20.6</ele>
        <time>2013-01-25T13:32:47Z</time>
      </trkpt>
      <trkpt lat="46.43923" lon="-1.66135">
        <ele>20.7</ele>
        <time>2013-01-25T13:32:50Z</time>
      </trkpt>
      <trkpt lat="46.43925" lon="-1.66139">
        <ele>20.8</ele>
        <time>2013-01-25T13:32:53Z</time>
      </trkpt>
      <trkpt lat="46.43928" lon="-1.66143">
        <ele>20.1</ele>
        <time>2013-01-25T13:32:56Z</time>
      </trkpt>
      <trkpt lat="46.43931" lon="-1.66146">
        <ele>20.6</ele>
        <time>2013-01-25T13:32:59Z</time>
      </trkpt>
      <trkpt lat="46.43935" lon="-1.66154">
        <ele>21</ele>
        <time>2013-01-25T13:33:04Z</time>
      </trkpt>
      <trkpt lat="46.43936" lon="-1.66155">
        <ele>20.9</ele>
        <time>2013-01-25T13:33:05Z</time>
      </trkpt>
      <trkpt lat="46.43938" lon="-1.6616">
        <ele>20.8</ele>
        <time>2013-01-25T13:33:08Z</time>
      </trkpt>
      <trkpt lat="46.43939" lon="-1.66164">
        <ele>20.3</ele>
        <time>2013-01-25T13:33:11Z</time>
      </trkpt>
      <trkpt lat="46.43941" lon="-1.66168">
        <ele>20.2</ele>
        <time>2013-01-25T13:33:14Z</time>
      </trkpt>
      <trkpt lat="46.43944" lon="-1.66173">
        <ele>20.3</ele>
        <time>2013-01-25T13:33:17Z</time>
      </trkpt>
      <trkpt lat="46.43946" lon="-1.66178">
        <ele>20.2</ele>
        <time>2013-01-25T13:33:20Z</time>
      </trkpt>
      <trkpt lat="46.43948" lon="-1.66182">
        <ele>20.1</ele>
        <time>2013-01-25T13:33:23Z</time>
      </trkpt>
      <trkpt lat="46.4395" lon="-1.66187">
        <ele>19.8</ele>
        <time>2013-01-25T13:33:26Z</time>
      </trkpt>
      <trkpt lat="46.43952" lon="-1.66191">
        <ele>20</ele>
        <time>2013-01-25T13:33:29Z</time>
      </trkpt>
      <trkpt lat="46.43954" lon="-1.66196">
        <ele>19.5</ele>
        <time>2013-01-25T13:33:33Z</time>
      </trkpt>
      <trkpt lat="46.43956" lon="-1.66202">
        <ele>20</ele>
        <time>2013-01-25T13:33:37Z</time>
      </trkpt>
      <trkpt lat="46.43958" lon="-1.66207">
        <ele>20</ele>
        <time>2013-01-25T13:33:41Z</time>
      </trkpt>
      <trkpt lat="46.4396" lon="-1.66213">
        <ele>19.4</ele>
        <time>2013-01-25T13:33:47Z</time>
      </trkpt>
      <trkpt lat="46.43962" lon="-1.66218">
        <ele>19</ele>
        <time>2013-01-25T13:33:53Z</time>
      </trkpt>
      <trkpt lat="46.43965" lon="-1.66223">
        <ele>18.9</ele>
        <time>2013-01-25T13:33:58Z</time>
      </trkpt>
      <trkpt lat="46.43969" lon="-1.66231">
        <ele>18.9</ele>
        <time>2013-01-25T13:34:06Z</time>
      </trkpt>
      <trkpt lat="46.4397" lon="-1.66231">
        <ele>18.8</ele>
        <time>2013-01-25T13:34:07Z</time>
      </trkpt>
      <trkpt lat="46.43971" lon="-1.66237">
        <ele>18.6</ele>
        <time>2013-01-25T13:34:14Z</time>
      </trkpt>
      <trkpt lat="46.43971" lon="-1.66243">
        <ele>18</ele>
        <time>2013-01-25T13:34:20Z</time>
      </trkpt>
      <trkpt lat="46.43969" lon="-1.66247">
        <ele>17.6</ele>
        <time>2013-01-25T13:34:25Z</time>
      </trkpt>
      <trkpt lat="46.43966" lon="-1.66252">
        <ele>18.1</ele>
        <time>2013-01-25T13:34:30Z</time>
      </trkpt>
      <trkpt lat="46.43963" lon="-1.66257">
        <ele>18.1</ele>
        <time>2013-01-25T13:34:35Z</time>
      </trkpt>
      <trkpt lat="46.43959" lon="-1.66259">
        <ele>18.7</ele>
        <time>2013-01-25T13:34:39Z</time>
      </trkpt>
      <trkpt lat="46.43955" lon="-1.6626">
        <ele>18.4</ele>
        <time>2013-01-25T13:34:42Z</time>
      </trkpt>
      <trkpt lat="46.43952" lon="-1.66261">
        <ele>18.2</ele>
        <time>2013-01-25T13:34:45Z</time>
      </trkpt>
      <trkpt lat="46.43948" lon="-1.66261">
        <ele>18.3</ele>
        <time>2013-01-25T13:34:48Z</time>
      </trkpt>
      <trkpt lat="46.43944" lon="-1.66262">
        <ele>18.2</ele>
        <time>2013-01-25T13:34:51Z</time>
      </trkpt>
      <trkpt lat="46.4394" lon="-1.66263">
        <ele>18.3</ele>
        <time>2013-01-25T13:34:54Z</time>
      </trkpt>
      <trkpt lat="46.43936" lon="-1.66264">
        <ele>18.2</ele>
        <time>2013-01-25T13:34:58Z</time>
      </trkpt>
      <trkpt lat="46.43932" lon="-1.66265">
        <ele>18.4</ele>
        <time>2013-01-25T13:35:02Z</time>
      </trkpt>
      <trkpt lat="46.43925" lon="-1.66267">
        <ele>17.5</ele>
        <time>2013-01-25T13:35:09Z</time>
      </trkpt>
      <trkpt lat="46.43924" lon="-1.66267">
        <ele>17.4</ele>
        <time>2013-01-25T13:35:10Z</time>
      </trkpt>
      <trkpt lat="46.4392" lon="-1.66269">
        <ele>17.8</ele>
        <time>2013-01-25T13:35:13Z</time>
      </trkpt>
      <trkpt lat="46.43915" lon="-1.6627">
        <ele>17.9</ele>
        <time>2013-01-25T13:35:17Z</time>
      </trkpt>
      <trkpt lat="46.43912" lon="-1.66272">
        <ele>17.4</ele>
        <time>2013-01-25T13:35:20Z</time>
      </trkpt>
      <trkpt lat="46.43909" lon="-1.66274">
        <ele>17.6</ele>
        <time>2013-01-25T13:35:23Z</time>
      </trkpt>
      <trkpt lat="46.43906" lon="-1.66276">
        <ele>17.5</ele>
        <time>2013-01-25T13:35:26Z</time>
      </trkpt>
      <trkpt lat="46.43902" lon="-1.66278">
        <ele>17.4</ele>
        <time>2013-01-25T13:35:29Z</time>
      </trkpt>
      <trkpt lat="46.43898" lon="-1.6628">
        <ele>17.3</ele>
        <time>2013-01-25T13:35:33Z</time>
      </trkpt>
      <trkpt lat="46.43894" lon="-1.66283">
        <ele>17.1</ele>
        <time>2013-01-25T13:35:37Z</time>
      </trkpt>
      <trkpt lat="46.4389" lon="-1.66285">
        <ele>17.3</ele>
        <time>2013-01-25T13:35:42Z</time>
      </trkpt>
      <trkpt lat="46.43887" lon="-1.66285">
        <ele>16.7</ele>
        <time>2013-01-25T13:35:47Z</time>
      </trkpt>
      <trkpt lat="46.43883" lon="-1.66288">
        <ele>16.7</ele>
        <time>2013-01-25T13:35:53Z</time>
      </trkpt>
      <trkpt lat="46.43876" lon="-1.66293">
        <ele>16</ele>
        <time>2013-01-25T13:36:11Z</time>
      </trkpt>
      <trkpt lat="46.43876" lon="-1.66293">
        <ele>16</ele>
        <time>2013-01-25T13:36:12Z</time>
      </trkpt>
      <trkpt lat="46.43876" lon="-1.663">
        <ele>16.3</ele>
        <time>2013-01-25T13:36:32Z</time>
      </trkpt>
      <trkpt lat="46.43877" lon="-1.66306">
        <ele>16.6</ele>
        <time>2013-01-25T13:36:50Z</time>
      </trkpt>
      <trkpt lat="46.43878" lon="-1.66312">
        <ele>16.5</ele>
        <time>2013-01-25T13:36:57Z</time>
      </trkpt>
      <trkpt lat="46.4388" lon="-1.66317">
        <ele>16.6</ele>
        <time>2013-01-25T13:37:02Z</time>
      </trkpt>
      <trkpt lat="46.43881" lon="-1.66323">
        <ele>16.6</ele>
        <time>2013-01-25T13:37:07Z</time>
      </trkpt>
      <trkpt lat="46.4388" lon="-1.66333">
        <ele>17.2</ele>
        <time>2013-01-25T13:37:16Z</time>
      </trkpt>
      <trkpt lat="46.4388" lon="-1.66334">
        <ele>17</ele>
        <time>2013-01-25T13:37:17Z</time>
      </trkpt>
      <trkpt lat="46.4388" lon="-1.6634">
        <ele>16.9</ele>
        <time>2013-01-25T13:37:23Z</time>
      </trkpt>
      <trkpt lat="46.43881" lon="-1.66345">
        <ele>17.5</ele>
        <time>2013-01-25T13:37:28Z</time>
      </trkpt>
      <trkpt lat="46.43885" lon="-1.66347">
        <ele>17.7</ele>
        <time>2013-01-25T13:37:34Z</time>
      </trkpt>
      <trkpt lat="46.4389" lon="-1.66348">
        <ele>18.2</ele>
        <time>2013-01-25T13:37:40Z</time>
      </trkpt>
      <trkpt lat="46.43894" lon="-1.66349">
        <ele>18</ele>
        <time>2013-01-25T13:37:45Z</time>
      </trkpt>
      <trkpt lat="46.43898" lon="-1.66352">
        <ele>18</ele>
        <time>2013-01-25T13:37:51Z</time>
      </trkpt>
      <trkpt lat="46.43902" lon="-1.66355">
        <ele>18.3</ele>
        <time>2013-01-25T13:37:57Z</time>
      </trkpt>
      <trkpt lat="46.43905" lon="-1.66358">
        <ele>18.8</ele>
        <time>2013-01-25T13:38:04Z</time>
      </trkpt>
      <trkpt lat="46.43906" lon="-1.66364">
        <ele>18.7</ele>
        <time>2013-01-25T13:38:09Z</time>
      </trkpt>
      <trkpt lat="46.43906" lon="-1.66369">
        <ele>18.7</ele>
        <time>2013-01-25T13:38:12Z</time>
      </trkpt>
      <trkpt lat="46.43904" lon="-1.66375">
        <ele>18.9</ele>
        <time>2013-01-25T13:38:16Z</time>
      </trkpt>
      <trkpt lat="46.43902" lon="-1.66383">
        <ele>19.2</ele>
        <time>2013-01-25T13:38:21Z</time>
      </trkpt>
      <trkpt lat="46.43902" lon="-1.66385">
        <ele>19.1</ele>
        <time>2013-01-25T13:38:22Z</time>
      </trkpt>
      <trkpt lat="46.43901" lon="-1.6639">
        <ele>19.2</ele>
        <time>2013-01-25T13:38:25Z</time>
      </trkpt>
      <trkpt lat="46.43899" lon="-1.66396">
        <ele>19.1</ele>
        <time>2013-01-25T13:38:29Z</time>
      </trkpt>
      <trkpt lat="46.43898" lon="-1.66401">
        <ele>19.2</ele>
        <time>2013-01-25T13:38:33Z</time>
      </trkpt>
      <trkpt lat="46.43897" lon="-1.66407">
        <ele>19</ele>
        <time>2013-01-25T13:38:37Z</time>
      </trkpt>
      <trkpt lat="46.43897" lon="-1.66413">
        <ele>19</ele>
        <time>2013-01-25T13:38:41Z</time>
      </trkpt>
      <trkpt lat="46.43897" lon="-1.66418">
        <ele>19</ele>
        <time>2013-01-25T13:38:44Z</time>
      </trkpt>
      <trkpt lat="46.43897" lon="-1.66425">
        <ele>19</ele>
        <time>2013-01-25T13:38:48Z</time>
      </trkpt>
      <trkpt lat="46.43897" lon="-1.66431">
        <ele>18.3</ele>
        <time>2013-01-25T13:38:51Z</time>
      </trkpt>
      <trkpt lat="46.43897" lon="-1.66436">
        <ele>18.3</ele>
        <time>2013-01-25T13:38:54Z</time>
      </trkpt>
      <trkpt lat="46.43898" lon="-1.66442">
        <ele>18.6</ele>
        <time>2013-01-25T13:38:58Z</time>
      </trkpt>
      <trkpt lat="46.43899" lon="-1.66447">
        <ele>18.4</ele>
        <time>2013-01-25T13:39:01Z</time>
      </trkpt>
      <trkpt lat="46.43899" lon="-1.66452">
        <ele>18</ele>
        <time>2013-01-25T13:39:04Z</time>
      </trkpt>
      <trkpt lat="46.439" lon="-1.66458">
        <ele>17.8</ele>
        <time>2013-01-25T13:39:08Z</time>
      </trkpt>
      <trkpt lat="46.439" lon="-1.66465">
        <ele>18.2</ele>
        <time>2013-01-25T13:39:12Z</time>
      </trkpt>
      <trkpt lat="46.43899" lon="-1.66471">
        <ele>17.9</ele>
        <time>2013-01-25T13:39:16Z</time>
      </trkpt>
      <trkpt lat="46.439" lon="-1.66476">
        <ele>18</ele>
        <time>2013-01-25T13:39:19Z</time>
      </trkpt>
      <trkpt lat="46.43899" lon="-1.66485">
        <ele>18.4</ele>
        <time>2013-01-25T13:39:24Z</time>
      </trkpt>
      <trkpt lat="46.43899" lon="-1.66486">
        <ele>18.4</ele>
        <time>2013-01-25T13:39:25Z</time>
      </trkpt>
      <trkpt lat="46.43898" lon="-1.66493">
        <ele>18.5</ele>
        <time>2013-01-25T13:39:29Z</time>
      </trkpt>
      <trkpt lat="46.43897" lon="-1.66499">
        <ele>18.3</ele>
        <time>2013-01-25T13:39:33Z</time>
      </trkpt>
      <trkpt lat="46.43896" lon="-1.66504">
        <ele>18.8</ele>
        <time>2013-01-25T13:39:36Z</time>
      </trkpt>
      <trkpt lat="46.43895" lon="-1.66509">
        <ele>18.3</ele>
        <time>2013-01-25T13:39:39Z</time>
      </trkpt>
      <trkpt lat="46.43895" lon="-1.66515">
        <ele>19.1</ele>
        <time>2013-01-25T13:39:43Z</time>
      </trkpt>
      <trkpt lat="46.43894" lon="-1.66521">
        <ele>18.6</ele>
        <time>2013-01-25T13:39:47Z</time>
      </trkpt>
      <trkpt lat="46.43893" lon="-1.66526">
        <ele>19</ele>
        <time>2013-01-25T13:39:52Z</time>
      </trkpt>
      <trkpt lat="46.43893" lon="-1.66533">
        <ele>19</ele>
        <time>2013-01-25T13:39:56Z</time>
      </trkpt>
      <trkpt lat="46.43893" lon="-1.66538">
        <ele>18.8</ele>
        <time>2013-01-25T13:40:00Z</time>
      </trkpt>
      <trkpt lat="46.43893" lon="-1.66545">
        <ele>18.8</ele>
        <time>2013-01-25T13:40:04Z</time>
      </trkpt>
      <trkpt lat="46.43893" lon="-1.66551">
        <ele>18.5</ele>
        <time>2013-01-25T13:40:08Z</time>
      </trkpt>
      <trkpt lat="46.43894" lon="-1.66557">
        <ele>18.6</ele>
        <time>2013-01-25T13:40:12Z</time>
      </trkpt>
      <trkpt lat="46.43894" lon="-1.66563">
        <ele>18.6</ele>
        <time>2013-01-25T13:40:16Z</time>
      </trkpt>
      <trkpt lat="46.43894" lon="-1.66568">
        <ele>18.8</ele>
        <time>2013-01-25T13:40:20Z</time>
      </trkpt>
      <trkpt lat="46.43894" lon="-1.66578">
        <ele>18.8</ele>
        <time>2013-01-25T13:40:27Z</time>
      </trkpt>
      <trkpt lat="46.43894" lon="-1.6658">
        <ele>18.8</ele>
        <time>2013-01-25T13:40:28Z</time>
      </trkpt>
      <trkpt lat="46.43894" lon="-1.66585">
        <ele>18.8</ele>
        <time>2013-01-25T13:40:32Z</time>
      </trkpt>
      <trkpt lat="46.43894" lon="-1.66591">
        <ele>18.8</ele>
        <time>2013-01-25T13:40:36Z</time>
      </trkpt>
      <trkpt lat="46.43894" lon="-1.66597">
        <ele>19.7</ele>
        <time>2013-01-25T13:40:40Z</time>
      </trkpt>
      <trkpt lat="46.43893" lon="-1.66603">
        <ele>19.8</ele>
        <time>2013-01-25T13:40:44Z</time>
      </trkpt>
      <trkpt lat="46.43893" lon="-1.66608">
        <ele>20.3</ele>
        <time>2013-01-25T13:40:48Z</time>
      </trkpt>
      <trkpt lat="46.43894" lon="-1.66614">
        <ele>20</ele>
        <time>2013-01-25T13:40:53Z</time>
      </trkpt>
      <trkpt lat="46.43894" lon="-1.66621">
        <ele>20.2</ele>
        <time>2013-01-25T13:40:57Z</time>
      </trkpt>
      <trkpt lat="46.43895" lon="-1.66627">
        <ele>20.5</ele>
        <time>2013-01-25T13:41:02Z</time>
      </trkpt>
      <trkpt lat="46.43896" lon="-1.66632">
        <ele>20.5</ele>
        <time>2013-01-25T13:41:07Z</time>
      </trkpt>
      <trkpt lat="46.43897" lon="-1.66638">
        <ele>21.2</ele>
        <time>2013-01-25T13:41:13Z</time>
      </trkpt>
      <trkpt lat="46.439" lon="-1.66649">
        <ele>21.2</ele>
        <time>2013-01-25T13:41:28Z</time>
      </trkpt>
      <trkpt lat="46.439" lon="-1.6665">
        <ele>21.1</ele>
        <time>2013-01-25T13:41:29Z</time>
      </trkpt>
      <trkpt lat="46.43904" lon="-1.66653">
        <ele>21.4</ele>
        <time>2013-01-25T13:41:43Z</time>
      </trkpt>
      <trkpt lat="46.43908" lon="-1.66655">
        <ele>21.3</ele>
        <time>2013-01-25T13:42:01Z</time>
      </trkpt>
      <trkpt lat="46.43912" lon="-1.66656">
        <ele>21.1</ele>
        <time>2013-01-25T13:42:10Z</time>
      </trkpt>
      <trkpt lat="46.43916" lon="-1.66655">
        <ele>22.2</ele>
        <time>2013-01-25T13:42:16Z</time>
      </trkpt>
      <trkpt lat="46.4392" lon="-1.66655">
        <ele>22.4</ele>
        <time>2013-01-25T13:42:24Z</time>
      </trkpt>
      <trkpt lat="46.43924" lon="-1.66655">
        <ele>22.1</ele>
        <time>2013-01-25T13:42:28Z</time>
      </trkpt>
      <trkpt lat="46.43931" lon="-1.66656">
        <ele>21.5</ele>
        <time>2013-01-25T13:42:35Z</time>
      </trkpt>
      <trkpt lat="46.43932" lon="-1.66656">
        <ele>21.7</ele>
        <time>2013-01-25T13:42:36Z</time>
      </trkpt>
      <trkpt lat="46.43936" lon="-1.66656">
        <ele>22.1</ele>
        <time>2013-01-25T13:42:40Z</time>
      </trkpt>
      <trkpt lat="46.4394" lon="-1.66657">
        <ele>21.4</ele>
        <time>2013-01-25T13:42:44Z</time>
      </trkpt>
      <trkpt lat="46.43943" lon="-1.66658">
        <ele>21.2</ele>
        <time>2013-01-25T13:42:48Z</time>
      </trkpt>
      <trkpt lat="46.43947" lon="-1.6666">
        <ele>21.1</ele>
        <time>2013-01-25T13:42:52Z</time>
      </trkpt>
      <trkpt lat="46.43951" lon="-1.66663">
        <ele>21.1</ele>
        <time>2013-01-25T13:42:56Z</time>
      </trkpt>
      <trkpt lat="46.43955" lon="-1.66666">
        <ele>20.9</ele>
        <time>2013-01-25T13:43:00Z</time>
      </trkpt>
      <trkpt lat="46.43958" lon="-1.6667">
        <ele>20.5</ele>
        <time>2013-01-25T13:43:04Z</time>
      </trkpt>
      <trkpt lat="46.43961" lon="-1.66674">
        <ele>20.4</ele>
        <time>2013-01-25T13:43:08Z</time>
      </trkpt>
      <trkpt lat="46.43963" lon="-1.66679">
        <ele>20.3</ele>
        <time>2013-01-25T13:43:12Z</time>
      </trkpt>
      <trkpt lat="46.43964" lon="-1.66685">
        <ele>20.7</ele>
        <time>2013-01-25T13:43:16Z</time>
      </trkpt>
      <trkpt lat="46.43965" lon="-1.6669">
        <ele>20.9</ele>
        <time>2013-01-25T13:43:20Z</time>
      </trkpt>
      <trkpt lat="46.43965" lon="-1.66697">
        <ele>21.1</ele>
        <time>2013-01-25T13:43:25Z</time>
      </trkpt>
      <trkpt lat="46.43965" lon="-1.66702">
        <ele>20.6</ele>
        <time>2013-01-25T13:43:29Z</time>
      </trkpt>
      <trkpt lat="46.43965" lon="-1.66707">
        <ele>20.8</ele>
        <time>2013-01-25T13:43:32Z</time>
      </trkpt>
      <trkpt lat="46.43967" lon="-1.66716">
        <ele>20.4</ele>
        <time>2013-01-25T13:43:38Z</time>
      </trkpt>
      <trkpt lat="46.43967" lon="-1.66718">
        <ele>20.5</ele>
        <time>2013-01-25T13:43:39Z</time>
      </trkpt>
      <trkpt lat="46.43967" lon="-1.66723">
        <ele>20.8</ele>
        <time>2013-01-25T13:43:42Z</time>
      </trkpt>
      <trkpt lat="46.43968" lon="-1.66728">
        <ele>20.6</ele>
        <time>2013-01-25T13:43:45Z</time>
      </trkpt>
      <trkpt lat="46.43969" lon="-1.66735">
        <ele>20.6</ele>
        <time>2013-01-25T13:43:49Z</time>
      </trkpt>
      <trkpt lat="46.43969" lon="-1.66739">
        <ele>20.8</ele>
        <time>2013-01-25T13:43:52Z</time>
      </trkpt>
      <trkpt lat="46.43968" lon="-1.66745">
        <ele>20.5</ele>
        <time>2013-01-25T13:43:56Z</time>
      </trkpt>
      <trkpt lat="46.43969" lon="-1.66751">
        <ele>20.2</ele>
        <time>2013-01-25T13:44:00Z</time>
      </trkpt>
      <trkpt lat="46.43971" lon="-1.66756">
        <ele>20.7</ele>
        <time>2013-01-25T13:44:03Z</time>
      </trkpt>
      <trkpt lat="46.43973" lon="-1.66759">
        <ele>21</ele>
        <time>2013-01-25T13:44:06Z</time>
      </trkpt>
      <trkpt lat="46.43975" lon="-1.66763">
        <ele>21.3</ele>
        <time>2013-01-25T13:44:09Z</time>
      </trkpt>
      <trkpt lat="46.43978" lon="-1.66768">
        <ele>21.2</ele>
        <time>2013-01-25T13:44:12Z</time>
      </trkpt>
      <trkpt lat="46.4398" lon="-1.66772">
        <ele>21</ele>
        <time>2013-01-25T13:44:15Z</time>
      </trkpt>
      <trkpt lat="46.43983" lon="-1.66776">
        <ele>20.6</ele>
        <time>2013-01-25T13:44:19Z</time>
      </trkpt>
      <trkpt lat="46.43986" lon="-1.66781">
        <ele>20.7</ele>
        <time>2013-01-25T13:44:23Z</time>
      </trkpt>
      <trkpt lat="46.43989" lon="-1.66785">
        <ele>20.3</ele>
        <time>2013-01-25T13:44:27Z</time>
      </trkpt>
      <trkpt lat="46.43992" lon="-1.6679">
        <ele>20.1</ele>
        <time>2013-01-25T13:44:31Z</time>
      </trkpt>
      <trkpt lat="46.43994" lon="-1.66796">
        <ele>20.4</ele>
        <time>2013-01-25T13:44:34Z</time>
      </trkpt>
      <trkpt lat="46.43998" lon="-1.66803">
        <ele>20.4</ele>
        <time>2013-01-25T13:44:39Z</time>
      </trkpt>
      <trkpt lat="46.43998" lon="-1.66805">
        <ele>20.3</ele>
        <time>2013-01-25T13:44:40Z</time>
      </trkpt>
      <trkpt lat="46.44" lon="-1.66809">
        <ele>20.4</ele>
        <time>2013-01-25T13:44:44Z</time>
      </trkpt>
      <trkpt lat="46.44002" lon="-1.66814">
        <ele>19.9</ele>
        <time>2013-01-25T13:44:48Z</time>
      </trkpt>
      <trkpt lat="46.44004" lon="-1.66818">
        <ele>20.2</ele>
        <time>2013-01-25T13:44:52Z</time>
      </trkpt>
      <trkpt lat="46.44007" lon="-1.66823">
        <ele>20.3</ele>
        <time>2013-01-25T13:44:56Z</time>
      </trkpt>
      <trkpt lat="46.44009" lon="-1.66827">
        <ele>19.8</ele>
        <time>2013-01-25T13:44:59Z</time>
      </trkpt>
      <trkpt lat="46.44011" lon="-1.66832">
        <ele>20.4</ele>
        <time>2013-01-25T13:45:02Z</time>
      </trkpt>
      <trkpt lat="46.44013" lon="-1.66837">
        <ele>20.1</ele>
        <time>2013-01-25T13:45:06Z</time>
      </trkpt>
      <trkpt lat="46.44015" lon="-1.66842">
        <ele>19.7</ele>
        <time>2013-01-25T13:45:09Z</time>
      </trkpt>
      <trkpt lat="46.44017" lon="-1.66847">
        <ele>19.8</ele>
        <time>2013-01-25T13:45:13Z</time>
      </trkpt>
      <trkpt lat="46.44019" lon="-1.66851">
        <ele>20.5</ele>
        <time>2013-01-25T13:45:16Z</time>
      </trkpt>
      <trkpt lat="46.44022" lon="-1.66855">
        <ele>20.6</ele>
        <time>2013-01-25T13:45:20Z</time>
      </trkpt>
      <trkpt lat="46.44023" lon="-1.66861">
        <ele>20.5</ele>
        <time>2013-01-25T13:45:26Z</time>
      </trkpt>
      <trkpt lat="46.44026" lon="-1.66865">
        <ele>20.4</ele>
        <time>2013-01-25T13:45:31Z</time>
      </trkpt>
      <trkpt lat="46.44029" lon="-1.66874">
        <ele>20.3</ele>
        <time>2013-01-25T13:45:40Z</time>
      </trkpt>
      <trkpt lat="46.44029" lon="-1.66876">
        <ele>20.4</ele>
        <time>2013-01-25T13:45:41Z</time>
      </trkpt>
      <trkpt lat="46.44031" lon="-1.66881">
        <ele>20.6</ele>
        <time>2013-01-25T13:45:45Z</time>
      </trkpt>
      <trkpt lat="46.44033" lon="-1.66887">
        <ele>20.1</ele>
        <time>2013-01-25T13:45:49Z</time>
      </trkpt>
      <trkpt lat="46.44034" lon="-1.66892">
        <ele>19.9</ele>
        <time>2013-01-25T13:45:52Z</time>
      </trkpt>
      <trkpt lat="46.44035" lon="-1.66897">
        <ele>20</ele>
        <time>2013-01-25T13:45:55Z</time>
      </trkpt>
      <trkpt lat="46.44036" lon="-1.66903">
        <ele>19.9</ele>
        <time>2013-01-25T13:45:59Z</time>
      </trkpt>
      <trkpt lat="46.44035" lon="-1.66908">
        <ele>19.6</ele>
        <time>2013-01-25T13:46:03Z</time>
      </trkpt>
      <trkpt lat="46.44034" lon="-1.66914">
        <ele>19.8</ele>
        <time>2013-01-25T13:46:07Z</time>
      </trkpt>
      <trkpt lat="46.44033" lon="-1.6692">
        <ele>20</ele>
        <time>2013-01-25T13:46:11Z</time>
      </trkpt>
      <trkpt lat="46.44032" lon="-1.66925">
        <ele>19.7</ele>
        <time>2013-01-25T13:46:15Z</time>
      </trkpt>
      <trkpt lat="46.44029" lon="-1.66931">
        <ele>19.5</ele>
        <time>2013-01-25T13:46:19Z</time>
      </trkpt>
      <trkpt lat="46.44028" lon="-1.66937">
        <ele>19.5</ele>
        <time>2013-01-25T13:46:23Z</time>
      </trkpt>
      <trkpt lat="46.44027" lon="-1.66942">
        <ele>19.3</ele>
        <time>2013-01-25T13:46:26Z</time>
      </trkpt>
      <trkpt lat="46.44026" lon="-1.66947">
        <ele>19.3</ele>
        <time>2013-01-25T13:46:29Z</time>
      </trkpt>
      <trkpt lat="46.44025" lon="-1.66952">
        <ele>19.1</ele>
        <time>2013-01-25T13:46:32Z</time>
      </trkpt>
      <trkpt lat="46.44024" lon="-1.66957">
        <ele>19.7</ele>
        <time>2013-01-25T13:46:35Z</time>
      </trkpt>
      <trkpt lat="46.44022" lon="-1.66962">
        <ele>19.8</ele>
        <time>2013-01-25T13:46:38Z</time>
      </trkpt>
      <trkpt lat="46.44021" lon="-1.66972">
        <ele>20.1</ele>
        <time>2013-01-25T13:46:44Z</time>
      </trkpt>
      <trkpt lat="46.44021" lon="-1.66973">
        <ele>20.3</ele>
        <time>2013-01-25T13:46:45Z</time>
      </trkpt>
      <trkpt lat="46.4402" lon="-1.66978">
        <ele>20.6</ele>
        <time>2013-01-25T13:46:48Z</time>
      </trkpt>
      <trkpt lat="46.44019" lon="-1.66983">
        <ele>20</ele>
        <time>2013-01-25T13:46:52Z</time>
      </trkpt>
      <trkpt lat="46.44018" lon="-1.66989">
        <ele>19.5</ele>
        <time>2013-01-25T13:46:56Z</time>
      </trkpt>
      <trkpt lat="46.44017" lon="-1.66994">
        <ele>18.8</ele>
        <time>2013-01-25T13:47:00Z</time>
      </trkpt>
      <trkpt lat="46.44016" lon="-1.67">
        <ele>19.6</ele>
        <time>2013-01-25T13:47:03Z</time>
      </trkpt>
      <trkpt lat="46.44015" lon="-1.67006">
        <ele>19.4</ele>
        <time>2013-01-25T13:47:07Z</time>
      </trkpt>
      <trkpt lat="46.44013" lon="-1.67012">
        <ele>19.2</ele>
        <time>2013-01-25T13:47:12Z</time>
      </trkpt>
      <trkpt lat="46.44012" lon="-1.67017">
        <ele>19.4</ele>
        <time>2013-01-25T13:47:16Z</time>
      </trkpt>
      <trkpt lat="46.4401" lon="-1.67022">
        <ele>19</ele>
        <time>2013-01-25T13:47:20Z</time>
      </trkpt>
      <trkpt lat="46.44008" lon="-1.67028">
        <ele>18.2</ele>
        <time>2013-01-25T13:47:24Z</time>
      </trkpt>
      <trkpt lat="46.44007" lon="-1.67033">
        <ele>17.8</ele>
        <time>2013-01-25T13:47:28Z</time>
      </trkpt>
      <trkpt lat="46.44006" lon="-1.67038">
        <ele>17.9</ele>
        <time>2013-01-25T13:47:32Z</time>
      </trkpt>
      <trkpt lat="46.44005" lon="-1.67044">
        <ele>17.9</ele>
        <time>2013-01-25T13:47:36Z</time>
      </trkpt>
      <trkpt lat="46.44003" lon="-1.6705">
        <ele>17.1</ele>
        <time>2013-01-25T13:47:40Z</time>
      </trkpt>
      <trkpt lat="46.44002" lon="-1.67058">
        <ele>17.8</ele>
        <time>2013-01-25T13:47:45Z</time>
      </trkpt>
      <trkpt lat="46.44001" lon="-1.6706">
        <ele>17.8</ele>
        <time>2013-01-25T13:47:46Z</time>
      </trkpt>
      <trkpt lat="46.44" lon="-1.67065">
        <ele>18.2</ele>
        <time>2013-01-25T13:47:50Z</time>
      </trkpt>
      <trkpt lat="46.43998" lon="-1.67071">
        <ele>18.1</ele>
        <time>2013-01-25T13:47:54Z</time>
      </trkpt>
      <trkpt lat="46.43997" lon="-1.67076">
        <ele>18.4</ele>
        <time>2013-01-25T13:47:57Z</time>
      </trkpt>
      <trkpt lat="46.43996" lon="-1.67081">
        <ele>18.2</ele>
        <time>2013-01-25T13:48:00Z</time>
      </trkpt>
      <trkpt lat="46.43994" lon="-1.67087">
        <ele>17.9</ele>
        <time>2013-01-25T13:48:05Z</time>
      </trkpt>
      <trkpt lat="46.43993" lon="-1.67092">
        <ele>17.3</ele>
        <time>2013-01-25T13:48:10Z</time>
      </trkpt>
      <trkpt lat="46.43991" lon="-1.67097">
        <ele>18.5</ele>
        <time>2013-01-25T13:48:15Z</time>
      </trkpt>
      <trkpt lat="46.43988" lon="-1.67101">
        <ele>19</ele>
        <time>2013-01-25T13:48:18Z</time>
      </trkpt>
      <trkpt lat="46.43987" lon="-1.67106">
        <ele>17.9</ele>
        <time>2013-01-25T13:48:23Z</time>
      </trkpt>
      <trkpt lat="46.43985" lon="-1.67111">
        <ele>17.7</ele>
        <time>2013-01-25T13:48:27Z</time>
      </trkpt>
      <trkpt lat="46.43983" lon="-1.67116">
        <ele>17.3</ele>
        <time>2013-01-25T13:48:32Z</time>
      </trkpt>
      <trkpt lat="46.4398" lon="-1.67119">
        <ele>16.9</ele>
        <time>2013-01-25T13:48:36Z</time>
      </trkpt>
      <trkpt lat="46.43979" lon="-1.67125">
        <ele>17.2</ele>
        <time>2013-01-25T13:48:40Z</time>
      </trkpt>
      <trkpt lat="46.43977" lon="-1.6713">
        <ele>17.9</ele>
        <time>2013-01-25T13:48:43Z</time>
      </trkpt>
      <trkpt lat="46.43975" lon="-1.6714">
        <ele>18.2</ele>
        <time>2013-01-25T13:48:48Z</time>
      </trkpt>
      <trkpt lat="46.43975" lon="-1.67141">
        <ele>18.3</ele>
        <time>2013-01-25T13:48:49Z</time>
      </trkpt>
      <trkpt lat="46.43974" lon="-1.67148">
        <ele>18.3</ele>
        <time>2013-01-25T13:48:52Z</time>
      </trkpt>
      <trkpt lat="46.43973" lon="-1.67152">
        <ele>18.4</ele>
        <time>2013-01-25T13:48:54Z</time>
      </trkpt>
      <trkpt lat="46.43973" lon="-1.67157">
        <ele>18.6</ele>
        <time>2013-01-25T13:48:56Z</time>
      </trkpt>
      <trkpt lat="46.43972" lon="-1.67163">
        <ele>18.4</ele>
        <time>2013-01-25T13:48:59Z</time>
      </trkpt>
      <trkpt lat="46.43971" lon="-1.67168">
        <ele>17.8</ele>
        <time>2013-01-25T13:49:02Z</time>
      </trkpt>
      <trkpt lat="46.4397" lon="-1.67174">
        <ele>17.9</ele>
        <time>2013-01-25T13:49:05Z</time>
      </trkpt>
      <trkpt lat="46.4397" lon="-1.67179">
        <ele>18</ele>
        <time>2013-01-25T13:49:08Z</time>
      </trkpt>
      <trkpt lat="46.43969" lon="-1.67185">
        <ele>17.8</ele>
        <time>2013-01-25T13:49:12Z</time>
      </trkpt>
      <trkpt lat="46.43968" lon="-1.67192">
        <ele>18.1</ele>
        <time>2013-01-25T13:49:16Z</time>
      </trkpt>
      <trkpt lat="46.43968" lon="-1.67197">
        <ele>17.4</ele>
        <time>2013-01-25T13:49:20Z</time>
      </trkpt>
      <trkpt lat="46.43967" lon="-1.67203">
        <ele>16.9</ele>
        <time>2013-01-25T13:49:25Z</time>
      </trkpt>
      <trkpt lat="46.43966" lon="-1.67209">
        <ele>17.7</ele>
        <time>2013-01-25T13:49:30Z</time>
      </trkpt>
      <trkpt lat="46.43966" lon="-1.67215">
        <ele>17.7</ele>
        <time>2013-01-25T13:49:35Z</time>
      </trkpt>
      <trkpt lat="46.43967" lon="-1.6722">
        <ele>17.5</ele>
        <time>2013-01-25T13:49:39Z</time>
      </trkpt>
      <trkpt lat="46.4397" lon="-1.67225">
        <ele>17.5</ele>
        <time>2013-01-25T13:49:43Z</time>
      </trkpt>
      <trkpt lat="46.43977" lon="-1.67231">
        <ele>16.9</ele>
        <time>2013-01-25T13:49:50Z</time>
      </trkpt>
      <trkpt lat="46.43978" lon="-1.67232">
        <ele>17</ele>
        <time>2013-01-25T13:49:51Z</time>
      </trkpt>
      <trkpt lat="46.43981" lon="-1.67235">
        <ele>17.8</ele>
        <time>2013-01-25T13:49:55Z</time>
      </trkpt>
      <trkpt lat="46.43985" lon="-1.67237">
        <ele>18</ele>
        <time>2013-01-25T13:49:59Z</time>
      </trkpt>
      <trkpt lat="46.43988" lon="-1.67239">
        <ele>17.5</ele>
        <time>2013-01-25T13:50:02Z</time>
      </trkpt>
      <trkpt lat="46.43991" lon="-1.67241">
        <ele>17.3</ele>
        <time>2013-01-25T13:50:05Z</time>
      </trkpt>
      <trkpt lat="46.43995" lon="-1.67244">
        <ele>17.3</ele>
        <time>2013-01-25T13:50:08Z</time>
      </trkpt>
      <trkpt lat="46.43998" lon="-1.67247">
        <ele>17.5</ele>
        <time>2013-01-25T13:50:11Z</time>
      </trkpt>
      <trkpt lat="46.44001" lon="-1.67248">
        <ele>17.3</ele>
        <time>2013-01-25T13:50:14Z</time>
      </trkpt>
      <trkpt lat="46.44004" lon="-1.6725">
        <ele>18</ele>
        <time>2013-01-25T13:50:17Z</time>
      </trkpt>
      <trkpt lat="46.44009" lon="-1.67252">
        <ele>17.5</ele>
        <time>2013-01-25T13:50:21Z</time>
      </trkpt>
      <trkpt lat="46.44012" lon="-1.67253">
        <ele>17.3</ele>
        <time>2013-01-25T13:50:24Z</time>
      </trkpt>
      <trkpt lat="46.44016" lon="-1.67256">
        <ele>17.9</ele>
        <time>2013-01-25T13:50:27Z</time>
      </trkpt>
      <trkpt lat="46.44019" lon="-1.67258">
        <ele>18.4</ele>
        <time>2013-01-25T13:50:30Z</time>
      </trkpt>
      <trkpt lat="46.44023" lon="-1.6726">
        <ele>18.5</ele>
        <time>2013-01-25T13:50:33Z</time>
      </trkpt>
      <trkpt lat="46.44027" lon="-1.67262">
        <ele>17.7</ele>
        <time>2013-01-25T13:50:36Z</time>
      </trkpt>
      <trkpt lat="46.44031" lon="-1.67264">
        <ele>18</ele>
        <time>2013-01-25T13:50:39Z</time>
      </trkpt>
      <trkpt lat="46.44034" lon="-1.67266">
        <ele>18.3</ele>
        <time>2013-01-25T13:50:42Z</time>
      </trkpt>
      <trkpt lat="46.44038" lon="-1.67268">
        <ele>18.2</ele>
        <time>2013-01-25T13:50:45Z</time>
      </trkpt>
      <trkpt lat="46.44042" lon="-1.6727">
        <ele>18.2</ele>
        <time>2013-01-25T13:50:48Z</time>
      </trkpt>
      <trkpt lat="46.44048" lon="-1.67274">
        <ele>18.2</ele>
        <time>2013-01-25T13:50:53Z</time>
      </trkpt>
      <trkpt lat="46.44049" lon="-1.67274">
        <ele>18.4</ele>
        <time>2013-01-25T13:50:54Z</time>
      </trkpt>
      <trkpt lat="46.44053" lon="-1.67276">
        <ele>18.8</ele>
        <time>2013-01-25T13:50:57Z</time>
      </trkpt>
      <trkpt lat="46.44057" lon="-1.67278">
        <ele>17.8</ele>
        <time>2013-01-25T13:51:00Z</time>
      </trkpt>
      <trkpt lat="46.4406" lon="-1.67281">
        <ele>18.1</ele>
        <time>2013-01-25T13:51:03Z</time>
      </trkpt>
      <trkpt lat="46.44064" lon="-1.67283">
        <ele>17.8</ele>
        <time>2013-01-25T13:51:06Z</time>
      </trkpt>
      <trkpt lat="46.44067" lon="-1.67286">
        <ele>18.1</ele>
        <time>2013-01-25T13:51:09Z</time>
      </trkpt>
      <trkpt lat="46.4407" lon="-1.67289">
        <ele>18.3</ele>
        <time>2013-01-25T13:51:12Z</time>
      </trkpt>
      <trkpt lat="46.44073" lon="-1.67291">
        <ele>18.2</ele>
        <time>2013-01-25T13:51:15Z</time>
      </trkpt>
      <trkpt lat="46.44076" lon="-1.67294">
        <ele>17.9</ele>
        <time>2013-01-25T13:51:18Z</time>
      </trkpt>
      <trkpt lat="46.44079" lon="-1.67298">
        <ele>18.2</ele>
        <time>2013-01-25T13:51:22Z</time>
      </trkpt>
      <trkpt lat="46.44083" lon="-1.67301">
        <ele>18.3</ele>
        <time>2013-01-25T13:51:26Z</time>
      </trkpt>
      <trkpt lat="46.44086" lon="-1.67304">
        <ele>18.1</ele>
        <time>2013-01-25T13:51:30Z</time>
      </trkpt>
      <trkpt lat="46.44089" lon="-1.67307">
        <ele>18.1</ele>
        <time>2013-01-25T13:51:35Z</time>
      </trkpt>
      <trkpt lat="46.44092" lon="-1.67311">
        <ele>17.2</ele>
        <time>2013-01-25T13:51:39Z</time>
      </trkpt>
      <trkpt lat="46.44092" lon="-1.67317">
        <ele>17.5</ele>
        <time>2013-01-25T13:51:43Z</time>
      </trkpt>
      <trkpt lat="46.44091" lon="-1.67322">
        <ele>17.3</ele>
        <time>2013-01-25T13:51:46Z</time>
      </trkpt>
      <trkpt lat="46.44091" lon="-1.67327">
        <ele>17.5</ele>
        <time>2013-01-25T13:51:49Z</time>
      </trkpt>
      <trkpt lat="46.44092" lon="-1.67336">
        <ele>18.1</ele>
        <time>2013-01-25T13:51:54Z</time>
      </trkpt>
      <trkpt lat="46.44092" lon="-1.67338">
        <ele>17.9</ele>
        <time>2013-01-25T13:51:55Z</time>
      </trkpt>
      <trkpt lat="46.44092" lon="-1.67344">
        <ele>17.3</ele>
        <time>2013-01-25T13:51:59Z</time>
      </trkpt>
      <trkpt lat="46.44093" lon="-1.6735">
        <ele>17.2</ele>
        <time>2013-01-25T13:52:02Z</time>
      </trkpt>
      <trkpt lat="46.44093" lon="-1.67355">
        <ele>17.3</ele>
        <time>2013-01-25T13:52:05Z</time>
      </trkpt>
      <trkpt lat="46.44093" lon="-1.67362">
        <ele>17</ele>
        <time>2013-01-25T13:52:08Z</time>
      </trkpt>
      <trkpt lat="46.44094" lon="-1.67367">
        <ele>17.5</ele>
        <time>2013-01-25T13:52:11Z</time>
      </trkpt>
      <trkpt lat="46.44094" lon="-1.67372">
        <ele>17.7</ele>
        <time>2013-01-25T13:52:14Z</time>
      </trkpt>
      <trkpt lat="46.44095" lon="-1.67377">
        <ele>17.8</ele>
        <time>2013-01-25T13:52:17Z</time>
      </trkpt>
      <trkpt lat="46.44095" lon="-1.67383">
        <ele>18.2</ele>
        <time>2013-01-25T13:52:20Z</time>
      </trkpt>
      <trkpt lat="46.44096" lon="-1.67388">
        <ele>17.9</ele>
        <time>2013-01-25T13:52:23Z</time>
      </trkpt>
      <trkpt lat="46.44097" lon="-1.67394">
        <ele>18</ele>
        <time>2013-01-25T13:52:26Z</time>
      </trkpt>
      <trkpt lat="46.44097" lon="-1.67399">
        <ele>17.9</ele>
        <time>2013-01-25T13:52:29Z</time>
      </trkpt>
      <trkpt lat="46.44098" lon="-1.67405">
        <ele>17.4</ele>
        <time>2013-01-25T13:52:32Z</time>
      </trkpt>
      <trkpt lat="46.44099" lon="-1.67411">
        <ele>17.3</ele>
        <time>2013-01-25T13:52:35Z</time>
      </trkpt>
      <trkpt lat="46.44099" lon="-1.67417">
        <ele>18.3</ele>
        <time>2013-01-25T13:52:39Z</time>
      </trkpt>
      <trkpt lat="46.44099" lon="-1.67422">
        <ele>17.9</ele>
        <time>2013-01-25T13:52:42Z</time>
      </trkpt>
      <trkpt lat="46.44099" lon="-1.67428">
        <ele>18.4</ele>
        <time>2013-01-25T13:52:45Z</time>
      </trkpt>
      <trkpt lat="46.44099" lon="-1.67433">
        <ele>18.4</ele>
        <time>2013-01-25T13:52:48Z</time>
      </trkpt>
      <trkpt lat="46.441" lon="-1.67439">
        <ele>17.6</ele>
        <time>2013-01-25T13:52:51Z</time>
      </trkpt>
      <trkpt lat="46.44101" lon="-1.67449">
        <ele>17.7</ele>
        <time>2013-01-25T13:52:56Z</time>
      </trkpt>
      <trkpt lat="46.44101" lon="-1.67451">
        <ele>17.7</ele>
        <time>2013-01-25T13:52:57Z</time>
      </trkpt>
      <trkpt lat="46.44101" lon="-1.67456">
        <ele>17.8</ele>
        <time>2013-01-25T13:53:00Z</time>
      </trkpt>
      <trkpt lat="46.44101" lon="-1.67463">
        <ele>17.9</ele>
        <time>2013-01-25T13:53:04Z</time>
      </trkpt>
      <trkpt lat="46.44102" lon="-1.67469">
        <ele>17.6</ele>
        <time>2013-01-25T13:53:08Z</time>
      </trkpt>
      <trkpt lat="46.44102" lon="-1.67475">
        <ele>16.8</ele>
        <time>2013-01-25T13:53:12Z</time>
      </trkpt>
      <trkpt lat="46.44102" lon="-1.67482">
        <ele>16.8</ele>
        <time>2013-01-25T13:53:17Z</time>
      </trkpt>
      <trkpt lat="46.44101" lon="-1.67487">
        <ele>17.1</ele>
        <time>2013-01-25T13:53:20Z</time>
      </trkpt>
      <trkpt lat="46.44101" lon="-1.67492">
        <ele>16.8</ele>
        <time>2013-01-25T13:53:24Z</time>
      </trkpt>
      <trkpt lat="46.44101" lon="-1.67498">
        <ele>17</ele>
        <time>2013-01-25T13:53:28Z</time>
      </trkpt>
      <trkpt lat="46.44101" lon="-1.67504">
        <ele>17.2</ele>
        <time>2013-01-25T13:53:32Z</time>
      </trkpt>
      <trkpt lat="46.44101" lon="-1.6751">
        <ele>17.1</ele>
        <time>2013-01-25T13:53:36Z</time>
      </trkpt>
      <trkpt lat="46.44102" lon="-1.67515">
        <ele>16.8</ele>
        <time>2013-01-25T13:53:40Z</time>
      </trkpt>
      <trkpt lat="46.44103" lon="-1.6752">
        <ele>16.9</ele>
        <time>2013-01-25T13:53:44Z</time>
      </trkpt>
      <trkpt lat="46.44103" lon="-1.67527">
        <ele>17.1</ele>
        <time>2013-01-25T13:53:48Z</time>
      </trkpt>
      <trkpt lat="46.44104" lon="-1.67533">
        <ele>17.1</ele>
        <time>2013-01-25T13:53:52Z</time>
      </trkpt>
      <trkpt lat="46.44106" lon="-1.67542">
        <ele>16.8</ele>
        <time>2013-01-25T13:53:58Z</time>
      </trkpt>
      <trkpt lat="46.44106" lon="-1.67544">
        <ele>16.9</ele>
        <time>2013-01-25T13:53:59Z</time>
      </trkpt>
      <trkpt lat="46.44107" lon="-1.6755">
        <ele>17</ele>
        <time>2013-01-25T13:54:03Z</time>
      </trkpt>
      <trkpt lat="46.44108" lon="-1.67555">
        <ele>16.6</ele>
        <time>2013-01-25T13:54:07Z</time>
      </trkpt>
      <trkpt lat="46.4411" lon="-1.6756">
        <ele>16.4</ele>
        <time>2013-01-25T13:54:11Z</time>
      </trkpt>
      <trkpt lat="46.44112" lon="-1.67564">
        <ele>16.6</ele>
        <time>2013-01-25T13:54:15Z</time>
      </trkpt>
      <trkpt lat="46.44117" lon="-1.67565">
        <ele>16.4</ele>
        <time>2013-01-25T13:54:20Z</time>
      </trkpt>
      <trkpt lat="46.44121" lon="-1.67565">
        <ele>16.7</ele>
        <time>2013-01-25T13:54:24Z</time>
      </trkpt>
      <trkpt lat="46.44124" lon="-1.67565">
        <ele>16.8</ele>
        <time>2013-01-25T13:54:27Z</time>
      </trkpt>
      <trkpt lat="46.44128" lon="-1.67565">
        <ele>17.2</ele>
        <time>2013-01-25T13:54:31Z</time>
      </trkpt>
      <trkpt lat="46.44132" lon="-1.67567">
        <ele>16.3</ele>
        <time>2013-01-25T13:54:35Z</time>
      </trkpt>
      <trkpt lat="46.44136" lon="-1.67567">
        <ele>17.4</ele>
        <time>2013-01-25T13:54:39Z</time>
      </trkpt>
      <trkpt lat="46.44139" lon="-1.67569">
        <ele>17.5</ele>
        <time>2013-01-25T13:54:43Z</time>
      </trkpt>
      <trkpt lat="46.44143" lon="-1.67571">
        <ele>17.2</ele>
        <time>2013-01-25T13:54:47Z</time>
      </trkpt>
      <trkpt lat="46.44147" lon="-1.67573">
        <ele>17</ele>
        <time>2013-01-25T13:54:51Z</time>
      </trkpt>
      <trkpt lat="46.4415" lon="-1.67576">
        <ele>17.1</ele>
        <time>2013-01-25T13:54:55Z</time>
      </trkpt>
      <trkpt lat="46.44155" lon="-1.67582">
        <ele>18.1</ele>
        <time>2013-01-25T13:55:02Z</time>
      </trkpt>
      <trkpt lat="46.44156" lon="-1.67583">
        <ele>18</ele>
        <time>2013-01-25T13:55:03Z</time>
      </trkpt>
      <trkpt lat="46.44158" lon="-1.67587">
        <ele>17.9</ele>
        <time>2013-01-25T13:55:07Z</time>
      </trkpt>
      <trkpt lat="46.44161" lon="-1.6759">
        <ele>18.9</ele>
        <time>2013-01-25T13:55:11Z</time>
      </trkpt>
      <trkpt lat="46.44165" lon="-1.67593">
        <ele>18.6</ele>
        <time>2013-01-25T13:55:15Z</time>
      </trkpt>
      <trkpt lat="46.44167" lon="-1.67597">
        <ele>18.2</ele>
        <time>2013-01-25T13:55:19Z</time>
      </trkpt>
      <trkpt lat="46.44169" lon="-1.67601">
        <ele>18.1</ele>
        <time>2013-01-25T13:55:23Z</time>
      </trkpt>
      <trkpt lat="46.44171" lon="-1.67606">
        <ele>18.3</ele>
        <time>2013-01-25T13:55:31Z</time>
      </trkpt>
      <trkpt lat="46.44172" lon="-1.67611">
        <ele>18.4</ele>
        <time>2013-01-25T13:55:34Z</time>
      </trkpt>
      <trkpt lat="46.44174" lon="-1.67617">
        <ele>18.9</ele>
        <time>2013-01-25T13:55:37Z</time>
      </trkpt>
      <trkpt lat="46.44176" lon="-1.67622">
        <ele>18.2</ele>
        <time>2013-01-25T13:55:40Z</time>
      </trkpt>
      <trkpt lat="46.44178" lon="-1.67627">
        <ele>19</ele>
        <time>2013-01-25T13:55:44Z</time>
      </trkpt>
      <trkpt lat="46.44179" lon="-1.67632">
        <ele>19.2</ele>
        <time>2013-01-25T13:55:48Z</time>
      </trkpt>
      <trkpt lat="46.44182" lon="-1.67637">
        <ele>18.9</ele>
        <time>2013-01-25T13:55:52Z</time>
      </trkpt>
      <trkpt lat="46.44185" lon="-1.67641">
        <ele>18.8</ele>
        <time>2013-01-25T13:55:56Z</time>
      </trkpt>
      <trkpt lat="46.44191" lon="-1.67647">
        <ele>19.2</ele>
        <time>2013-01-25T13:56:04Z</time>
      </trkpt>
      <trkpt lat="46.44191" lon="-1.67647">
        <ele>19.1</ele>
        <time>2013-01-25T13:56:05Z</time>
      </trkpt>
      <trkpt lat="46.44192" lon="-1.67653">
        <ele>19.2</ele>
        <time>2013-01-25T13:57:09Z</time>
      </trkpt>
      <trkpt lat="46.44193" lon="-1.67659">
        <ele>19.2</ele>
        <time>2013-01-25T13:57:20Z</time>
      </trkpt>
      <trkpt lat="46.44195" lon="-1.67664">
        <ele>18.5</ele>
        <time>2013-01-25T13:57:25Z</time>
      </trkpt>
      <trkpt lat="46.44197" lon="-1.67669">
        <ele>18.9</ele>
        <time>2013-01-25T13:57:29Z</time>
      </trkpt>
      <trkpt lat="46.44198" lon="-1.67674">
        <ele>19</ele>
        <time>2013-01-25T13:57:33Z</time>
      </trkpt>
      <trkpt lat="46.44199" lon="-1.6768">
        <ele>18.9</ele>
        <time>2013-01-25T13:57:37Z</time>
      </trkpt>
      <trkpt lat="46.442" lon="-1.67686">
        <ele>19</ele>
        <time>2013-01-25T13:57:40Z</time>
      </trkpt>
      <trkpt lat="46.44202" lon="-1.67691">
        <ele>19.1</ele>
        <time>2013-01-25T13:57:43Z</time>
      </trkpt>
      <trkpt lat="46.44204" lon="-1.677">
        <ele>19.8</ele>
        <time>2013-01-25T13:57:49Z</time>
      </trkpt>
      <trkpt lat="46.44204" lon="-1.67702">
        <ele>19.6</ele>
        <time>2013-01-25T13:57:50Z</time>
      </trkpt>
      <trkpt lat="46.44206" lon="-1.67707">
        <ele>20</ele>
        <time>2013-01-25T13:57:54Z</time>
      </trkpt>
      <trkpt lat="46.44208" lon="-1.67713">
        <ele>20.2</ele>
        <time>2013-01-25T13:57:58Z</time>
      </trkpt>
      <trkpt lat="46.4421" lon="-1.67718">
        <ele>20.6</ele>
        <time>2013-01-25T13:58:03Z</time>
      </trkpt>
      <trkpt lat="46.44211" lon="-1.67723">
        <ele>20.4</ele>
        <time>2013-01-25T13:58:07Z</time>
      </trkpt>
      <trkpt lat="46.44214" lon="-1.67728">
        <ele>20.2</ele>
        <time>2013-01-25T13:58:11Z</time>
      </trkpt>
      <trkpt lat="46.44216" lon="-1.67732">
        <ele>21.1</ele>
        <time>2013-01-25T13:58:15Z</time>
      </trkpt>
      <trkpt lat="46.44219" lon="-1.67737">
        <ele>21.2</ele>
        <time>2013-01-25T13:58:21Z</time>
      </trkpt>
      <trkpt lat="46.44221" lon="-1.67742">
        <ele>21.5</ele>
        <time>2013-01-25T13:58:26Z</time>
      </trkpt>
      <trkpt lat="46.44224" lon="-1.67747">
        <ele>21</ele>
        <time>2013-01-25T13:58:31Z</time>
      </trkpt>
      <trkpt lat="46.44227" lon="-1.67751">
        <ele>21.1</ele>
        <time>2013-01-25T13:58:36Z</time>
      </trkpt>
      <trkpt lat="46.4423" lon="-1.67755">
        <ele>21</ele>
        <time>2013-01-25T13:58:40Z</time>
      </trkpt>
      <trkpt lat="46.44233" lon="-1.67757">
        <ele>20.7</ele>
        <time>2013-01-25T13:58:44Z</time>
      </trkpt>
      <trkpt lat="46.4424" lon="-1.67761">
        <ele>19.5</ele>
        <time>2013-01-25T13:58:51Z</time>
      </trkpt>
      <trkpt lat="46.44241" lon="-1.67761">
        <ele>19.3</ele>
        <time>2013-01-25T13:58:52Z</time>
      </trkpt>
      <trkpt lat="46.44245" lon="-1.67763">
        <ele>19.5</ele>
        <time>2013-01-25T13:58:56Z</time>
      </trkpt>
      <trkpt lat="46.44249" lon="-1.67764">
        <ele>19.6</ele>
        <time>2013-01-25T13:59:00Z</time>
      </trkpt>
      <trkpt lat="46.44253" lon="-1.67766">
        <ele>19.3</ele>
        <time>2013-01-25T13:59:05Z</time>
      </trkpt>
      <trkpt lat="46.44257" lon="-1.67767">
        <ele>19.3</ele>
        <time>2013-01-25T13:59:09Z</time>
      </trkpt>
      <trkpt lat="46.44261" lon="-1.67768">
        <ele>19.8</ele>
        <time>2013-01-25T13:59:14Z</time>
      </trkpt>
      <trkpt lat="46.44265" lon="-1.67768">
        <ele>20.3</ele>
        <time>2013-01-25T13:59:18Z</time>
      </trkpt>
      <trkpt lat="46.44269" lon="-1.6777">
        <ele>20.2</ele>
        <time>2013-01-25T13:59:22Z</time>
      </trkpt>
      <trkpt lat="46.44273" lon="-1.67771">
        <ele>19.8</ele>
        <time>2013-01-25T13:59:26Z</time>
      </trkpt>
      <trkpt lat="46.44277" lon="-1.67772">
        <ele>19.5</ele>
        <time>2013-01-25T13:59:30Z</time>
      </trkpt>
      <trkpt lat="46.4428" lon="-1.67772">
        <ele>19.8</ele>
        <time>2013-01-25T13:59:34Z</time>
      </trkpt>
      <trkpt lat="46.44284" lon="-1.67773">
        <ele>19.3</ele>
        <time>2013-01-25T13:59:38Z</time>
      </trkpt>
      <trkpt lat="46.44289" lon="-1.67774">
        <ele>19.3</ele>
        <time>2013-01-25T13:59:42Z</time>
      </trkpt>
      <trkpt lat="46.44293" lon="-1.67772">
        <ele>19.6</ele>
        <time>2013-01-25T13:59:46Z</time>
      </trkpt>
      <trkpt lat="46.44297" lon="-1.67771">
        <ele>19.4</ele>
        <time>2013-01-25T13:59:50Z</time>
      </trkpt>
      <trkpt lat="46.44303" lon="-1.67768">
        <ele>19.7</ele>
        <time>2013-01-25T13:59:55Z</time>
      </trkpt>
      <trkpt lat="46.44304" lon="-1.67768">
        <ele>19.2</ele>
        <time>2013-01-25T13:59:56Z</time>
      </trkpt>
      <trkpt lat="46.44307" lon="-1.67765">
        <ele>19.7</ele>
        <time>2013-01-25T14:00:00Z</time>
      </trkpt>
      <trkpt lat="46.4431" lon="-1.67762">
        <ele>20.2</ele>
        <time>2013-01-25T14:00:04Z</time>
      </trkpt>
      <trkpt lat="46.44314" lon="-1.67759">
        <ele>19.7</ele>
        <time>2013-01-25T14:00:09Z</time>
      </trkpt>
      <trkpt lat="46.44317" lon="-1.67755">
        <ele>19.7</ele>
        <time>2013-01-25T14:00:16Z</time>
      </trkpt>
      <trkpt lat="46.4432" lon="-1.6775">
        <ele>20.2</ele>
        <time>2013-01-25T14:00:23Z</time>
      </trkpt>
      <trkpt lat="46.44324" lon="-1.67749">
        <ele>19.9</ele>
        <time>2013-01-25T14:00:32Z</time>
      </trkpt>
      <trkpt lat="46.44328" lon="-1.67749">
        <ele>20</ele>
        <time>2013-01-25T14:00:37Z</time>
      </trkpt>
      <trkpt lat="46.44331" lon="-1.67753">
        <ele>20.1</ele>
        <time>2013-01-25T14:00:40Z</time>
      </trkpt>
      <trkpt lat="46.44334" lon="-1.67757">
        <ele>20</ele>
        <time>2013-01-25T14:00:43Z</time>
      </trkpt>
      <trkpt lat="46.44337" lon="-1.67759">
        <ele>19.9</ele>
        <time>2013-01-25T14:00:46Z</time>
      </trkpt>
      <trkpt lat="46.44341" lon="-1.67759">
        <ele>20.2</ele>
        <time>2013-01-25T14:00:49Z</time>
      </trkpt>
      <trkpt lat="46.44347" lon="-1.67761">
        <ele>19.9</ele>
        <time>2013-01-25T14:00:59Z</time>
      </trkpt>
      <trkpt lat="46.44348" lon="-1.67761">
        <ele>20.1</ele>
        <time>2013-01-25T14:01:00Z</time>
      </trkpt>
      <trkpt lat="46.44352" lon="-1.67762">
        <ele>20.9</ele>
        <time>2013-01-25T14:01:05Z</time>
      </trkpt>
      <trkpt lat="46.44355" lon="-1.67765">
        <ele>20.6</ele>
        <time>2013-01-25T14:01:09Z</time>
      </trkpt>
      <trkpt lat="46.44359" lon="-1.67768">
        <ele>20.6</ele>
        <time>2013-01-25T14:01:13Z</time>
      </trkpt>
      <trkpt lat="46.44362" lon="-1.67772">
        <ele>20.5</ele>
        <time>2013-01-25T14:01:17Z</time>
      </trkpt>
      <trkpt lat="46.44365" lon="-1.67775">
        <ele>21.1</ele>
        <time>2013-01-25T14:01:21Z</time>
      </trkpt>
      <trkpt lat="46.44369" lon="-1.67777">
        <ele>20.3</ele>
        <time>2013-01-25T14:01:26Z</time>
      </trkpt>
      <trkpt lat="46.44373" lon="-1.67779">
        <ele>20.8</ele>
        <time>2013-01-25T14:01:31Z</time>
      </trkpt>
      <trkpt lat="46.44377" lon="-1.6778">
        <ele>20.6</ele>
        <time>2013-01-25T14:01:37Z</time>
      </trkpt>
      <trkpt lat="46.44381" lon="-1.6778">
        <ele>20.7</ele>
        <time>2013-01-25T14:01:42Z</time>
      </trkpt>
      <trkpt lat="46.44384" lon="-1.67777">
        <ele>20.8</ele>
        <time>2013-01-25T14:01:46Z</time>
      </trkpt>
      <trkpt lat="46.44386" lon="-1.67773">
        <ele>21</ele>
        <time>2013-01-25T14:01:49Z</time>
      </trkpt>
      <trkpt lat="46.44389" lon="-1.67769">
        <ele>21.2</ele>
        <time>2013-01-25T14:01:52Z</time>
      </trkpt>
      <trkpt lat="46.44391" lon="-1.67765">
        <ele>21.4</ele>
        <time>2013-01-25T14:01:55Z</time>
      </trkpt>
      <trkpt lat="46.44397" lon="-1.67761">
        <ele>21.2</ele>
        <time>2013-01-25T14:02:01Z</time>
      </trkpt>
      <trkpt lat="46.44398" lon="-1.6776">
        <ele>21.3</ele>
        <time>2013-01-25T14:02:02Z</time>
      </trkpt>
      <trkpt lat="46.44402" lon="-1.67759">
        <ele>21.3</ele>
        <time>2013-01-25T14:02:05Z</time>
      </trkpt>
      <trkpt lat="46.44406" lon="-1.67758">
        <ele>21.5</ele>
        <time>2013-01-25T14:02:08Z</time>
      </trkpt>
      <trkpt lat="46.44409" lon="-1.67758">
        <ele>21.3</ele>
        <time>2013-01-25T14:02:11Z</time>
      </trkpt>
      <trkpt lat="46.44413" lon="-1.67758">
        <ele>21.5</ele>
        <time>2013-01-25T14:02:15Z</time>
      </trkpt>
      <trkpt lat="46.44418" lon="-1.67758">
        <ele>21.8</ele>
        <time>2013-01-25T14:02:19Z</time>
      </trkpt>
      <trkpt lat="46.44421" lon="-1.67757">
        <ele>21.4</ele>
        <time>2013-01-25T14:02:24Z</time>
      </trkpt>
      <trkpt lat="46.44425" lon="-1.67755">
        <ele>21.5</ele>
        <time>2013-01-25T14:02:29Z</time>
      </trkpt>
      <trkpt lat="46.44428" lon="-1.67759">
        <ele>21.4</ele>
        <time>2013-01-25T14:02:33Z</time>
      </trkpt>
      <trkpt lat="46.44429" lon="-1.67766">
        <ele>21.9</ele>
        <time>2013-01-25T14:02:37Z</time>
      </trkpt>
      <trkpt lat="46.4443" lon="-1.67772">
        <ele>21.3</ele>
        <time>2013-01-25T14:02:41Z</time>
      </trkpt>
      <trkpt lat="46.4443" lon="-1.67778">
        <ele>21.8</ele>
        <time>2013-01-25T14:02:45Z</time>
      </trkpt>
      <trkpt lat="46.44431" lon="-1.67784">
        <ele>21.7</ele>
        <time>2013-01-25T14:02:49Z</time>
      </trkpt>
      <trkpt lat="46.44431" lon="-1.6779">
        <ele>21.6</ele>
        <time>2013-01-25T14:02:53Z</time>
      </trkpt>
      <trkpt lat="46.44431" lon="-1.67796">
        <ele>21.9</ele>
        <time>2013-01-25T14:02:57Z</time>
      </trkpt>
      <trkpt lat="46.44433" lon="-1.67806">
        <ele>21.9</ele>
        <time>2013-01-25T14:03:04Z</time>
      </trkpt>
      <trkpt lat="46.44433" lon="-1.67807">
        <ele>21.9</ele>
        <time>2013-01-25T14:03:05Z</time>
      </trkpt>
      <trkpt lat="46.44436" lon="-1.6781">
        <ele>22</ele>
        <time>2013-01-25T14:03:09Z</time>
      </trkpt>
      <trkpt lat="46.44441" lon="-1.67812">
        <ele>21.7</ele>
        <time>2013-01-25T14:03:13Z</time>
      </trkpt>
      <trkpt lat="46.44444" lon="-1.67812">
        <ele>21.7</ele>
        <time>2013-01-25T14:03:16Z</time>
      </trkpt>
      <trkpt lat="46.44449" lon="-1.67812">
        <ele>21.9</ele>
        <time>2013-01-25T14:03:20Z</time>
      </trkpt>
      <trkpt lat="46.44453" lon="-1.67813">
        <ele>22.1</ele>
        <time>2013-01-25T14:03:23Z</time>
      </trkpt>
      <trkpt lat="46.44456" lon="-1.67813">
        <ele>22.1</ele>
        <time>2013-01-25T14:03:26Z</time>
      </trkpt>
      <trkpt lat="46.4446" lon="-1.67813">
        <ele>22</ele>
        <time>2013-01-25T14:03:29Z</time>
      </trkpt>
      <trkpt lat="46.44464" lon="-1.67814">
        <ele>22.4</ele>
        <time>2013-01-25T14:03:33Z</time>
      </trkpt>
      <trkpt lat="46.44468" lon="-1.67815">
        <ele>22.2</ele>
        <time>2013-01-25T14:03:37Z</time>
      </trkpt>
      <trkpt lat="46.44472" lon="-1.67815">
        <ele>22</ele>
        <time>2013-01-25T14:03:41Z</time>
      </trkpt>
      <trkpt lat="46.44476" lon="-1.67815">
        <ele>21.9</ele>
        <time>2013-01-25T14:03:45Z</time>
      </trkpt>
      <trkpt lat="46.4448" lon="-1.67815">
        <ele>21.8</ele>
        <time>2013-01-25T14:03:49Z</time>
      </trkpt>
      <trkpt lat="46.44484" lon="-1.67816">
        <ele>21.7</ele>
        <time>2013-01-25T14:03:53Z</time>
      </trkpt>
      <trkpt lat="46.44489" lon="-1.67815">
        <ele>22.3</ele>
        <time>2013-01-25T14:03:57Z</time>
      </trkpt>
      <trkpt lat="46.44494" lon="-1.67809">
        <ele>22.5</ele>
        <time>2013-01-25T14:04:05Z</time>
      </trkpt>
      <trkpt lat="46.44495" lon="-1.67809">
        <ele>22.6</ele>
        <time>2013-01-25T14:04:06Z</time>
      </trkpt>
      <trkpt lat="46.44499" lon="-1.67807">
        <ele>22.7</ele>
        <time>2013-01-25T14:04:11Z</time>
      </trkpt>
      <trkpt lat="46.44503" lon="-1.67808">
        <ele>22.9</ele>
        <time>2013-01-25T14:04:15Z</time>
      </trkpt>
      <trkpt lat="46.44507" lon="-1.67808">
        <ele>22.4</ele>
        <time>2013-01-25T14:04:19Z</time>
      </trkpt>
      <trkpt lat="46.4451" lon="-1.67809">
        <ele>22.5</ele>
        <time>2013-01-25T14:04:23Z</time>
      </trkpt>
      <trkpt lat="46.44514" lon="-1.67809">
        <ele>23.1</ele>
        <time>2013-01-25T14:04:29Z</time>
      </trkpt>
      <trkpt lat="46.44518" lon="-1.6781">
        <ele>23.3</ele>
        <time>2013-01-25T14:04:34Z</time>
      </trkpt>
      <trkpt lat="46.44522" lon="-1.67811">
        <ele>23.3</ele>
        <time>2013-01-25T14:04:38Z</time>
      </trkpt>
      <trkpt lat="46.44527" lon="-1.6781">
        <ele>22.9</ele>
        <time>2013-01-25T14:04:43Z</time>
      </trkpt>
      <trkpt lat="46.4453" lon="-1.67807">
        <ele>23.6</ele>
        <time>2013-01-25T14:04:52Z</time>
      </trkpt>
      <trkpt lat="46.44535" lon="-1.67798">
        <ele>23</ele>
        <time>2013-01-25T14:05:06Z</time>
      </trkpt>
      <trkpt lat="46.44536" lon="-1.67799">
        <ele>23.1</ele>
        <time>2013-01-25T14:05:07Z</time>
      </trkpt>
      <trkpt lat="46.44538" lon="-1.67805">
        <ele>22.5</ele>
        <time>2013-01-25T14:05:12Z</time>
      </trkpt>
      <trkpt lat="46.4454" lon="-1.67809">
        <ele>22.6</ele>
        <time>2013-01-25T14:05:16Z</time>
      </trkpt>
      <trkpt lat="46.44543" lon="-1.67813">
        <ele>23.3</ele>
        <time>2013-01-25T14:05:20Z</time>
      </trkpt>
      <trkpt lat="46.44546" lon="-1.67817">
        <ele>23.5</ele>
        <time>2013-01-25T14:05:24Z</time>
      </trkpt>
      <trkpt lat="46.44549" lon="-1.6782">
        <ele>23.6</ele>
        <time>2013-01-25T14:05:28Z</time>
      </trkpt>
      <trkpt lat="46.44553" lon="-1.67822">
        <ele>24.4</ele>
        <time>2013-01-25T14:05:32Z</time>
      </trkpt>
      <trkpt lat="46.44556" lon="-1.67824">
        <ele>24.4</ele>
        <time>2013-01-25T14:05:36Z</time>
      </trkpt>
      <trkpt lat="46.4456" lon="-1.67827">
        <ele>24.2</ele>
        <time>2013-01-25T14:05:39Z</time>
      </trkpt>
      <trkpt lat="46.44563" lon="-1.6783">
        <ele>24.3</ele>
        <time>2013-01-25T14:05:42Z</time>
      </trkpt>
      <trkpt lat="46.44566" lon="-1.67832">
        <ele>23.5</ele>
        <time>2013-01-25T14:05:45Z</time>
      </trkpt>
      <trkpt lat="46.44569" lon="-1.67835">
        <ele>23.9</ele>
        <time>2013-01-25T14:05:48Z</time>
      </trkpt>
      <trkpt lat="46.44573" lon="-1.67838">
        <ele>24.4</ele>
        <time>2013-01-25T14:05:52Z</time>
      </trkpt>
      <trkpt lat="46.44577" lon="-1.67841">
        <ele>24.3</ele>
        <time>2013-01-25T14:05:56Z</time>
      </trkpt>
      <trkpt lat="46.4458" lon="-1.67842">
        <ele>24.7</ele>
        <time>2013-01-25T14:06:00Z</time>
      </trkpt>
      <trkpt lat="46.44584" lon="-1.67844">
        <ele>24.8</ele>
        <time>2013-01-25T14:06:04Z</time>
      </trkpt>
      <trkpt lat="46.4459" lon="-1.67848">
        <ele>24.9</ele>
        <time>2013-01-25T14:06:11Z</time>
      </trkpt>
      <trkpt lat="46.44591" lon="-1.67848">
        <ele>24.8</ele>
        <time>2013-01-25T14:06:12Z</time>
      </trkpt>
      <trkpt lat="46.44595" lon="-1.67851">
        <ele>25.2</ele>
        <time>2013-01-25T14:06:16Z</time>
      </trkpt>
      <trkpt lat="46.44598" lon="-1.67855">
        <ele>25.2</ele>
        <time>2013-01-25T14:06:21Z</time>
      </trkpt>
      <trkpt lat="46.44599" lon="-1.6786">
        <ele>25</ele>
        <time>2013-01-25T14:06:27Z</time>
      </trkpt>
      <trkpt lat="46.44599" lon="-1.67866">
        <ele>24.9</ele>
        <time>2013-01-25T14:06:31Z</time>
      </trkpt>
      <trkpt lat="46.44598" lon="-1.67872">
        <ele>25.3</ele>
        <time>2013-01-25T14:06:35Z</time>
      </trkpt>
      <trkpt lat="46.44598" lon="-1.67877">
        <ele>25.8</ele>
        <time>2013-01-25T14:06:38Z</time>
      </trkpt>
      <trkpt lat="46.44597" lon="-1.67883">
        <ele>25.5</ele>
        <time>2013-01-25T14:06:43Z</time>
      </trkpt>
      <trkpt lat="46.44598" lon="-1.67889">
        <ele>25.7</ele>
        <time>2013-01-25T14:06:48Z</time>
      </trkpt>
      <trkpt lat="46.44599" lon="-1.67896">
        <ele>26.1</ele>
        <time>2013-01-25T14:06:56Z</time>
      </trkpt>
      <trkpt lat="46.446" lon="-1.67901">
        <ele>25.8</ele>
        <time>2013-01-25T14:07:01Z</time>
      </trkpt>
      <trkpt lat="46.44602" lon="-1.67907">
        <ele>26.4</ele>
        <time>2013-01-25T14:07:05Z</time>
      </trkpt>
      <trkpt lat="46.44608" lon="-1.67912">
        <ele>26.7</ele>
        <time>2013-01-25T14:07:13Z</time>
      </trkpt>
      <trkpt lat="46.44609" lon="-1.67913">
        <ele>26.8</ele>
        <time>2013-01-25T14:07:14Z</time>
      </trkpt>
      <trkpt lat="46.44613" lon="-1.67917">
        <ele>26.7</ele>
        <time>2013-01-25T14:07:18Z</time>
      </trkpt>
      <trkpt lat="46.44616" lon="-1.6792">
        <ele>27.2</ele>
        <time>2013-01-25T14:07:22Z</time>
      </trkpt>
      <trkpt lat="46.44619" lon="-1.67925">
        <ele>27.1</ele>
        <time>2013-01-25T14:07:27Z</time>
      </trkpt>
      <trkpt lat="46.44621" lon="-1.6793">
        <ele>27.4</ele>
        <time>2013-01-25T14:07:32Z</time>
      </trkpt>
      <trkpt lat="46.44623" lon="-1.67935">
        <ele>27.7</ele>
        <time>2013-01-25T14:07:36Z</time>
      </trkpt>
      <trkpt lat="46.44625" lon="-1.67941">
        <ele>27.5</ele>
        <time>2013-01-25T14:07:40Z</time>
      </trkpt>
      <trkpt lat="46.44627" lon="-1.67946">
        <ele>27.6</ele>
        <time>2013-01-25T14:07:44Z</time>
      </trkpt>
      <trkpt lat="46.4463" lon="-1.67951">
        <ele>27.7</ele>
        <time>2013-01-25T14:07:49Z</time>
      </trkpt>
      <trkpt lat="46.44631" lon="-1.67957">
        <ele>27.5</ele>
        <time>2013-01-25T14:07:53Z</time>
      </trkpt>
      <trkpt lat="46.44631" lon="-1.67963">
        <ele>27.5</ele>
        <time>2013-01-25T14:07:57Z</time>
      </trkpt>
      <trkpt lat="46.44631" lon="-1.67968">
        <ele>27.1</ele>
        <time>2013-01-25T14:08:01Z</time>
      </trkpt>
      <trkpt lat="46.44631" lon="-1.67975">
        <ele>27.5</ele>
        <time>2013-01-25T14:08:05Z</time>
      </trkpt>
      <trkpt lat="46.44632" lon="-1.6798">
        <ele>27.2</ele>
        <time>2013-01-25T14:08:08Z</time>
      </trkpt>
      <trkpt lat="46.44632" lon="-1.67985">
        <ele>27.5</ele>
        <time>2013-01-25T14:08:11Z</time>
      </trkpt>
      <trkpt lat="46.44633" lon="-1.67994">
        <ele>26.9</ele>
        <time>2013-01-25T14:08:16Z</time>
      </trkpt>
      <trkpt lat="46.44633" lon="-1.67996">
        <ele>26.6</ele>
        <time>2013-01-25T14:08:17Z</time>
      </trkpt>
      <trkpt lat="46.44633" lon="-1.68001">
        <ele>26.9</ele>
        <time>2013-01-25T14:08:20Z</time>
      </trkpt>
      <trkpt lat="46.44634" lon="-1.68006">
        <ele>27.2</ele>
        <time>2013-01-25T14:08:23Z</time>
      </trkpt>
      <trkpt lat="46.44634" lon="-1.68012">
        <ele>27.2</ele>
        <time>2013-01-25T14:08:26Z</time>
      </trkpt>
      <trkpt lat="46.44634" lon="-1.68018">
        <ele>27.3</ele>
        <time>2013-01-25T14:08:29Z</time>
      </trkpt>
      <trkpt lat="46.44634" lon="-1.68024">
        <ele>27.3</ele>
        <time>2013-01-25T14:08:33Z</time>
      </trkpt>
      <trkpt lat="46.44633" lon="-1.6803">
        <ele>27.2</ele>
        <time>2013-01-25T14:08:37Z</time>
      </trkpt>
      <trkpt lat="46.44633" lon="-1.68036">
        <ele>27.2</ele>
        <time>2013-01-25T14:08:41Z</time>
      </trkpt>
      <trkpt lat="46.44633" lon="-1.68042">
        <ele>27.6</ele>
        <time>2013-01-25T14:08:45Z</time>
      </trkpt>
      <trkpt lat="46.44633" lon="-1.68048">
        <ele>27.9</ele>
        <time>2013-01-25T14:08:49Z</time>
      </trkpt>
      <trkpt lat="46.44633" lon="-1.68054">
        <ele>28.2</ele>
        <time>2013-01-25T14:08:53Z</time>
      </trkpt>
      <trkpt lat="46.44632" lon="-1.68059">
        <ele>27.7</ele>
        <time>2013-01-25T14:08:57Z</time>
      </trkpt>
      <trkpt lat="46.44631" lon="-1.68065">
        <ele>27.7</ele>
        <time>2013-01-25T14:09:01Z</time>
      </trkpt>
      <trkpt lat="46.44631" lon="-1.68071">
        <ele>27.5</ele>
        <time>2013-01-25T14:09:05Z</time>
      </trkpt>
      <trkpt lat="46.44631" lon="-1.68077">
        <ele>27.5</ele>
        <time>2013-01-25T14:09:09Z</time>
      </trkpt>
      <trkpt lat="46.44631" lon="-1.68083">
        <ele>27.7</ele>
        <time>2013-01-25T14:09:13Z</time>
      </trkpt>
      <trkpt lat="46.44631" lon="-1.68092">
        <ele>27.9</ele>
        <time>2013-01-25T14:09:18Z</time>
      </trkpt>
      <trkpt lat="46.44631" lon="-1.68094">
        <ele>28</ele>
        <time>2013-01-25T14:09:19Z</time>
      </trkpt>
      <trkpt lat="46.44631" lon="-1.68099">
        <ele>28.4</ele>
        <time>2013-01-25T14:09:22Z</time>
      </trkpt>
      <trkpt lat="46.44631" lon="-1.68105">
        <ele>28.5</ele>
        <time>2013-01-25T14:09:26Z</time>
      </trkpt>
      <trkpt lat="46.44631" lon="-1.68111">
        <ele>28</ele>
        <time>2013-01-25T14:09:29Z</time>
      </trkpt>
      <trkpt lat="46.44631" lon="-1.68117">
        <ele>28</ele>
        <time>2013-01-25T14:09:33Z</time>
      </trkpt>
      <trkpt lat="46.44631" lon="-1.68122">
        <ele>27.6</ele>
        <time>2013-01-25T14:09:36Z</time>
      </trkpt>
      <trkpt lat="46.44632" lon="-1.68127">
        <ele>27.7</ele>
        <time>2013-01-25T14:09:39Z</time>
      </trkpt>
      <trkpt lat="46.44632" lon="-1.68133">
        <ele>27.8</ele>
        <time>2013-01-25T14:09:42Z</time>
      </trkpt>
      <trkpt lat="46.44633" lon="-1.68138">
        <ele>27.7</ele>
        <time>2013-01-25T14:09:45Z</time>
      </trkpt>
      <trkpt lat="46.44633" lon="-1.68144">
        <ele>28.3</ele>
        <time>2013-01-25T14:09:48Z</time>
      </trkpt>
      <trkpt lat="46.44633" lon="-1.68149">
        <ele>28.2</ele>
        <time>2013-01-25T14:09:51Z</time>
      </trkpt>
      <trkpt lat="46.44633" lon="-1.68155">
        <ele>28</ele>
        <time>2013-01-25T14:09:54Z</time>
      </trkpt>
      <trkpt lat="46.44633" lon="-1.68161">
        <ele>27.7</ele>
        <time>2013-01-25T14:09:58Z</time>
      </trkpt>
      <trkpt lat="46.44633" lon="-1.68167">
        <ele>28.2</ele>
        <time>2013-01-25T14:10:03Z</time>
      </trkpt>
      <trkpt lat="46.44633" lon="-1.68173">
        <ele>27.9</ele>
        <time>2013-01-25T14:10:06Z</time>
      </trkpt>
      <trkpt lat="46.44633" lon="-1.68178">
        <ele>27.9</ele>
        <time>2013-01-25T14:10:09Z</time>
      </trkpt>
      <trkpt lat="46.44633" lon="-1.68184">
        <ele>27.9</ele>
        <time>2013-01-25T14:10:12Z</time>
      </trkpt>
      <trkpt lat="46.44633" lon="-1.68189">
        <ele>27.9</ele>
        <time>2013-01-25T14:10:15Z</time>
      </trkpt>
      <trkpt lat="46.44634" lon="-1.682">
        <ele>27.2</ele>
        <time>2013-01-25T14:10:21Z</time>
      </trkpt>
      <trkpt lat="46.44634" lon="-1.68201">
        <ele>26.9</ele>
        <time>2013-01-25T14:10:22Z</time>
      </trkpt>
      <trkpt lat="46.44634" lon="-1.68207">
        <ele>27.5</ele>
        <time>2013-01-25T14:10:25Z</time>
      </trkpt>
      <trkpt lat="46.44634" lon="-1.68211">
        <ele>27.6</ele>
        <time>2013-01-25T14:10:28Z</time>
      </trkpt>
      <trkpt lat="46.44635" lon="-1.68217">
        <ele>27.3</ele>
        <time>2013-01-25T14:10:32Z</time>
      </trkpt>
      <trkpt lat="46.44636" lon="-1.68222">
        <ele>27.1</ele>
        <time>2013-01-25T14:10:35Z</time>
      </trkpt>
      <trkpt lat="46.44637" lon="-1.68228">
        <ele>28.1</ele>
        <time>2013-01-25T14:10:39Z</time>
      </trkpt>
      <trkpt lat="46.44637" lon="-1.68233">
        <ele>27.5</ele>
        <time>2013-01-25T14:10:43Z</time>
      </trkpt>
      <trkpt lat="46.44638" lon="-1.6824">
        <ele>26.9</ele>
        <time>2013-01-25T14:10:47Z</time>
      </trkpt>
      <trkpt lat="46.44639" lon="-1.68245">
        <ele>27.2</ele>
        <time>2013-01-25T14:10:50Z</time>
      </trkpt>
      <trkpt lat="46.44639" lon="-1.6825">
        <ele>28</ele>
        <time>2013-01-25T14:10:53Z</time>
      </trkpt>
      <trkpt lat="46.4464" lon="-1.68256">
        <ele>28.2</ele>
        <time>2013-01-25T14:10:57Z</time>
      </trkpt>
      <trkpt lat="46.44641" lon="-1.68262">
        <ele>28</ele>
        <time>2013-01-25T14:11:01Z</time>
      </trkpt>
      <trkpt lat="46.44641" lon="-1.68268">
        <ele>27</ele>
        <time>2013-01-25T14:11:05Z</time>
      </trkpt>
      <trkpt lat="46.44642" lon="-1.68274">
        <ele>27.3</ele>
        <time>2013-01-25T14:11:08Z</time>
      </trkpt>
      <trkpt lat="46.44642" lon="-1.6828">
        <ele>27.5</ele>
        <time>2013-01-25T14:11:12Z</time>
      </trkpt>
      <trkpt lat="46.44642" lon="-1.68286">
        <ele>27.2</ele>
        <time>2013-01-25T14:11:16Z</time>
      </trkpt>
      <trkpt lat="46.44641" lon="-1.68296">
        <ele>26.3</ele>
        <time>2013-01-25T14:11:24Z</time>
      </trkpt>
      <trkpt lat="46.4464" lon="-1.68298">
        <ele>26.5</ele>
        <time>2013-01-25T14:11:25Z</time>
      </trkpt>
      <trkpt lat="46.4464" lon="-1.68303">
        <ele>26.1</ele>
        <time>2013-01-25T14:11:30Z</time>
      </trkpt>
      <trkpt lat="46.44639" lon="-1.68309">
        <ele>26.4</ele>
        <time>2013-01-25T14:11:34Z</time>
      </trkpt>
      <trkpt lat="46.44639" lon="-1.68314">
        <ele>26.1</ele>
        <time>2013-01-25T14:11:38Z</time>
      </trkpt>
      <trkpt lat="46.44639" lon="-1.6832">
        <ele>26.3</ele>
        <time>2013-01-25T14:11:42Z</time>
      </trkpt>
      <trkpt lat="46.44637" lon="-1.68326">
        <ele>26.7</ele>
        <time>2013-01-25T14:11:47Z</time>
      </trkpt>
      <trkpt lat="46.44634" lon="-1.6833">
        <ele>26.3</ele>
        <time>2013-01-25T14:11:51Z</time>
      </trkpt>
      <trkpt lat="46.44631" lon="-1.68333">
        <ele>25.6</ele>
        <time>2013-01-25T14:11:55Z</time>
      </trkpt>
      <trkpt lat="46.44627" lon="-1.68336">
        <ele>25.3</ele>
        <time>2013-01-25T14:11:58Z</time>
      </trkpt>
      <trkpt lat="46.44624" lon="-1.68338">
        <ele>25.9</ele>
        <time>2013-01-25T14:12:01Z</time>
      </trkpt>
      <trkpt lat="46.4462" lon="-1.68338">
        <ele>25.3</ele>
        <time>2013-01-25T14:12:05Z</time>
      </trkpt>
      <trkpt lat="46.44617" lon="-1.68341">
        <ele>24.7</ele>
        <time>2013-01-25T14:12:09Z</time>
      </trkpt>
      <trkpt lat="46.44614" lon="-1.68345">
        <ele>25.3</ele>
        <time>2013-01-25T14:12:14Z</time>
      </trkpt>
      <trkpt lat="46.44612" lon="-1.6835">
        <ele>25.2</ele>
        <time>2013-01-25T14:12:18Z</time>
      </trkpt>
      <trkpt lat="46.4461" lon="-1.68354">
        <ele>25.5</ele>
        <time>2013-01-25T14:12:21Z</time>
      </trkpt>
      <trkpt lat="46.44606" lon="-1.68364">
        <ele>24.8</ele>
        <time>2013-01-25T14:12:28Z</time>
      </trkpt>
      <trkpt lat="46.44606" lon="-1.68365">
        <ele>24.7</ele>
        <time>2013-01-25T14:12:29Z</time>
      </trkpt>
      <trkpt lat="46.44604" lon="-1.68371">
        <ele>24.4</ele>
        <time>2013-01-25T14:12:33Z</time>
      </trkpt>
      <trkpt lat="46.44602" lon="-1.68376">
        <ele>23.9</ele>
        <time>2013-01-25T14:12:37Z</time>
      </trkpt>
      <trkpt lat="46.446" lon="-1.68382">
        <ele>24.4</ele>
        <time>2013-01-25T14:12:41Z</time>
      </trkpt>
      <trkpt lat="46.44598" lon="-1.68388">
        <ele>24.6</ele>
        <time>2013-01-25T14:12:46Z</time>
      </trkpt>
      <trkpt lat="46.44597" lon="-1.68393">
        <ele>24.3</ele>
        <time>2013-01-25T14:12:50Z</time>
      </trkpt>
      <trkpt lat="46.44595" lon="-1.68399">
        <ele>23.5</ele>
        <time>2013-01-25T14:12:56Z</time>
      </trkpt>
      <trkpt lat="46.44593" lon="-1.68404">
        <ele>24.2</ele>
        <time>2013-01-25T14:13:01Z</time>
      </trkpt>
      <trkpt lat="46.44591" lon="-1.6841">
        <ele>24.6</ele>
        <time>2013-01-25T14:13:06Z</time>
      </trkpt>
      <trkpt lat="46.4459" lon="-1.68415">
        <ele>24.9</ele>
        <time>2013-01-25T14:13:10Z</time>
      </trkpt>
      <trkpt lat="46.44588" lon="-1.68421">
        <ele>24.6</ele>
        <time>2013-01-25T14:13:14Z</time>
      </trkpt>
      <trkpt lat="46.44586" lon="-1.68426">
        <ele>24.5</ele>
        <time>2013-01-25T14:13:18Z</time>
      </trkpt>
      <trkpt lat="46.44585" lon="-1.68431">
        <ele>24.5</ele>
        <time>2013-01-25T14:13:22Z</time>
      </trkpt>
      <trkpt lat="46.44582" lon="-1.6844">
        <ele>24.8</ele>
        <time>2013-01-25T14:13:29Z</time>
      </trkpt>
      <trkpt lat="46.44581" lon="-1.68442">
        <ele>24.8</ele>
        <time>2013-01-25T14:13:30Z</time>
      </trkpt>
      <trkpt lat="46.4458" lon="-1.68448">
        <ele>25</ele>
        <time>2013-01-25T14:13:34Z</time>
      </trkpt>
      <trkpt lat="46.44578" lon="-1.68453">
        <ele>25.2</ele>
        <time>2013-01-25T14:13:38Z</time>
      </trkpt>
      <trkpt lat="46.44577" lon="-1.68458">
        <ele>24.6</ele>
        <time>2013-01-25T14:13:41Z</time>
      </trkpt>
      <trkpt lat="46.44576" lon="-1.68463">
        <ele>24.2</ele>
        <time>2013-01-25T14:13:44Z</time>
      </trkpt>
      <trkpt lat="46.44575" lon="-1.68467">
        <ele>24.7</ele>
        <time>2013-01-25T14:13:47Z</time>
      </trkpt>
      <trkpt lat="46.44573" lon="-1.68473">
        <ele>24.2</ele>
        <time>2013-01-25T14:13:51Z</time>
      </trkpt>
      <trkpt lat="46.44571" lon="-1.68478">
        <ele>24.3</ele>
        <time>2013-01-25T14:13:54Z</time>
      </trkpt>
      <trkpt lat="46.4457" lon="-1.68483">
        <ele>24</ele>
        <time>2013-01-25T14:13:57Z</time>
      </trkpt>
      <trkpt lat="46.44568" lon="-1.68488">
        <ele>24.4</ele>
        <time>2013-01-25T14:14:00Z</time>
      </trkpt>
      <trkpt lat="46.44566" lon="-1.68493">
        <ele>24.9</ele>
        <time>2013-01-25T14:14:03Z</time>
      </trkpt>
      <trkpt lat="46.44564" lon="-1.68497">
        <ele>24.2</ele>
        <time>2013-01-25T14:14:06Z</time>
      </trkpt>
      <trkpt lat="46.44561" lon="-1.68501">
        <ele>24.2</ele>
        <time>2013-01-25T14:14:09Z</time>
      </trkpt>
      <trkpt lat="46.44558" lon="-1.68505">
        <ele>24.4</ele>
        <time>2013-01-25T14:14:12Z</time>
      </trkpt>
      <trkpt lat="46.44556" lon="-1.6851">
        <ele>24.1</ele>
        <time>2013-01-25T14:14:15Z</time>
      </trkpt>
      <trkpt lat="46.44553" lon="-1.68514">
        <ele>24.3</ele>
        <time>2013-01-25T14:14:18Z</time>
      </trkpt>
      <trkpt lat="46.44549" lon="-1.68517">
        <ele>24.4</ele>
        <time>2013-01-25T14:14:21Z</time>
      </trkpt>
      <trkpt lat="46.44546" lon="-1.6852">
        <ele>24.4</ele>
        <time>2013-01-25T14:14:24Z</time>
      </trkpt>
      <trkpt lat="46.44541" lon="-1.68526">
        <ele>25.1</ele>
        <time>2013-01-25T14:14:30Z</time>
      </trkpt>
      <trkpt lat="46.44539" lon="-1.68527">
        <ele>24.9</ele>
        <time>2013-01-25T14:14:31Z</time>
      </trkpt>
      <trkpt lat="46.44535" lon="-1.68528">
        <ele>24.7</ele>
        <time>2013-01-25T14:14:35Z</time>
      </trkpt>
      <trkpt lat="46.44531" lon="-1.68528">
        <ele>25.1</ele>
        <time>2013-01-25T14:14:41Z</time>
      </trkpt>
      <trkpt lat="46.44528" lon="-1.68526">
        <ele>25.2</ele>
        <time>2013-01-25T14:14:46Z</time>
      </trkpt>
      <trkpt lat="46.44524" lon="-1.68523">
        <ele>25.1</ele>
        <time>2013-01-25T14:14:53Z</time>
      </trkpt>
      <trkpt lat="46.4452" lon="-1.68519">
        <ele>25.5</ele>
        <time>2013-01-25T14:14:58Z</time>
      </trkpt>
      <trkpt lat="46.44518" lon="-1.68515">
        <ele>25.9</ele>
        <time>2013-01-25T14:15:02Z</time>
      </trkpt>
      <trkpt lat="46.44514" lon="-1.68511">
        <ele>25.7</ele>
        <time>2013-01-25T14:15:08Z</time>
      </trkpt>
      <trkpt lat="46.44511" lon="-1.68507">
        <ele>26.5</ele>
        <time>2013-01-25T14:15:12Z</time>
      </trkpt>
      <trkpt lat="46.44508" lon="-1.68504">
        <ele>26</ele>
        <time>2013-01-25T14:15:15Z</time>
      </trkpt>
      <trkpt lat="46.44505" lon="-1.68501">
        <ele>26.3</ele>
        <time>2013-01-25T14:15:20Z</time>
      </trkpt>
      <trkpt lat="46.44498" lon="-1.68493">
        <ele>26.8</ele>
        <time>2013-01-25T14:15:32Z</time>
      </trkpt>
      <trkpt lat="46.44498" lon="-1.68493">
        <ele>26.7</ele>
        <time>2013-01-25T14:15:33Z</time>
      </trkpt>
      <trkpt lat="46.44498" lon="-1.68494">
        <ele>26.7</ele>
        <time>2013-01-25T14:16:57Z</time>
      </trkpt>
      <trkpt lat="46.44498" lon="-1.68494">
        <ele>26.6</ele>
        <time>2013-01-25T14:16:58Z</time>
      </trkpt>
      <trkpt lat="46.44501" lon="-1.68489">
        <ele>25.9</ele>
        <time>2013-01-25T14:17:37Z</time>
      </trkpt>
      <trkpt lat="46.44497" lon="-1.68491">
        <ele>26.6</ele>
        <time>2013-01-25T14:17:44Z</time>
      </trkpt>
      <trkpt lat="46.44494" lon="-1.68495">
        <ele>26.5</ele>
        <time>2013-01-25T14:17:58Z</time>
      </trkpt>
      <trkpt lat="46.44494" lon="-1.68502">
        <ele>26.8</ele>
        <time>2013-01-25T14:18:08Z</time>
      </trkpt>
      <trkpt lat="46.44489" lon="-1.6851">
        <ele>26.4</ele>
        <time>2013-01-25T14:18:18Z</time>
      </trkpt>
      <trkpt lat="46.44488" lon="-1.68511">
        <ele>26.5</ele>
        <time>2013-01-25T14:18:19Z</time>
      </trkpt>
      <trkpt lat="46.44486" lon="-1.68515">
        <ele>26.6</ele>
        <time>2013-01-25T14:18:23Z</time>
      </trkpt>
      <trkpt lat="46.44484" lon="-1.6852">
        <ele>26.6</ele>
        <time>2013-01-25T14:18:27Z</time>
      </trkpt>
      <trkpt lat="46.44481" lon="-1.68525">
        <ele>27</ele>
        <time>2013-01-25T14:18:31Z</time>
      </trkpt>
      <trkpt lat="46.44478" lon="-1.68529">
        <ele>26.8</ele>
        <time>2013-01-25T14:18:35Z</time>
      </trkpt>
      <trkpt lat="46.44476" lon="-1.68534">
        <ele>27.1</ele>
        <time>2013-01-25T14:18:39Z</time>
      </trkpt>
      <trkpt lat="46.44473" lon="-1.68538">
        <ele>27.1</ele>
        <time>2013-01-25T14:18:43Z</time>
      </trkpt>
      <trkpt lat="46.4447" lon="-1.68542">
        <ele>27.4</ele>
        <time>2013-01-25T14:18:46Z</time>
      </trkpt>
      <trkpt lat="46.44468" lon="-1.68546">
        <ele>27.7</ele>
        <time>2013-01-25T14:18:49Z</time>
      </trkpt>
      <trkpt lat="46.44466" lon="-1.68549">
        <ele>27.8</ele>
        <time>2013-01-25T14:18:52Z</time>
      </trkpt>
      <trkpt lat="46.44463" lon="-1.68553">
        <ele>27.5</ele>
        <time>2013-01-25T14:18:55Z</time>
      </trkpt>
      <trkpt lat="46.44461" lon="-1.68557">
        <ele>27.9</ele>
        <time>2013-01-25T14:18:58Z</time>
      </trkpt>
      <trkpt lat="46.44458" lon="-1.68561">
        <ele>28</ele>
        <time>2013-01-25T14:19:01Z</time>
      </trkpt>
      <trkpt lat="46.44456" lon="-1.68567">
        <ele>28.5</ele>
        <time>2013-01-25T14:19:04Z</time>
      </trkpt>
      <trkpt lat="46.44453" lon="-1.68571">
        <ele>28.2</ele>
        <time>2013-01-25T14:19:07Z</time>
      </trkpt>
      <trkpt lat="46.44451" lon="-1.68576">
        <ele>28.3</ele>
        <time>2013-01-25T14:19:10Z</time>
      </trkpt>
      <trkpt lat="46.44448" lon="-1.6858">
        <ele>28.9</ele>
        <time>2013-01-25T14:19:13Z</time>
      </trkpt>
      <trkpt lat="46.44444" lon="-1.68587">
        <ele>28.5</ele>
        <time>2013-01-25T14:19:19Z</time>
      </trkpt>
      <trkpt lat="46.44443" lon="-1.68588">
        <ele>28.2</ele>
        <time>2013-01-25T14:19:20Z</time>
      </trkpt>
      <trkpt lat="46.4444" lon="-1.68592">
        <ele>27.7</ele>
        <time>2013-01-25T14:19:23Z</time>
      </trkpt>
      <trkpt lat="46.44437" lon="-1.68594">
        <ele>28</ele>
        <time>2013-01-25T14:19:26Z</time>
      </trkpt>
      <trkpt lat="46.44434" lon="-1.68597">
        <ele>28.1</ele>
        <time>2013-01-25T14:19:29Z</time>
      </trkpt>
      <trkpt lat="46.44431" lon="-1.686">
        <ele>27.8</ele>
        <time>2013-01-25T14:19:32Z</time>
      </trkpt>
      <trkpt lat="46.44427" lon="-1.68602">
        <ele>28.3</ele>
        <time>2013-01-25T14:19:35Z</time>
      </trkpt>
      <trkpt lat="46.44424" lon="-1.68604">
        <ele>27.4</ele>
        <time>2013-01-25T14:19:38Z</time>
      </trkpt>
      <trkpt lat="46.44421" lon="-1.68606">
        <ele>27.2</ele>
        <time>2013-01-25T14:19:41Z</time>
      </trkpt>
      <trkpt lat="46.44417" lon="-1.68607">
        <ele>27</ele>
        <time>2013-01-25T14:19:45Z</time>
      </trkpt>
      <trkpt lat="46.44412" lon="-1.68608">
        <ele>26.3</ele>
        <time>2013-01-25T14:19:50Z</time>
      </trkpt>
      <trkpt lat="46.44408" lon="-1.68607">
        <ele>26</ele>
        <time>2013-01-25T14:19:55Z</time>
      </trkpt>
      <trkpt lat="46.44404" lon="-1.68605">
        <ele>26.2</ele>
        <time>2013-01-25T14:19:59Z</time>
      </trkpt>
      <trkpt lat="46.444" lon="-1.68603">
        <ele>26.1</ele>
        <time>2013-01-25T14:20:04Z</time>
      </trkpt>
      <trkpt lat="46.44397" lon="-1.686">
        <ele>25.2</ele>
        <time>2013-01-25T14:20:08Z</time>
      </trkpt>
      <trkpt lat="46.44393" lon="-1.68598">
        <ele>25</ele>
        <time>2013-01-25T14:20:12Z</time>
      </trkpt>
      <trkpt lat="46.4439" lon="-1.68593">
        <ele>24.9</ele>
        <time>2013-01-25T14:20:15Z</time>
      </trkpt>
      <trkpt lat="46.44386" lon="-1.68587">
        <ele>24.4</ele>
        <time>2013-01-25T14:20:20Z</time>
      </trkpt>
      <trkpt lat="46.44385" lon="-1.68586">
        <ele>24.5</ele>
        <time>2013-01-25T14:20:21Z</time>
      </trkpt>
      <trkpt lat="46.44382" lon="-1.68582">
        <ele>24.9</ele>
        <time>2013-01-25T14:20:25Z</time>
      </trkpt>
      <trkpt lat="46.4438" lon="-1.68578">
        <ele>24.9</ele>
        <time>2013-01-25T14:20:28Z</time>
      </trkpt>
      <trkpt lat="46.44378" lon="-1.68573">
        <ele>25.4</ele>
        <time>2013-01-25T14:20:32Z</time>
      </trkpt>
      <trkpt lat="46.44376" lon="-1.68568">
        <ele>25.1</ele>
        <time>2013-01-25T14:20:35Z</time>
      </trkpt>
      <trkpt lat="46.44375" lon="-1.68564">
        <ele>25</ele>
        <time>2013-01-25T14:20:38Z</time>
      </trkpt>
      <trkpt lat="46.44373" lon="-1.68559">
        <ele>25.2</ele>
        <time>2013-01-25T14:20:42Z</time>
      </trkpt>
      <trkpt lat="46.44372" lon="-1.68553">
        <ele>25.3</ele>
        <time>2013-01-25T14:20:46Z</time>
      </trkpt>
      <trkpt lat="46.44371" lon="-1.68546">
        <ele>25.1</ele>
        <time>2013-01-25T14:20:50Z</time>
      </trkpt>
      <trkpt lat="46.4437" lon="-1.68541">
        <ele>25.7</ele>
        <time>2013-01-25T14:20:54Z</time>
      </trkpt>
      <trkpt lat="46.44371" lon="-1.68535">
        <ele>26.9</ele>
        <time>2013-01-25T14:20:58Z</time>
      </trkpt>
      <trkpt lat="46.44371" lon="-1.6853">
        <ele>26.7</ele>
        <time>2013-01-25T14:21:02Z</time>
      </trkpt>
      <trkpt lat="46.44373" lon="-1.68524">
        <ele>26.8</ele>
        <time>2013-01-25T14:21:06Z</time>
      </trkpt>
      <trkpt lat="46.44373" lon="-1.68518">
        <ele>27.8</ele>
        <time>2013-01-25T14:21:11Z</time>
      </trkpt>
      <trkpt lat="46.44374" lon="-1.68513">
        <ele>28</ele>
        <time>2013-01-25T14:21:14Z</time>
      </trkpt>
      <trkpt lat="46.44375" lon="-1.68508">
        <ele>28.1</ele>
        <time>2013-01-25T14:21:17Z</time>
      </trkpt>
      <trkpt lat="46.44375" lon="-1.68498">
        <ele>28.5</ele>
        <time>2013-01-25T14:21:24Z</time>
      </trkpt>
      <trkpt lat="46.44375" lon="-1.68496">
        <ele>28.5</ele>
        <time>2013-01-25T14:21:25Z</time>
      </trkpt>
      <trkpt lat="46.44376" lon="-1.68491">
        <ele>29.2</ele>
        <time>2013-01-25T14:21:29Z</time>
      </trkpt>
      <trkpt lat="46.44376" lon="-1.68484">
        <ele>29</ele>
        <time>2013-01-25T14:21:34Z</time>
      </trkpt>
      <trkpt lat="46.44376" lon="-1.68478">
        <ele>28.2</ele>
        <time>2013-01-25T14:21:38Z</time>
      </trkpt>
      <trkpt lat="46.44377" lon="-1.68473">
        <ele>27.2</ele>
        <time>2013-01-25T14:21:41Z</time>
      </trkpt>
      <trkpt lat="46.44377" lon="-1.68468">
        <ele>26.7</ele>
        <time>2013-01-25T14:21:44Z</time>
      </trkpt>
      <trkpt lat="46.44378" lon="-1.68461">
        <ele>27.1</ele>
        <time>2013-01-25T14:21:48Z</time>
      </trkpt>
      <trkpt lat="46.44378" lon="-1.68455">
        <ele>26.3</ele>
        <time>2013-01-25T14:21:53Z</time>
      </trkpt>
      <trkpt lat="46.4438" lon="-1.6845">
        <ele>26.3</ele>
        <time>2013-01-25T14:21:57Z</time>
      </trkpt>
      <trkpt lat="46.44382" lon="-1.68444">
        <ele>25.8</ele>
        <time>2013-01-25T14:22:01Z</time>
      </trkpt>
      <trkpt lat="46.44383" lon="-1.68439">
        <ele>25.6</ele>
        <time>2013-01-25T14:22:04Z</time>
      </trkpt>
      <trkpt lat="46.44384" lon="-1.68433">
        <ele>25.7</ele>
        <time>2013-01-25T14:22:08Z</time>
      </trkpt>
      <trkpt lat="46.44385" lon="-1.68427">
        <ele>25.7</ele>
        <time>2013-01-25T14:22:11Z</time>
      </trkpt>
      <trkpt lat="46.44386" lon="-1.68421">
        <ele>25.5</ele>
        <time>2013-01-25T14:22:15Z</time>
      </trkpt>
      <trkpt lat="46.44388" lon="-1.68415">
        <ele>26.3</ele>
        <time>2013-01-25T14:22:19Z</time>
      </trkpt>
      <trkpt lat="46.44389" lon="-1.68404">
        <ele>25.6</ele>
        <time>2013-01-25T14:22:26Z</time>
      </trkpt>
      <trkpt lat="46.44389" lon="-1.68403">
        <ele>25.8</ele>
        <time>2013-01-25T14:22:27Z</time>
      </trkpt>
      <trkpt lat="46.4439" lon="-1.68398">
        <ele>25.7</ele>
        <time>2013-01-25T14:22:31Z</time>
      </trkpt>
      <trkpt lat="46.44391" lon="-1.68392">
        <ele>25.5</ele>
        <time>2013-01-25T14:22:36Z</time>
      </trkpt>
      <trkpt lat="46.44392" lon="-1.68387">
        <ele>25.9</ele>
        <time>2013-01-25T14:22:40Z</time>
      </trkpt>
      <trkpt lat="46.44393" lon="-1.68381">
        <ele>26</ele>
        <time>2013-01-25T14:22:44Z</time>
      </trkpt>
      <trkpt lat="46.44394" lon="-1.68376">
        <ele>26.2</ele>
        <time>2013-01-25T14:22:48Z</time>
      </trkpt>
      <trkpt lat="46.44394" lon="-1.68369">
        <ele>25.9</ele>
        <time>2013-01-25T14:22:53Z</time>
      </trkpt>
      <trkpt lat="46.44394" lon="-1.68363">
        <ele>26.6</ele>
        <time>2013-01-25T14:22:57Z</time>
      </trkpt>
      <trkpt lat="46.44394" lon="-1.68357">
        <ele>26.8</ele>
        <time>2013-01-25T14:23:00Z</time>
      </trkpt>
      <trkpt lat="46.44395" lon="-1.68352">
        <ele>26.9</ele>
        <time>2013-01-25T14:23:03Z</time>
      </trkpt>
      <trkpt lat="46.44394" lon="-1.68347">
        <ele>26.3</ele>
        <time>2013-01-25T14:23:06Z</time>
      </trkpt>
      <trkpt lat="46.44394" lon="-1.68341">
        <ele>26.4</ele>
        <time>2013-01-25T14:23:10Z</time>
      </trkpt>
      <trkpt lat="46.44394" lon="-1.68334">
        <ele>26.7</ele>
        <time>2013-01-25T14:23:14Z</time>
      </trkpt>
      <trkpt lat="46.44393" lon="-1.68329">
        <ele>26.3</ele>
        <time>2013-01-25T14:23:18Z</time>
      </trkpt>
      <trkpt lat="46.44394" lon="-1.68323">
        <ele>26.1</ele>
        <time>2013-01-25T14:23:22Z</time>
      </trkpt>
      <trkpt lat="46.44395" lon="-1.68313">
        <ele>26.5</ele>
        <time>2013-01-25T14:23:28Z</time>
      </trkpt>
      <trkpt lat="46.44395" lon="-1.68311">
        <ele>26.8</ele>
        <time>2013-01-25T14:23:29Z</time>
      </trkpt>
      <trkpt lat="46.44394" lon="-1.68306">
        <ele>27</ele>
        <time>2013-01-25T14:23:33Z</time>
      </trkpt>
      <trkpt lat="46.44394" lon="-1.68301">
        <ele>26</ele>
        <time>2013-01-25T14:23:37Z</time>
      </trkpt>
      <trkpt lat="46.44394" lon="-1.68294">
        <ele>26</ele>
        <time>2013-01-25T14:23:41Z</time>
      </trkpt>
      <trkpt lat="46.44394" lon="-1.68289">
        <ele>25.7</ele>
        <time>2013-01-25T14:23:45Z</time>
      </trkpt>
      <trkpt lat="46.44392" lon="-1.68284">
        <ele>25.6</ele>
        <time>2013-01-25T14:23:49Z</time>
      </trkpt>
      <trkpt lat="46.4439" lon="-1.68279">
        <ele>25.4</ele>
        <time>2013-01-25T14:23:53Z</time>
      </trkpt>
      <trkpt lat="46.44389" lon="-1.68273">
        <ele>25.2</ele>
        <time>2013-01-25T14:23:57Z</time>
      </trkpt>
      <trkpt lat="46.44388" lon="-1.68268">
        <ele>25.1</ele>
        <time>2013-01-25T14:24:00Z</time>
      </trkpt>
      <trkpt lat="46.44386" lon="-1.68263">
        <ele>25</ele>
        <time>2013-01-25T14:24:03Z</time>
      </trkpt>
      <trkpt lat="46.44384" lon="-1.6826">
        <ele>24.7</ele>
        <time>2013-01-25T14:24:08Z</time>
      </trkpt>
      <trkpt lat="46.44381" lon="-1.68255">
        <ele>24.9</ele>
        <time>2013-01-25T14:24:12Z</time>
      </trkpt>
      <trkpt lat="46.44378" lon="-1.68252">
        <ele>24.8</ele>
        <time>2013-01-25T14:24:15Z</time>
      </trkpt>
      <trkpt lat="46.44375" lon="-1.68249">
        <ele>25</ele>
        <time>2013-01-25T14:24:18Z</time>
      </trkpt>
      <trkpt lat="46.44372" lon="-1.68246">
        <ele>24.5</ele>
        <time>2013-01-25T14:24:21Z</time>
      </trkpt>
      <trkpt lat="46.44369" lon="-1.68243">
        <ele>24.8</ele>
        <time>2013-01-25T14:24:24Z</time>
      </trkpt>
      <trkpt lat="46.44364" lon="-1.68237">
        <ele>25</ele>
        <time>2013-01-25T14:24:31Z</time>
      </trkpt>
      <trkpt lat="46.44363" lon="-1.68236">
        <ele>25.1</ele>
        <time>2013-01-25T14:24:32Z</time>
      </trkpt>
      <trkpt lat="46.44359" lon="-1.68234">
        <ele>25.5</ele>
        <time>2013-01-25T14:24:36Z</time>
      </trkpt>
      <trkpt lat="46.44356" lon="-1.68232">
        <ele>26.6</ele>
        <time>2013-01-25T14:24:41Z</time>
      </trkpt>
      <trkpt lat="46.44352" lon="-1.68229">
        <ele>25</ele>
        <time>2013-01-25T14:24:46Z</time>
      </trkpt>
      <trkpt lat="46.44348" lon="-1.68227">
        <ele>24.2</ele>
        <time>2013-01-25T14:24:51Z</time>
      </trkpt>
      <trkpt lat="46.44344" lon="-1.68224">
        <ele>24.2</ele>
        <time>2013-01-25T14:24:55Z</time>
      </trkpt>
      <trkpt lat="46.4434" lon="-1.68224">
        <ele>24.8</ele>
        <time>2013-01-25T14:24:59Z</time>
      </trkpt>
      <trkpt lat="46.44337" lon="-1.68223">
        <ele>24.2</ele>
        <time>2013-01-25T14:25:02Z</time>
      </trkpt>
      <trkpt lat="46.44334" lon="-1.68222">
        <ele>23.7</ele>
        <time>2013-01-25T14:25:05Z</time>
      </trkpt>
      <trkpt lat="46.4433" lon="-1.6822">
        <ele>23.7</ele>
        <time>2013-01-25T14:25:09Z</time>
      </trkpt>
      <trkpt lat="46.44326" lon="-1.68219">
        <ele>23.2</ele>
        <time>2013-01-25T14:25:13Z</time>
      </trkpt>
      <trkpt lat="46.44322" lon="-1.68218">
        <ele>23.6</ele>
        <time>2013-01-25T14:25:17Z</time>
      </trkpt>
      <trkpt lat="46.44318" lon="-1.68218">
        <ele>23.7</ele>
        <time>2013-01-25T14:25:21Z</time>
      </trkpt>
      <trkpt lat="46.44314" lon="-1.68217">
        <ele>23.4</ele>
        <time>2013-01-25T14:25:25Z</time>
      </trkpt>
      <trkpt lat="46.44306" lon="-1.68217">
        <ele>23.6</ele>
        <time>2013-01-25T14:25:33Z</time>
      </trkpt>
      <trkpt lat="46.44305" lon="-1.68217">
        <ele>23.5</ele>
        <time>2013-01-25T14:25:34Z</time>
      </trkpt>
      <trkpt lat="46.44301" lon="-1.68218">
        <ele>23.1</ele>
        <time>2013-01-25T14:25:38Z</time>
      </trkpt>
      <trkpt lat="46.44298" lon="-1.68219">
        <ele>23.2</ele>
        <time>2013-01-25T14:25:42Z</time>
      </trkpt>
      <trkpt lat="46.44293" lon="-1.68218">
        <ele>22.4</ele>
        <time>2013-01-25T14:25:47Z</time>
      </trkpt>
      <trkpt lat="46.44289" lon="-1.68218">
        <ele>22.1</ele>
        <time>2013-01-25T14:25:52Z</time>
      </trkpt>
      <trkpt lat="46.44285" lon="-1.68216">
        <ele>22</ele>
        <time>2013-01-25T14:25:57Z</time>
      </trkpt>
      <trkpt lat="46.44283" lon="-1.68212">
        <ele>22.4</ele>
        <time>2013-01-25T14:26:01Z</time>
      </trkpt>
      <trkpt lat="46.44279" lon="-1.68209">
        <ele>21.9</ele>
        <time>2013-01-25T14:26:06Z</time>
      </trkpt>
      <trkpt lat="46.44275" lon="-1.68205">
        <ele>22.2</ele>
        <time>2013-01-25T14:26:10Z</time>
      </trkpt>
      <trkpt lat="46.44273" lon="-1.68201">
        <ele>23.2</ele>
        <time>2013-01-25T14:26:15Z</time>
      </trkpt>
      <trkpt lat="46.44269" lon="-1.68197">
        <ele>22.5</ele>
        <time>2013-01-25T14:26:20Z</time>
      </trkpt>
      <trkpt lat="46.44266" lon="-1.68194">
        <ele>22.3</ele>
        <time>2013-01-25T14:26:25Z</time>
      </trkpt>
      <trkpt lat="46.44262" lon="-1.68193">
        <ele>21.8</ele>
        <time>2013-01-25T14:26:29Z</time>
      </trkpt>
      <trkpt lat="46.44254" lon="-1.68191">
        <ele>21.6</ele>
        <time>2013-01-25T14:26:37Z</time>
      </trkpt>
      <trkpt lat="46.44254" lon="-1.68191">
        <ele>21.6</ele>
        <time>2013-01-25T14:26:38Z</time>
      </trkpt>
      <trkpt lat="46.4425" lon="-1.68191">
        <ele>21.1</ele>
        <time>2013-01-25T14:26:43Z</time>
      </trkpt>
      <trkpt lat="46.44245" lon="-1.68192">
        <ele>20.6</ele>
        <time>2013-01-25T14:26:50Z</time>
      </trkpt>
      <trkpt lat="46.44242" lon="-1.68195">
        <ele>20.1</ele>
        <time>2013-01-25T14:26:54Z</time>
      </trkpt>
      <trkpt lat="46.44239" lon="-1.68199">
        <ele>20.1</ele>
        <time>2013-01-25T14:26:58Z</time>
      </trkpt>
      <trkpt lat="46.44237" lon="-1.68203">
        <ele>20</ele>
        <time>2013-01-25T14:27:02Z</time>
      </trkpt>
      <trkpt lat="46.44236" lon="-1.68208">
        <ele>20.1</ele>
        <time>2013-01-25T14:27:06Z</time>
      </trkpt>
      <trkpt lat="46.44234" lon="-1.68213">
        <ele>19.7</ele>
        <time>2013-01-25T14:27:10Z</time>
      </trkpt>
      <trkpt lat="46.44233" lon="-1.68219">
        <ele>18.9</ele>
        <time>2013-01-25T14:27:14Z</time>
      </trkpt>
      <trkpt lat="46.44233" lon="-1.68225">
        <ele>19.3</ele>
        <time>2013-01-25T14:27:18Z</time>
      </trkpt>
      <trkpt lat="46.44232" lon="-1.68231">
        <ele>19</ele>
        <time>2013-01-25T14:27:22Z</time>
      </trkpt>
      <trkpt lat="46.44232" lon="-1.68236">
        <ele>19</ele>
        <time>2013-01-25T14:27:27Z</time>
      </trkpt>
      <trkpt lat="46.44232" lon="-1.68243">
        <ele>19.3</ele>
        <time>2013-01-25T14:27:32Z</time>
      </trkpt>
      <trkpt lat="46.44234" lon="-1.68253">
        <ele>18.9</ele>
        <time>2013-01-25T14:27:39Z</time>
      </trkpt>
      <trkpt lat="46.44235" lon="-1.68254">
        <ele>18.9</ele>
        <time>2013-01-25T14:27:40Z</time>
      </trkpt>
      <trkpt lat="46.44235" lon="-1.6826">
        <ele>18.5</ele>
        <time>2013-01-25T14:27:44Z</time>
      </trkpt>
      <trkpt lat="46.44235" lon="-1.68266">
        <ele>19</ele>
        <time>2013-01-25T14:27:48Z</time>
      </trkpt>
      <trkpt lat="46.44236" lon="-1.68272">
        <ele>19</ele>
        <time>2013-01-25T14:27:52Z</time>
      </trkpt>
      <trkpt lat="46.44237" lon="-1.68277">
        <ele>18.5</ele>
        <time>2013-01-25T14:27:55Z</time>
      </trkpt>
      <trkpt lat="46.44239" lon="-1.68281">
        <ele>18.7</ele>
        <time>2013-01-25T14:27:58Z</time>
      </trkpt>
      <trkpt lat="46.44241" lon="-1.68286">
        <ele>19.2</ele>
        <time>2013-01-25T14:28:01Z</time>
      </trkpt>
      <trkpt lat="46.44243" lon="-1.68291">
        <ele>19.6</ele>
        <time>2013-01-25T14:28:04Z</time>
      </trkpt>
      <trkpt lat="46.44244" lon="-1.68295">
        <ele>19.7</ele>
        <time>2013-01-25T14:28:06Z</time>
      </trkpt>
      <trkpt lat="46.44245" lon="-1.683">
        <ele>20.2</ele>
        <time>2013-01-25T14:28:08Z</time>
      </trkpt>
      <trkpt lat="46.44247" lon="-1.68304">
        <ele>19.7</ele>
        <time>2013-01-25T14:28:10Z</time>
      </trkpt>
      <trkpt lat="46.44249" lon="-1.68309">
        <ele>19.9</ele>
        <time>2013-01-25T14:28:13Z</time>
      </trkpt>
      <trkpt lat="46.4425" lon="-1.68314">
        <ele>20.3</ele>
        <time>2013-01-25T14:28:16Z</time>
      </trkpt>
      <trkpt lat="46.44251" lon="-1.6832">
        <ele>20.6</ele>
        <time>2013-01-25T14:28:19Z</time>
      </trkpt>
      <trkpt lat="46.44252" lon="-1.68326">
        <ele>20.7</ele>
        <time>2013-01-25T14:28:22Z</time>
      </trkpt>
      <trkpt lat="46.44253" lon="-1.6833">
        <ele>20.7</ele>
        <time>2013-01-25T14:28:25Z</time>
      </trkpt>
      <trkpt lat="46.44254" lon="-1.68335">
        <ele>20.7</ele>
        <time>2013-01-25T14:28:28Z</time>
      </trkpt>
      <trkpt lat="46.44254" lon="-1.68342">
        <ele>20.3</ele>
        <time>2013-01-25T14:28:32Z</time>
      </trkpt>
      <trkpt lat="46.44255" lon="-1.68348">
        <ele>20.7</ele>
        <time>2013-01-25T14:28:35Z</time>
      </trkpt>
      <trkpt lat="46.44255" lon="-1.68357">
        <ele>19.8</ele>
        <time>2013-01-25T14:28:40Z</time>
      </trkpt>
      <trkpt lat="46.44255" lon="-1.68359">
        <ele>19.3</ele>
        <time>2013-01-25T14:28:41Z</time>
      </trkpt>
      <trkpt lat="46.44254" lon="-1.68365">
        <ele>19.9</ele>
        <time>2013-01-25T14:28:44Z</time>
      </trkpt>
      <trkpt lat="46.44253" lon="-1.68371">
        <ele>20.4</ele>
        <time>2013-01-25T14:28:48Z</time>
      </trkpt>
      <trkpt lat="46.44253" lon="-1.68376">
        <ele>19.9</ele>
        <time>2013-01-25T14:28:51Z</time>
      </trkpt>
      <trkpt lat="46.44252" lon="-1.68382">
        <ele>20</ele>
        <time>2013-01-25T14:28:55Z</time>
      </trkpt>
      <trkpt lat="46.44252" lon="-1.68388">
        <ele>18.8</ele>
        <time>2013-01-25T14:28:59Z</time>
      </trkpt>
      <trkpt lat="46.44252" lon="-1.68394">
        <ele>18.9</ele>
        <time>2013-01-25T14:29:03Z</time>
      </trkpt>
      <trkpt lat="46.44253" lon="-1.68399">
        <ele>19.5</ele>
        <time>2013-01-25T14:29:06Z</time>
      </trkpt>
      <trkpt lat="46.44253" lon="-1.68404">
        <ele>19.6</ele>
        <time>2013-01-25T14:29:09Z</time>
      </trkpt>
      <trkpt lat="46.44254" lon="-1.6841">
        <ele>19.7</ele>
        <time>2013-01-25T14:29:13Z</time>
      </trkpt>
      <trkpt lat="46.44255" lon="-1.68416">
        <ele>20</ele>
        <time>2013-01-25T14:29:17Z</time>
      </trkpt>
      <trkpt lat="46.44255" lon="-1.68421">
        <ele>20.4</ele>
        <time>2013-01-25T14:29:21Z</time>
      </trkpt>
      <trkpt lat="46.44257" lon="-1.68426">
        <ele>20.1</ele>
        <time>2013-01-25T14:29:25Z</time>
      </trkpt>
      <trkpt lat="46.44258" lon="-1.68431">
        <ele>20.3</ele>
        <time>2013-01-25T14:29:28Z</time>
      </trkpt>
      <trkpt lat="46.44259" lon="-1.68437">
        <ele>21</ele>
        <time>2013-01-25T14:29:32Z</time>
      </trkpt>
      <trkpt lat="46.4426" lon="-1.68442">
        <ele>20.4</ele>
        <time>2013-01-25T14:29:36Z</time>
      </trkpt>
      <trkpt lat="46.4426" lon="-1.68452">
        <ele>20.8</ele>
        <time>2013-01-25T14:29:43Z</time>
      </trkpt>
      <trkpt lat="46.4426" lon="-1.68453">
        <ele>20.8</ele>
        <time>2013-01-25T14:29:44Z</time>
      </trkpt>
      <trkpt lat="46.4426" lon="-1.68459">
        <ele>20.8</ele>
        <time>2013-01-25T14:29:49Z</time>
      </trkpt>
      <trkpt lat="46.4426" lon="-1.68465">
        <ele>21.1</ele>
        <time>2013-01-25T14:29:53Z</time>
      </trkpt>
      <trkpt lat="46.4426" lon="-1.6847">
        <ele>21.4</ele>
        <time>2013-01-25T14:29:57Z</time>
      </trkpt>
      <trkpt lat="46.4426" lon="-1.68475">
        <ele>22</ele>
        <time>2013-01-25T14:30:01Z</time>
      </trkpt>
      <trkpt lat="46.44261" lon="-1.6848">
        <ele>22.5</ele>
        <time>2013-01-25T14:30:05Z</time>
      </trkpt>
      <trkpt lat="46.44261" lon="-1.68486">
        <ele>23.2</ele>
        <time>2013-01-25T14:30:09Z</time>
      </trkpt>
      <trkpt lat="46.44262" lon="-1.68492">
        <ele>22.4</ele>
        <time>2013-01-25T14:30:13Z</time>
      </trkpt>
      <trkpt lat="46.44263" lon="-1.68498">
        <ele>22</ele>
        <time>2013-01-25T14:30:17Z</time>
      </trkpt>
      <trkpt lat="46.44264" lon="-1.68504">
        <ele>21.8</ele>
        <time>2013-01-25T14:30:21Z</time>
      </trkpt>
      <trkpt lat="46.44266" lon="-1.6851">
        <ele>20.8</ele>
        <time>2013-01-25T14:30:25Z</time>
      </trkpt>
      <trkpt lat="46.44266" lon="-1.68516">
        <ele>20.1</ele>
        <time>2013-01-25T14:30:30Z</time>
      </trkpt>
      <trkpt lat="46.44266" lon="-1.68522">
        <ele>20.2</ele>
        <time>2013-01-25T14:30:35Z</time>
      </trkpt>
      <trkpt lat="46.44264" lon="-1.68529">
        <ele>19.9</ele>
        <time>2013-01-25T14:30:48Z</time>
      </trkpt>
      <trkpt lat="46.44262" lon="-1.68535">
        <ele>21</ele>
        <time>2013-01-25T14:31:34Z</time>
      </trkpt>
      <trkpt lat="46.44257" lon="-1.68535">
        <ele>20.4</ele>
        <time>2013-01-25T14:31:44Z</time>
      </trkpt>
      <trkpt lat="46.44253" lon="-1.68536">
        <ele>19.4</ele>
        <time>2013-01-25T14:31:51Z</time>
      </trkpt>
      <trkpt lat="46.44248" lon="-1.68529">
        <ele>18.8</ele>
        <time>2013-01-25T14:32:01Z</time>
      </trkpt>
      <trkpt lat="46.44247" lon="-1.68529">
        <ele>19</ele>
        <time>2013-01-25T14:32:02Z</time>
      </trkpt>
      <trkpt lat="46.44244" lon="-1.68526">
        <ele>18.6</ele>
        <time>2013-01-25T14:32:07Z</time>
      </trkpt>
      <trkpt lat="46.4424" lon="-1.68524">
        <ele>18.3</ele>
        <time>2013-01-25T14:32:11Z</time>
      </trkpt>
      <trkpt lat="46.44237" lon="-1.68521">
        <ele>17.8</ele>
        <time>2013-01-25T14:32:16Z</time>
      </trkpt>
      <trkpt lat="46.44234" lon="-1.68516">
        <ele>17.8</ele>
        <time>2013-01-25T14:32:20Z</time>
      </trkpt>
      <trkpt lat="46.44232" lon="-1.68512">
        <ele>17.8</ele>
        <time>2013-01-25T14:32:24Z</time>
      </trkpt>
      <trkpt lat="46.44231" lon="-1.68507">
        <ele>17.8</ele>
        <time>2013-01-25T14:32:28Z</time>
      </trkpt>
      <trkpt lat="46.44229" lon="-1.68502">
        <ele>17.8</ele>
        <time>2013-01-25T14:32:33Z</time>
      </trkpt>
      <trkpt lat="46.44228" lon="-1.68496">
        <ele>17.7</ele>
        <time>2013-01-25T14:32:38Z</time>
      </trkpt>
      <trkpt lat="46.44226" lon="-1.6849">
        <ele>17.2</ele>
        <time>2013-01-25T14:32:43Z</time>
      </trkpt>
      <trkpt lat="46.44225" lon="-1.68486">
        <ele>17.8</ele>
        <time>2013-01-25T14:32:47Z</time>
      </trkpt>
      <trkpt lat="46.44224" lon="-1.6848">
        <ele>18.1</ele>
        <time>2013-01-25T14:32:51Z</time>
      </trkpt>
      <trkpt lat="46.44222" lon="-1.68474">
        <ele>18.5</ele>
        <time>2013-01-25T14:32:55Z</time>
      </trkpt>
      <trkpt lat="46.44221" lon="-1.68469">
        <ele>18.5</ele>
        <time>2013-01-25T14:32:59Z</time>
      </trkpt>
      <trkpt lat="46.44218" lon="-1.68459">
        <ele>18.7</ele>
        <time>2013-01-25T14:33:06Z</time>
      </trkpt>
      <trkpt lat="46.44218" lon="-1.68457">
        <ele>18.8</ele>
        <time>2013-01-25T14:33:07Z</time>
      </trkpt>
      <trkpt lat="46.44218" lon="-1.68452">
        <ele>18.8</ele>
        <time>2013-01-25T14:33:10Z</time>
      </trkpt>
      <trkpt lat="46.44218" lon="-1.68447">
        <ele>18.4</ele>
        <time>2013-01-25T14:33:13Z</time>
      </trkpt>
      <trkpt lat="46.44219" lon="-1.68441">
        <ele>18</ele>
        <time>2013-01-25T14:33:17Z</time>
      </trkpt>
      <trkpt lat="46.44219" lon="-1.68434">
        <ele>17.9</ele>
        <time>2013-01-25T14:33:21Z</time>
      </trkpt>
      <trkpt lat="46.44219" lon="-1.68429">
        <ele>17.6</ele>
        <time>2013-01-25T14:33:24Z</time>
      </trkpt>
      <trkpt lat="46.44219" lon="-1.68424">
        <ele>17.2</ele>
        <time>2013-01-25T14:33:28Z</time>
      </trkpt>
      <trkpt lat="46.44219" lon="-1.68417">
        <ele>16.8</ele>
        <time>2013-01-25T14:33:33Z</time>
      </trkpt>
      <trkpt lat="46.44218" lon="-1.68411">
        <ele>17.3</ele>
        <time>2013-01-25T14:33:38Z</time>
      </trkpt>
      <trkpt lat="46.44217" lon="-1.68405">
        <ele>17.5</ele>
        <time>2013-01-25T14:33:44Z</time>
      </trkpt>
      <trkpt lat="46.44216" lon="-1.68399">
        <ele>17.7</ele>
        <time>2013-01-25T14:33:49Z</time>
      </trkpt>
      <trkpt lat="46.44216" lon="-1.68393">
        <ele>17.8</ele>
        <time>2013-01-25T14:33:53Z</time>
      </trkpt>
      <trkpt lat="46.44214" lon="-1.68387">
        <ele>18</ele>
        <time>2013-01-25T14:33:58Z</time>
      </trkpt>
      <trkpt lat="46.44214" lon="-1.68382">
        <ele>18</ele>
        <time>2013-01-25T14:34:02Z</time>
      </trkpt>
      <trkpt lat="46.44213" lon="-1.68371">
        <ele>18.3</ele>
        <time>2013-01-25T14:34:09Z</time>
      </trkpt>
      <trkpt lat="46.44213" lon="-1.6837">
        <ele>18.2</ele>
        <time>2013-01-25T14:34:10Z</time>
      </trkpt>
      <trkpt lat="46.44214" lon="-1.68364">
        <ele>18.8</ele>
        <time>2013-01-25T14:34:14Z</time>
      </trkpt>
      <trkpt lat="46.44214" lon="-1.68358">
        <ele>18.8</ele>
        <time>2013-01-25T14:34:18Z</time>
      </trkpt>
      <trkpt lat="46.44214" lon="-1.68353">
        <ele>18.4</ele>
        <time>2013-01-25T14:34:22Z</time>
      </trkpt>
      <trkpt lat="46.44215" lon="-1.68347">
        <ele>18.2</ele>
        <time>2013-01-25T14:34:26Z</time>
      </trkpt>
      <trkpt lat="46.44215" lon="-1.68342">
        <ele>18.7</ele>
        <time>2013-01-25T14:34:30Z</time>
      </trkpt>
      <trkpt lat="46.44216" lon="-1.68336">
        <ele>18</ele>
        <time>2013-01-25T14:34:35Z</time>
      </trkpt>
      <trkpt lat="46.44216" lon="-1.6833">
        <ele>17.6</ele>
        <time>2013-01-25T14:34:40Z</time>
      </trkpt>
      <trkpt lat="46.44215" lon="-1.68324">
        <ele>18</ele>
        <time>2013-01-25T14:34:44Z</time>
      </trkpt>
      <trkpt lat="46.44215" lon="-1.68318">
        <ele>18.2</ele>
        <time>2013-01-25T14:34:47Z</time>
      </trkpt>
      <trkpt lat="46.44214" lon="-1.68313">
        <ele>18.4</ele>
        <time>2013-01-25T14:34:50Z</time>
      </trkpt>
      <trkpt lat="46.44213" lon="-1.68309">
        <ele>18.7</ele>
        <time>2013-01-25T14:34:53Z</time>
      </trkpt>
      <trkpt lat="46.44211" lon="-1.68303">
        <ele>19.7</ele>
        <time>2013-01-25T14:34:57Z</time>
      </trkpt>
      <trkpt lat="46.44209" lon="-1.68299">
        <ele>19.4</ele>
        <time>2013-01-25T14:35:01Z</time>
      </trkpt>
      <trkpt lat="46.44206" lon="-1.68289">
        <ele>18.2</ele>
        <time>2013-01-25T14:35:12Z</time>
      </trkpt>
      <trkpt lat="46.44205" lon="-1.68289">
        <ele>18.1</ele>
        <time>2013-01-25T14:35:13Z</time>
      </trkpt>
      <trkpt lat="46.44201" lon="-1.68289">
        <ele>17.4</ele>
        <time>2013-01-25T14:35:22Z</time>
      </trkpt>
      <trkpt lat="46.44197" lon="-1.68286">
        <ele>16.4</ele>
        <time>2013-01-25T14:35:29Z</time>
      </trkpt>
      <trkpt lat="46.44194" lon="-1.68282">
        <ele>17.4</ele>
        <time>2013-01-25T14:35:34Z</time>
      </trkpt>
      <trkpt lat="46.44191" lon="-1.68277">
        <ele>17.2</ele>
        <time>2013-01-25T14:35:38Z</time>
      </trkpt>
      <trkpt lat="46.44189" lon="-1.68271">
        <ele>17.3</ele>
        <time>2013-01-25T14:35:42Z</time>
      </trkpt>
      <trkpt lat="46.44187" lon="-1.68265">
        <ele>17.5</ele>
        <time>2013-01-25T14:35:46Z</time>
      </trkpt>
      <trkpt lat="46.44185" lon="-1.6826">
        <ele>18.1</ele>
        <time>2013-01-25T14:35:52Z</time>
      </trkpt>
      <trkpt lat="46.44183" lon="-1.68255">
        <ele>18.2</ele>
        <time>2013-01-25T14:35:58Z</time>
      </trkpt>
      <trkpt lat="46.44181" lon="-1.68251">
        <ele>17.9</ele>
        <time>2013-01-25T14:36:02Z</time>
      </trkpt>
      <trkpt lat="46.44179" lon="-1.68246">
        <ele>17.5</ele>
        <time>2013-01-25T14:36:06Z</time>
      </trkpt>
      <trkpt lat="46.44178" lon="-1.6824">
        <ele>17.2</ele>
        <time>2013-01-25T14:36:10Z</time>
      </trkpt>
      <trkpt lat="46.44176" lon="-1.68234">
        <ele>17.1</ele>
        <time>2013-01-25T14:36:14Z</time>
      </trkpt>
      <trkpt lat="46.44174" lon="-1.68226">
        <ele>18</ele>
        <time>2013-01-25T14:36:19Z</time>
      </trkpt>
      <trkpt lat="46.44173" lon="-1.68225">
        <ele>18.1</ele>
        <time>2013-01-25T14:36:20Z</time>
      </trkpt>
      <trkpt lat="46.44173" lon="-1.6822">
        <ele>18.3</ele>
        <time>2013-01-25T14:36:23Z</time>
      </trkpt>
      <trkpt lat="46.44173" lon="-1.68214">
        <ele>18.5</ele>
        <time>2013-01-25T14:36:26Z</time>
      </trkpt>
      <trkpt lat="46.44173" lon="-1.68209">
        <ele>17.6</ele>
        <time>2013-01-25T14:36:29Z</time>
      </trkpt>
      <trkpt lat="46.44172" lon="-1.68203">
        <ele>17</ele>
        <time>2013-01-25T14:36:32Z</time>
      </trkpt>
      <trkpt lat="46.44171" lon="-1.68197">
        <ele>17.5</ele>
        <time>2013-01-25T14:36:36Z</time>
      </trkpt>
      <trkpt lat="46.44171" lon="-1.68192">
        <ele>17.6</ele>
        <time>2013-01-25T14:36:39Z</time>
      </trkpt>
      <trkpt lat="46.4417" lon="-1.68187">
        <ele>17.2</ele>
        <time>2013-01-25T14:36:42Z</time>
      </trkpt>
      <trkpt lat="46.4417" lon="-1.68181">
        <ele>17.2</ele>
        <time>2013-01-25T14:36:46Z</time>
      </trkpt>
      <trkpt lat="46.4417" lon="-1.68175">
        <ele>16.7</ele>
        <time>2013-01-25T14:36:50Z</time>
      </trkpt>
      <trkpt lat="46.44168" lon="-1.68169">
        <ele>16.2</ele>
        <time>2013-01-25T14:36:54Z</time>
      </trkpt>
      <trkpt lat="46.44167" lon="-1.68164">
        <ele>16.6</ele>
        <time>2013-01-25T14:36:58Z</time>
      </trkpt>
      <trkpt lat="46.44166" lon="-1.68157">
        <ele>16.3</ele>
        <time>2013-01-25T14:37:02Z</time>
      </trkpt>
      <trkpt lat="46.44165" lon="-1.68153">
        <ele>15.9</ele>
        <time>2013-01-25T14:37:06Z</time>
      </trkpt>
      <trkpt lat="46.44164" lon="-1.68146">
        <ele>16.7</ele>
        <time>2013-01-25T14:37:11Z</time>
      </trkpt>
      <trkpt lat="46.44162" lon="-1.68136">
        <ele>16.2</ele>
        <time>2013-01-25T14:37:21Z</time>
      </trkpt>
      <trkpt lat="46.44162" lon="-1.68135">
        <ele>16.3</ele>
        <time>2013-01-25T14:37:22Z</time>
      </trkpt>
      <trkpt lat="46.44162" lon="-1.68129">
        <ele>16.3</ele>
        <time>2013-01-25T14:37:27Z</time>
      </trkpt>
      <trkpt lat="46.44162" lon="-1.68123">
        <ele>16.4</ele>
        <time>2013-01-25T14:37:33Z</time>
      </trkpt>
      <trkpt lat="46.44161" lon="-1.68118">
        <ele>16.6</ele>
        <time>2013-01-25T14:37:37Z</time>
      </trkpt>
      <trkpt lat="46.4416" lon="-1.68112">
        <ele>16.2</ele>
        <time>2013-01-25T14:37:41Z</time>
      </trkpt>
      <trkpt lat="46.44159" lon="-1.68106">
        <ele>16.1</ele>
        <time>2013-01-25T14:37:45Z</time>
      </trkpt>
      <trkpt lat="46.44159" lon="-1.681">
        <ele>16.7</ele>
        <time>2013-01-25T14:37:49Z</time>
      </trkpt>
      <trkpt lat="46.44158" lon="-1.68093">
        <ele>16.8</ele>
        <time>2013-01-25T14:37:53Z</time>
      </trkpt>
      <trkpt lat="46.44158" lon="-1.68087">
        <ele>16.6</ele>
        <time>2013-01-25T14:37:57Z</time>
      </trkpt>
      <trkpt lat="46.44158" lon="-1.68081">
        <ele>16.5</ele>
        <time>2013-01-25T14:38:01Z</time>
      </trkpt>
      <trkpt lat="46.44157" lon="-1.68075">
        <ele>16.8</ele>
        <time>2013-01-25T14:38:05Z</time>
      </trkpt>
      <trkpt lat="46.44156" lon="-1.68069">
        <ele>16.7</ele>
        <time>2013-01-25T14:38:09Z</time>
      </trkpt>
      <trkpt lat="46.44155" lon="-1.68063">
        <ele>16.4</ele>
        <time>2013-01-25T14:38:16Z</time>
      </trkpt>
      <trkpt lat="46.44153" lon="-1.68052">
        <ele>15.9</ele>
        <time>2013-01-25T14:38:26Z</time>
      </trkpt>
      <trkpt lat="46.44153" lon="-1.68051">
        <ele>15.2</ele>
        <time>2013-01-25T14:38:27Z</time>
      </trkpt>
      <trkpt lat="46.44151" lon="-1.68045">
        <ele>15.8</ele>
        <time>2013-01-25T14:38:34Z</time>
      </trkpt>
      <trkpt lat="46.44148" lon="-1.68041">
        <ele>15</ele>
        <time>2013-01-25T14:38:41Z</time>
      </trkpt>
      <trkpt lat="46.44146" lon="-1.68036">
        <ele>15.3</ele>
        <time>2013-01-25T14:38:47Z</time>
      </trkpt>
      <trkpt lat="46.44144" lon="-1.6803">
        <ele>13.3</ele>
        <time>2013-01-25T14:38:57Z</time>
      </trkpt>
      <trkpt lat="46.44141" lon="-1.68026">
        <ele>11.1</ele>
        <time>2013-01-25T14:39:05Z</time>
      </trkpt>
      <trkpt lat="46.44137" lon="-1.68024">
        <ele>9.5</ele>
        <time>2013-01-25T14:39:13Z</time>
      </trkpt>
      <trkpt lat="46.44133" lon="-1.68023">
        <ele>8.8</ele>
        <time>2013-01-25T14:39:20Z</time>
      </trkpt>
      <trkpt lat="46.44127" lon="-1.68017">
        <ele>8.4</ele>
        <time>2013-01-25T14:39:27Z</time>
      </trkpt>
      <trkpt lat="46.44126" lon="-1.68016">
        <ele>8.4</ele>
        <time>2013-01-25T14:39:28Z</time>
      </trkpt>
      <trkpt lat="46.44123" lon="-1.68012">
        <ele>8.6</ele>
        <time>2013-01-25T14:39:32Z</time>
      </trkpt>
      <trkpt lat="46.4412" lon="-1.68008">
        <ele>8.7</ele>
        <time>2013-01-25T14:39:36Z</time>
      </trkpt>
      <trkpt lat="46.44117" lon="-1.68004">
        <ele>8.6</ele>
        <time>2013-01-25T14:39:40Z</time>
      </trkpt>
      <trkpt lat="46.44114" lon="-1.68">
        <ele>8.7</ele>
        <time>2013-01-25T14:39:44Z</time>
      </trkpt>
      <trkpt lat="46.44111" lon="-1.67996">
        <ele>8.2</ele>
        <time>2013-01-25T14:39:48Z</time>
      </trkpt>
      <trkpt lat="46.44108" lon="-1.67992">
        <ele>7.9</ele>
        <time>2013-01-25T14:39:53Z</time>
      </trkpt>
      <trkpt lat="46.44105" lon="-1.67989">
        <ele>8.6</ele>
        <time>2013-01-25T14:39:58Z</time>
      </trkpt>
      <trkpt lat="46.44102" lon="-1.67985">
        <ele>8.4</ele>
        <time>2013-01-25T14:40:02Z</time>
      </trkpt>
      <trkpt lat="46.44101" lon="-1.6798">
        <ele>8.3</ele>
        <time>2013-01-25T14:40:05Z</time>
      </trkpt>
      <trkpt lat="46.441" lon="-1.67976">
        <ele>8.6</ele>
        <time>2013-01-25T14:40:08Z</time>
      </trkpt>
      <trkpt lat="46.441" lon="-1.6797">
        <ele>8.3</ele>
        <time>2013-01-25T14:40:12Z</time>
      </trkpt>
      <trkpt lat="46.44099" lon="-1.67964">
        <ele>8</ele>
        <time>2013-01-25T14:40:16Z</time>
      </trkpt>
      <trkpt lat="46.44099" lon="-1.67958">
        <ele>8.1</ele>
        <time>2013-01-25T14:40:20Z</time>
      </trkpt>
      <trkpt lat="46.44099" lon="-1.67952">
        <ele>8.6</ele>
        <time>2013-01-25T14:40:24Z</time>
      </trkpt>
      <trkpt lat="46.44099" lon="-1.67947">
        <ele>8.5</ele>
        <time>2013-01-25T14:40:27Z</time>
      </trkpt>
      <trkpt lat="46.441" lon="-1.67938">
        <ele>8.3</ele>
        <time>2013-01-25T14:40:32Z</time>
      </trkpt>
      <trkpt lat="46.441" lon="-1.67936">
        <ele>8.5</ele>
        <time>2013-01-25T14:40:33Z</time>
      </trkpt>
      <trkpt lat="46.441" lon="-1.67931">
        <ele>7.8</ele>
        <time>2013-01-25T14:40:37Z</time>
      </trkpt>
      <trkpt lat="46.441" lon="-1.67925">
        <ele>8</ele>
        <time>2013-01-25T14:40:40Z</time>
      </trkpt>
      <trkpt lat="46.441" lon="-1.6792">
        <ele>7.9</ele>
        <time>2013-01-25T14:40:44Z</time>
      </trkpt>
      <trkpt lat="46.441" lon="-1.67914">
        <ele>7.9</ele>
        <time>2013-01-25T14:40:47Z</time>
      </trkpt>
      <trkpt lat="46.441" lon="-1.67909">
        <ele>8.1</ele>
        <time>2013-01-25T14:40:50Z</time>
      </trkpt>
      <trkpt lat="46.441" lon="-1.67903">
        <ele>7.6</ele>
        <time>2013-01-25T14:40:54Z</time>
      </trkpt>
      <trkpt lat="46.441" lon="-1.67897">
        <ele>8</ele>
        <time>2013-01-25T14:40:58Z</time>
      </trkpt>
      <trkpt lat="46.44099" lon="-1.67891">
        <ele>8.6</ele>
        <time>2013-01-25T14:41:02Z</time>
      </trkpt>
      <trkpt lat="46.44098" lon="-1.67886">
        <ele>8.8</ele>
        <time>2013-01-25T14:41:06Z</time>
      </trkpt>
      <trkpt lat="46.44097" lon="-1.6788">
        <ele>8.5</ele>
        <time>2013-01-25T14:41:11Z</time>
      </trkpt>
      <trkpt lat="46.44095" lon="-1.67874">
        <ele>8.9</ele>
        <time>2013-01-25T14:41:16Z</time>
      </trkpt>
      <trkpt lat="46.44094" lon="-1.67868">
        <ele>8.4</ele>
        <time>2013-01-25T14:41:20Z</time>
      </trkpt>
      <trkpt lat="46.44093" lon="-1.67863">
        <ele>8.3</ele>
        <time>2013-01-25T14:41:24Z</time>
      </trkpt>
      <trkpt lat="46.44091" lon="-1.67857">
        <ele>8.1</ele>
        <time>2013-01-25T14:41:28Z</time>
      </trkpt>
      <trkpt lat="46.44089" lon="-1.67847">
        <ele>7.8</ele>
        <time>2013-01-25T14:41:35Z</time>
      </trkpt>
      <trkpt lat="46.44088" lon="-1.67846">
        <ele>7.8</ele>
        <time>2013-01-25T14:41:36Z</time>
      </trkpt>
      <trkpt lat="46.44087" lon="-1.6784">
        <ele>7.8</ele>
        <time>2013-01-25T14:41:40Z</time>
      </trkpt>
      <trkpt lat="46.44086" lon="-1.67834">
        <ele>8.1</ele>
        <time>2013-01-25T14:41:44Z</time>
      </trkpt>
      <trkpt lat="46.44086" lon="-1.67827">
        <ele>8.3</ele>
        <time>2013-01-25T14:41:48Z</time>
      </trkpt>
      <trkpt lat="46.44086" lon="-1.67822">
        <ele>7.9</ele>
        <time>2013-01-25T14:41:51Z</time>
      </trkpt>
      <trkpt lat="46.44086" lon="-1.67816">
        <ele>8</ele>
        <time>2013-01-25T14:41:54Z</time>
      </trkpt>
      <trkpt lat="46.44086" lon="-1.67811">
        <ele>8</ele>
        <time>2013-01-25T14:41:57Z</time>
      </trkpt>
      <trkpt lat="46.44086" lon="-1.67804">
        <ele>7.4</ele>
        <time>2013-01-25T14:42:01Z</time>
      </trkpt>
      <trkpt lat="46.44086" lon="-1.67799">
        <ele>8</ele>
        <time>2013-01-25T14:42:04Z</time>
      </trkpt>
      <trkpt lat="46.44086" lon="-1.67794">
        <ele>7.9</ele>
        <time>2013-01-25T14:42:07Z</time>
      </trkpt>
      <trkpt lat="46.44086" lon="-1.67788">
        <ele>7.6</ele>
        <time>2013-01-25T14:42:11Z</time>
      </trkpt>
      <trkpt lat="46.44086" lon="-1.67782">
        <ele>7.5</ele>
        <time>2013-01-25T14:42:14Z</time>
      </trkpt>
      <trkpt lat="46.44085" lon="-1.67777">
        <ele>7.9</ele>
        <time>2013-01-25T14:42:17Z</time>
      </trkpt>
      <trkpt lat="46.44086" lon="-1.67772">
        <ele>8.1</ele>
        <time>2013-01-25T14:42:20Z</time>
      </trkpt>
      <trkpt lat="46.44086" lon="-1.67766">
        <ele>8.1</ele>
        <time>2013-01-25T14:42:23Z</time>
      </trkpt>
      <trkpt lat="46.44086" lon="-1.6776">
        <ele>8.3</ele>
        <time>2013-01-25T14:42:26Z</time>
      </trkpt>
      <trkpt lat="46.44085" lon="-1.67754">
        <ele>8.2</ele>
        <time>2013-01-25T14:42:30Z</time>
      </trkpt>
      <trkpt lat="46.44085" lon="-1.67743">
        <ele>7.4</ele>
        <time>2013-01-25T14:42:37Z</time>
      </trkpt>
      <trkpt lat="46.44085" lon="-1.67741">
        <ele>7.5</ele>
        <time>2013-01-25T14:42:38Z</time>
      </trkpt>
      <trkpt lat="46.44085" lon="-1.67735">
        <ele>7.9</ele>
        <time>2013-01-25T14:42:42Z</time>
      </trkpt>
      <trkpt lat="46.44085" lon="-1.6773">
        <ele>8.1</ele>
        <time>2013-01-25T14:42:46Z</time>
      </trkpt>
      <trkpt lat="46.44084" lon="-1.67725">
        <ele>7.8</ele>
        <time>2013-01-25T14:42:50Z</time>
      </trkpt>
      <trkpt lat="46.44084" lon="-1.67719">
        <ele>8.4</ele>
        <time>2013-01-25T14:42:54Z</time>
      </trkpt>
      <trkpt lat="46.44083" lon="-1.67713">
        <ele>8</ele>
        <time>2013-01-25T14:42:58Z</time>
      </trkpt>
      <trkpt lat="46.44083" lon="-1.67707">
        <ele>8</ele>
        <time>2013-01-25T14:43:02Z</time>
      </trkpt>
      <trkpt lat="46.44083" lon="-1.67702">
        <ele>8.1</ele>
        <time>2013-01-25T14:43:05Z</time>
      </trkpt>
      <trkpt lat="46.44082" lon="-1.67697">
        <ele>7.7</ele>
        <time>2013-01-25T14:43:09Z</time>
      </trkpt>
      <trkpt lat="46.44082" lon="-1.6769">
        <ele>8</ele>
        <time>2013-01-25T14:43:13Z</time>
      </trkpt>
      <trkpt lat="46.44081" lon="-1.67685">
        <ele>8</ele>
        <time>2013-01-25T14:43:16Z</time>
      </trkpt>
      <trkpt lat="46.4408" lon="-1.6768">
        <ele>7.9</ele>
        <time>2013-01-25T14:43:20Z</time>
      </trkpt>
      <trkpt lat="46.44077" lon="-1.67675">
        <ele>8.2</ele>
        <time>2013-01-25T14:43:24Z</time>
      </trkpt>
      <trkpt lat="46.44074" lon="-1.6767">
        <ele>8</ele>
        <time>2013-01-25T14:43:28Z</time>
      </trkpt>
      <trkpt lat="46.44072" lon="-1.67666">
        <ele>8</ele>
        <time>2013-01-25T14:43:32Z</time>
      </trkpt>
      <trkpt lat="46.44067" lon="-1.67658">
        <ele>7.7</ele>
        <time>2013-01-25T14:43:39Z</time>
      </trkpt>
      <trkpt lat="46.44067" lon="-1.67657">
        <ele>7.3</ele>
        <time>2013-01-25T14:43:40Z</time>
      </trkpt>
      <trkpt lat="46.44065" lon="-1.67652">
        <ele>7.6</ele>
        <time>2013-01-25T14:43:44Z</time>
      </trkpt>
      <trkpt lat="46.44063" lon="-1.67648">
        <ele>7.5</ele>
        <time>2013-01-25T14:43:47Z</time>
      </trkpt>
      <trkpt lat="46.44061" lon="-1.67643">
        <ele>7.8</ele>
        <time>2013-01-25T14:43:50Z</time>
      </trkpt>
      <trkpt lat="46.4406" lon="-1.67637">
        <ele>7.8</ele>
        <time>2013-01-25T14:43:53Z</time>
      </trkpt>
      <trkpt lat="46.44059" lon="-1.67632">
        <ele>7.8</ele>
        <time>2013-01-25T14:43:56Z</time>
      </trkpt>
      <trkpt lat="46.44057" lon="-1.67627">
        <ele>7.4</ele>
        <time>2013-01-25T14:44:00Z</time>
      </trkpt>
      <trkpt lat="46.44056" lon="-1.67621">
        <ele>6.8</ele>
        <time>2013-01-25T14:44:04Z</time>
      </trkpt>
      <trkpt lat="46.44053" lon="-1.67616">
        <ele>6.9</ele>
        <time>2013-01-25T14:44:08Z</time>
      </trkpt>
      <trkpt lat="46.44052" lon="-1.67611">
        <ele>7.9</ele>
        <time>2013-01-25T14:44:11Z</time>
      </trkpt>
      <trkpt lat="46.4405" lon="-1.67607">
        <ele>8.1</ele>
        <time>2013-01-25T14:44:14Z</time>
      </trkpt>
      <trkpt lat="46.44047" lon="-1.67601">
        <ele>8.3</ele>
        <time>2013-01-25T14:44:18Z</time>
      </trkpt>
      <trkpt lat="46.44046" lon="-1.67597">
        <ele>8.6</ele>
        <time>2013-01-25T14:44:21Z</time>
      </trkpt>
      <trkpt lat="46.44044" lon="-1.67592">
        <ele>8.7</ele>
        <time>2013-01-25T14:44:24Z</time>
      </trkpt>
      <trkpt lat="46.44043" lon="-1.67587">
        <ele>8.1</ele>
        <time>2013-01-25T14:44:27Z</time>
      </trkpt>
      <trkpt lat="46.44041" lon="-1.67581">
        <ele>7.7</ele>
        <time>2013-01-25T14:44:30Z</time>
      </trkpt>
      <trkpt lat="46.4404" lon="-1.67576">
        <ele>8.4</ele>
        <time>2013-01-25T14:44:33Z</time>
      </trkpt>
      <trkpt lat="46.44036" lon="-1.67566">
        <ele>8.2</ele>
        <time>2013-01-25T14:44:41Z</time>
      </trkpt>
      <trkpt lat="46.44036" lon="-1.67565">
        <ele>8.1</ele>
        <time>2013-01-25T14:44:42Z</time>
      </trkpt>
      <trkpt lat="46.44036" lon="-1.67559">
        <ele>8.3</ele>
        <time>2013-01-25T14:44:46Z</time>
      </trkpt>
      <trkpt lat="46.44035" lon="-1.67554">
        <ele>8.3</ele>
        <time>2013-01-25T14:44:50Z</time>
      </trkpt>
      <trkpt lat="46.44034" lon="-1.67548">
        <ele>8.7</ele>
        <time>2013-01-25T14:44:55Z</time>
      </trkpt>
      <trkpt lat="46.44033" lon="-1.67542">
        <ele>8.2</ele>
        <time>2013-01-25T14:44:59Z</time>
      </trkpt>
      <trkpt lat="46.44031" lon="-1.67538">
        <ele>8.6</ele>
        <time>2013-01-25T14:45:03Z</time>
      </trkpt>
      <trkpt lat="46.44029" lon="-1.67532">
        <ele>8.7</ele>
        <time>2013-01-25T14:45:07Z</time>
      </trkpt>
      <trkpt lat="46.44027" lon="-1.67528">
        <ele>8.5</ele>
        <time>2013-01-25T14:45:10Z</time>
      </trkpt>
      <trkpt lat="46.44025" lon="-1.67524">
        <ele>8.4</ele>
        <time>2013-01-25T14:45:13Z</time>
      </trkpt>
      <trkpt lat="46.44022" lon="-1.6752">
        <ele>8.7</ele>
        <time>2013-01-25T14:45:17Z</time>
      </trkpt>
      <trkpt lat="46.44019" lon="-1.67516">
        <ele>9.4</ele>
        <time>2013-01-25T14:45:21Z</time>
      </trkpt>
      <trkpt lat="46.44016" lon="-1.67512">
        <ele>9.1</ele>
        <time>2013-01-25T14:45:26Z</time>
      </trkpt>
      <trkpt lat="46.44013" lon="-1.67507">
        <ele>8.7</ele>
        <time>2013-01-25T14:45:30Z</time>
      </trkpt>
      <trkpt lat="46.44011" lon="-1.67502">
        <ele>8.8</ele>
        <time>2013-01-25T14:45:35Z</time>
      </trkpt>
      <trkpt lat="46.44009" lon="-1.67496">
        <ele>8.6</ele>
        <time>2013-01-25T14:45:39Z</time>
      </trkpt>
      <trkpt lat="46.44005" lon="-1.67489">
        <ele>9.2</ele>
        <time>2013-01-25T14:45:46Z</time>
      </trkpt>
      <trkpt lat="46.44004" lon="-1.67487">
        <ele>8.9</ele>
        <time>2013-01-25T14:45:47Z</time>
      </trkpt>
      <trkpt lat="46.44001" lon="-1.67483">
        <ele>8.5</ele>
        <time>2013-01-25T14:45:51Z</time>
      </trkpt>
      <trkpt lat="46.43999" lon="-1.67479">
        <ele>8.9</ele>
        <time>2013-01-25T14:45:54Z</time>
      </trkpt>
      <trkpt lat="46.43995" lon="-1.67475">
        <ele>9.2</ele>
        <time>2013-01-25T14:45:58Z</time>
      </trkpt>
      <trkpt lat="46.43992" lon="-1.67472">
        <ele>9.3</ele>
        <time>2013-01-25T14:46:02Z</time>
      </trkpt>
      <trkpt lat="46.43989" lon="-1.67468">
        <ele>9.6</ele>
        <time>2013-01-25T14:46:05Z</time>
      </trkpt>
      <trkpt lat="46.43986" lon="-1.67465">
        <ele>9.4</ele>
        <time>2013-01-25T14:46:08Z</time>
      </trkpt>
      <trkpt lat="46.43984" lon="-1.67461">
        <ele>8.8</ele>
        <time>2013-01-25T14:46:11Z</time>
      </trkpt>
      <trkpt lat="46.43981" lon="-1.67457">
        <ele>8.9</ele>
        <time>2013-01-25T14:46:14Z</time>
      </trkpt>
      <trkpt lat="46.43978" lon="-1.67453">
        <ele>9</ele>
        <time>2013-01-25T14:46:17Z</time>
      </trkpt>
      <trkpt lat="46.43976" lon="-1.6745">
        <ele>9.2</ele>
        <time>2013-01-25T14:46:20Z</time>
      </trkpt>
      <trkpt lat="46.43973" lon="-1.67447">
        <ele>9</ele>
        <time>2013-01-25T14:46:23Z</time>
      </trkpt>
      <trkpt lat="46.4397" lon="-1.67444">
        <ele>9.5</ele>
        <time>2013-01-25T14:46:26Z</time>
      </trkpt>
      <trkpt lat="46.43967" lon="-1.67441">
        <ele>10.3</ele>
        <time>2013-01-25T14:46:29Z</time>
      </trkpt>
      <trkpt lat="46.43964" lon="-1.67438">
        <ele>9.8</ele>
        <time>2013-01-25T14:46:32Z</time>
      </trkpt>
      <trkpt lat="46.43961" lon="-1.67434">
        <ele>9.8</ele>
        <time>2013-01-25T14:46:35Z</time>
      </trkpt>
      <trkpt lat="46.43958" lon="-1.67431">
        <ele>9.4</ele>
        <time>2013-01-25T14:46:39Z</time>
      </trkpt>
      <trkpt lat="46.43954" lon="-1.67429">
        <ele>9.8</ele>
        <time>2013-01-25T14:46:43Z</time>
      </trkpt>
      <trkpt lat="46.43948" lon="-1.67428">
        <ele>10.5</ele>
        <time>2013-01-25T14:46:50Z</time>
      </trkpt>
      <trkpt lat="46.43947" lon="-1.67428">
        <ele>10.3</ele>
        <time>2013-01-25T14:46:51Z</time>
      </trkpt>
      <trkpt lat="46.43942" lon="-1.6743">
        <ele>9.8</ele>
        <time>2013-01-25T14:46:56Z</time>
      </trkpt>
      <trkpt lat="46.43939" lon="-1.67428">
        <ele>10.6</ele>
        <time>2013-01-25T14:47:03Z</time>
      </trkpt>
      <trkpt lat="46.43935" lon="-1.67426">
        <ele>10.6</ele>
        <time>2013-01-25T14:47:10Z</time>
      </trkpt>
      <trkpt lat="46.43931" lon="-1.67423">
        <ele>10.5</ele>
        <time>2013-01-25T14:47:36Z</time>
      </trkpt>
      <trkpt lat="46.43927" lon="-1.67422">
        <ele>10.8</ele>
        <time>2013-01-25T14:47:40Z</time>
      </trkpt>
      <trkpt lat="46.43923" lon="-1.67422">
        <ele>10.6</ele>
        <time>2013-01-25T14:47:44Z</time>
      </trkpt>
      <trkpt lat="46.4392" lon="-1.6742">
        <ele>10</ele>
        <time>2013-01-25T14:47:47Z</time>
      </trkpt>
      <trkpt lat="46.43914" lon="-1.67416">
        <ele>10.3</ele>
        <time>2013-01-25T14:47:52Z</time>
      </trkpt>
      <trkpt lat="46.43913" lon="-1.67415">
        <ele>10.5</ele>
        <time>2013-01-25T14:47:53Z</time>
      </trkpt>
      <trkpt lat="46.4391" lon="-1.67411">
        <ele>10.9</ele>
        <time>2013-01-25T14:47:56Z</time>
      </trkpt>
      <trkpt lat="46.43908" lon="-1.67407">
        <ele>10.9</ele>
        <time>2013-01-25T14:48:00Z</time>
      </trkpt>
      <trkpt lat="46.43905" lon="-1.67402">
        <ele>10.4</ele>
        <time>2013-01-25T14:48:04Z</time>
      </trkpt>
      <trkpt lat="46.43905" lon="-1.67397">
        <ele>10</ele>
        <time>2013-01-25T14:48:07Z</time>
      </trkpt>
      <trkpt lat="46.43904" lon="-1.67391">
        <ele>10.5</ele>
        <time>2013-01-25T14:48:11Z</time>
      </trkpt>
      <trkpt lat="46.43904" lon="-1.67385">
        <ele>10.9</ele>
        <time>2013-01-25T14:48:15Z</time>
      </trkpt>
      <trkpt lat="46.43904" lon="-1.67379">
        <ele>11.7</ele>
        <time>2013-01-25T14:48:19Z</time>
      </trkpt>
      <trkpt lat="46.43906" lon="-1.67375">
        <ele>11.9</ele>
        <time>2013-01-25T14:48:23Z</time>
      </trkpt>
      <trkpt lat="46.43909" lon="-1.67372">
        <ele>12.5</ele>
        <time>2013-01-25T14:48:27Z</time>
      </trkpt>
      <trkpt lat="46.43911" lon="-1.67367">
        <ele>12.7</ele>
        <time>2013-01-25T14:48:30Z</time>
      </trkpt>
      <trkpt lat="46.43913" lon="-1.67362">
        <ele>13.2</ele>
        <time>2013-01-25T14:48:36Z</time>
      </trkpt>
      <trkpt lat="46.43909" lon="-1.67352">
        <ele>13.1</ele>
        <time>2013-01-25T14:48:54Z</time>
      </trkpt>
      <trkpt lat="46.43909" lon="-1.67352">
        <ele>12.9</ele>
        <time>2013-01-25T14:48:55Z</time>
      </trkpt>
      <trkpt lat="46.43906" lon="-1.67347">
        <ele>12.5</ele>
        <time>2013-01-25T14:48:59Z</time>
      </trkpt>
      <trkpt lat="46.43904" lon="-1.67343">
        <ele>12.4</ele>
        <time>2013-01-25T14:49:02Z</time>
      </trkpt>
      <trkpt lat="46.43902" lon="-1.6734">
        <ele>12.3</ele>
        <time>2013-01-25T14:49:05Z</time>
      </trkpt>
      <trkpt lat="46.439" lon="-1.67336">
        <ele>13</ele>
        <time>2013-01-25T14:49:08Z</time>
      </trkpt>
      <trkpt lat="46.43897" lon="-1.67332">
        <ele>12.7</ele>
        <time>2013-01-25T14:49:12Z</time>
      </trkpt>
      <trkpt lat="46.43893" lon="-1.67329">
        <ele>12.4</ele>
        <time>2013-01-25T14:49:16Z</time>
      </trkpt>
      <trkpt lat="46.43889" lon="-1.67329">
        <ele>12.8</ele>
        <time>2013-01-25T14:49:20Z</time>
      </trkpt>
      <trkpt lat="46.43885" lon="-1.67329">
        <ele>12.9</ele>
        <time>2013-01-25T14:49:25Z</time>
      </trkpt>
      <trkpt lat="46.43882" lon="-1.67324">
        <ele>12.7</ele>
        <time>2013-01-25T14:49:30Z</time>
      </trkpt>
      <trkpt lat="46.43879" lon="-1.6732">
        <ele>13.2</ele>
        <time>2013-01-25T14:49:34Z</time>
      </trkpt>
      <trkpt lat="46.43877" lon="-1.67315">
        <ele>13</ele>
        <time>2013-01-25T14:49:38Z</time>
      </trkpt>
      <trkpt lat="46.43875" lon="-1.6731">
        <ele>13</ele>
        <time>2013-01-25T14:49:42Z</time>
      </trkpt>
      <trkpt lat="46.43874" lon="-1.67305">
        <ele>13.2</ele>
        <time>2013-01-25T14:49:46Z</time>
      </trkpt>
      <trkpt lat="46.43872" lon="-1.67299">
        <ele>12.8</ele>
        <time>2013-01-25T14:49:50Z</time>
      </trkpt>
      <trkpt lat="46.43869" lon="-1.6729">
        <ele>12.3</ele>
        <time>2013-01-25T14:49:56Z</time>
      </trkpt>
      <trkpt lat="46.43869" lon="-1.67289">
        <ele>12.1</ele>
        <time>2013-01-25T14:49:57Z</time>
      </trkpt>
      <trkpt lat="46.43865" lon="-1.67285">
        <ele>12.1</ele>
        <time>2013-01-25T14:50:01Z</time>
      </trkpt>
      <trkpt lat="46.43862" lon="-1.67282">
        <ele>12.4</ele>
        <time>2013-01-25T14:50:05Z</time>
      </trkpt>
      <trkpt lat="46.43858" lon="-1.67278">
        <ele>12.3</ele>
        <time>2013-01-25T14:50:09Z</time>
      </trkpt>
      <trkpt lat="46.43855" lon="-1.67275">
        <ele>12.2</ele>
        <time>2013-01-25T14:50:14Z</time>
      </trkpt>
      <trkpt lat="46.43851" lon="-1.67272">
        <ele>12.3</ele>
        <time>2013-01-25T14:50:18Z</time>
      </trkpt>
      <trkpt lat="46.43848" lon="-1.67268">
        <ele>12</ele>
        <time>2013-01-25T14:50:22Z</time>
      </trkpt>
      <trkpt lat="46.43845" lon="-1.67265">
        <ele>11.6</ele>
        <time>2013-01-25T14:50:26Z</time>
      </trkpt>
      <trkpt lat="46.43842" lon="-1.67263">
        <ele>11.3</ele>
        <time>2013-01-25T14:50:29Z</time>
      </trkpt>
      <trkpt lat="46.43839" lon="-1.6726">
        <ele>11.8</ele>
        <time>2013-01-25T14:50:32Z</time>
      </trkpt>
      <trkpt lat="46.43836" lon="-1.67257">
        <ele>11.5</ele>
        <time>2013-01-25T14:50:35Z</time>
      </trkpt>
      <trkpt lat="46.43832" lon="-1.67253">
        <ele>11</ele>
        <time>2013-01-25T14:50:39Z</time>
      </trkpt>
      <trkpt lat="46.4383" lon="-1.67251">
        <ele>11.3</ele>
        <time>2013-01-25T14:50:42Z</time>
      </trkpt>
      <trkpt lat="46.43827" lon="-1.67247">
        <ele>11.6</ele>
        <time>2013-01-25T14:50:45Z</time>
      </trkpt>
      <trkpt lat="46.43824" lon="-1.67243">
        <ele>11.8</ele>
        <time>2013-01-25T14:50:48Z</time>
      </trkpt>
      <trkpt lat="46.43821" lon="-1.67239">
        <ele>11.6</ele>
        <time>2013-01-25T14:50:52Z</time>
      </trkpt>
      <trkpt lat="46.43823" lon="-1.6723">
        <ele>11.2</ele>
        <time>2013-01-25T14:50:59Z</time>
      </trkpt>
      <trkpt lat="46.43823" lon="-1.67229">
        <ele>11.2</ele>
        <time>2013-01-25T14:51:00Z</time>
      </trkpt>
      <trkpt lat="46.43825" lon="-1.67223">
        <ele>11.6</ele>
        <time>2013-01-25T14:51:04Z</time>
      </trkpt>
      <trkpt lat="46.43822" lon="-1.67219">
        <ele>11.7</ele>
        <time>2013-01-25T14:51:07Z</time>
      </trkpt>
      <trkpt lat="46.43818" lon="-1.67217">
        <ele>11.7</ele>
        <time>2013-01-25T14:51:11Z</time>
      </trkpt>
      <trkpt lat="46.43816" lon="-1.67212">
        <ele>11.9</ele>
        <time>2013-01-25T14:51:15Z</time>
      </trkpt>
      <trkpt lat="46.43815" lon="-1.67206">
        <ele>12.4</ele>
        <time>2013-01-25T14:51:19Z</time>
      </trkpt>
      <trkpt lat="46.43815" lon="-1.672">
        <ele>11.8</ele>
        <time>2013-01-25T14:51:39Z</time>
      </trkpt>
      <trkpt lat="46.43815" lon="-1.67194">
        <ele>12.4</ele>
        <time>2013-01-25T14:51:43Z</time>
      </trkpt>
      <trkpt lat="46.43815" lon="-1.67188">
        <ele>12.7</ele>
        <time>2013-01-25T14:51:47Z</time>
      </trkpt>
      <trkpt lat="46.43815" lon="-1.67182">
        <ele>12.6</ele>
        <time>2013-01-25T14:51:51Z</time>
      </trkpt>
      <trkpt lat="46.43815" lon="-1.67176">
        <ele>13.1</ele>
        <time>2013-01-25T14:51:55Z</time>
      </trkpt>
      <trkpt lat="46.43816" lon="-1.67171">
        <ele>13.6</ele>
        <time>2013-01-25T14:51:58Z</time>
      </trkpt>
      <trkpt lat="46.43817" lon="-1.67163">
        <ele>13.6</ele>
        <time>2013-01-25T14:52:03Z</time>
      </trkpt>
      <trkpt lat="46.43818" lon="-1.67161">
        <ele>13.6</ele>
        <time>2013-01-25T14:52:04Z</time>
      </trkpt>
      <trkpt lat="46.43819" lon="-1.67155">
        <ele>13.7</ele>
        <time>2013-01-25T14:52:08Z</time>
      </trkpt>
      <trkpt lat="46.4382" lon="-1.6715">
        <ele>13.6</ele>
        <time>2013-01-25T14:52:11Z</time>
      </trkpt>
      <trkpt lat="46.43821" lon="-1.67145">
        <ele>13</ele>
        <time>2013-01-25T14:52:14Z</time>
      </trkpt>
      <trkpt lat="46.43823" lon="-1.67139">
        <ele>13.9</ele>
        <time>2013-01-25T14:52:17Z</time>
      </trkpt>
      <trkpt lat="46.43823" lon="-1.67134">
        <ele>13.8</ele>
        <time>2013-01-25T14:52:20Z</time>
      </trkpt>
      <trkpt lat="46.43824" lon="-1.67128">
        <ele>13.3</ele>
        <time>2013-01-25T14:52:24Z</time>
      </trkpt>
      <trkpt lat="46.43825" lon="-1.67122">
        <ele>12.9</ele>
        <time>2013-01-25T14:52:28Z</time>
      </trkpt>
      <trkpt lat="46.43825" lon="-1.67116">
        <ele>12.6</ele>
        <time>2013-01-25T14:52:32Z</time>
      </trkpt>
      <trkpt lat="46.43826" lon="-1.67111">
        <ele>12.5</ele>
        <time>2013-01-25T14:52:35Z</time>
      </trkpt>
      <trkpt lat="46.43826" lon="-1.67106">
        <ele>12.3</ele>
        <time>2013-01-25T14:52:38Z</time>
      </trkpt>
      <trkpt lat="46.43826" lon="-1.67101">
        <ele>12.4</ele>
        <time>2013-01-25T14:52:41Z</time>
      </trkpt>
      <trkpt lat="46.43825" lon="-1.67094">
        <ele>12.2</ele>
        <time>2013-01-25T14:52:45Z</time>
      </trkpt>
      <trkpt lat="46.43824" lon="-1.67088">
        <ele>12.8</ele>
        <time>2013-01-25T14:52:50Z</time>
      </trkpt>
      <trkpt lat="46.43824" lon="-1.67082">
        <ele>12.2</ele>
        <time>2013-01-25T14:52:53Z</time>
      </trkpt>
      <trkpt lat="46.43823" lon="-1.67076">
        <ele>11.9</ele>
        <time>2013-01-25T14:52:58Z</time>
      </trkpt>
      <trkpt lat="46.43821" lon="-1.67067">
        <ele>12.4</ele>
        <time>2013-01-25T14:53:04Z</time>
      </trkpt>
      <trkpt lat="46.43821" lon="-1.67065">
        <ele>12.5</ele>
        <time>2013-01-25T14:53:05Z</time>
      </trkpt>
      <trkpt lat="46.43821" lon="-1.67059">
        <ele>12.8</ele>
        <time>2013-01-25T14:53:08Z</time>
      </trkpt>
      <trkpt lat="46.43821" lon="-1.67052">
        <ele>12.2</ele>
        <time>2013-01-25T14:53:11Z</time>
      </trkpt>
      <trkpt lat="46.4382" lon="-1.67047">
        <ele>12.3</ele>
        <time>2013-01-25T14:53:14Z</time>
      </trkpt>
      <trkpt lat="46.4382" lon="-1.67041">
        <ele>12.7</ele>
        <time>2013-01-25T14:53:17Z</time>
      </trkpt>
      <trkpt lat="46.4382" lon="-1.67035">
        <ele>12.4</ele>
        <time>2013-01-25T14:53:20Z</time>
      </trkpt>
      <trkpt lat="46.4382" lon="-1.67029">
        <ele>12.3</ele>
        <time>2013-01-25T14:53:23Z</time>
      </trkpt>
      <trkpt lat="46.4382" lon="-1.67024">
        <ele>11.4</ele>
        <time>2013-01-25T14:53:26Z</time>
      </trkpt>
      <trkpt lat="46.43819" lon="-1.67018">
        <ele>11.8</ele>
        <time>2013-01-25T14:53:29Z</time>
      </trkpt>
      <trkpt lat="46.43818" lon="-1.67014">
        <ele>12</ele>
        <time>2013-01-25T14:53:32Z</time>
      </trkpt>
      <trkpt lat="46.43817" lon="-1.67008">
        <ele>11.9</ele>
        <time>2013-01-25T14:53:35Z</time>
      </trkpt>
      <trkpt lat="46.43816" lon="-1.67003">
        <ele>12</ele>
        <time>2013-01-25T14:53:38Z</time>
      </trkpt>
      <trkpt lat="46.43814" lon="-1.66998">
        <ele>11.5</ele>
        <time>2013-01-25T14:53:42Z</time>
      </trkpt>
      <trkpt lat="46.43812" lon="-1.66992">
        <ele>11.3</ele>
        <time>2013-01-25T14:53:46Z</time>
      </trkpt>
      <trkpt lat="46.43811" lon="-1.66987">
        <ele>11</ele>
        <time>2013-01-25T14:53:49Z</time>
      </trkpt>
      <trkpt lat="46.4381" lon="-1.66981">
        <ele>11.2</ele>
        <time>2013-01-25T14:53:52Z</time>
      </trkpt>
      <trkpt lat="46.43809" lon="-1.66976">
        <ele>11.6</ele>
        <time>2013-01-25T14:53:55Z</time>
      </trkpt>
      <trkpt lat="46.43808" lon="-1.6697">
        <ele>11.4</ele>
        <time>2013-01-25T14:53:58Z</time>
      </trkpt>
      <trkpt lat="46.43807" lon="-1.66965">
        <ele>11.5</ele>
        <time>2013-01-25T14:54:01Z</time>
      </trkpt>
      <trkpt lat="46.43807" lon="-1.66956">
        <ele>11.7</ele>
        <time>2013-01-25T14:54:05Z</time>
      </trkpt>
      <trkpt lat="46.43807" lon="-1.66954">
        <ele>11.6</ele>
        <time>2013-01-25T14:54:06Z</time>
      </trkpt>
      <trkpt lat="46.43809" lon="-1.66949">
        <ele>11.3</ele>
        <time>2013-01-25T14:54:09Z</time>
      </trkpt>
      <trkpt lat="46.43808" lon="-1.66944">
        <ele>11.6</ele>
        <time>2013-01-25T14:54:13Z</time>
      </trkpt>
      <trkpt lat="46.43806" lon="-1.66939">
        <ele>12</ele>
        <time>2013-01-25T14:54:18Z</time>
      </trkpt>
      <trkpt lat="46.43805" lon="-1.66933">
        <ele>12</ele>
        <time>2013-01-25T14:54:22Z</time>
      </trkpt>
      <trkpt lat="46.43804" lon="-1.66927">
        <ele>12.1</ele>
        <time>2013-01-25T14:54:28Z</time>
      </trkpt>
      <trkpt lat="46.43802" lon="-1.66922">
        <ele>12</ele>
        <time>2013-01-25T14:54:33Z</time>
      </trkpt>
      <trkpt lat="46.43802" lon="-1.66916">
        <ele>11.9</ele>
        <time>2013-01-25T14:54:37Z</time>
      </trkpt>
      <trkpt lat="46.43803" lon="-1.66911">
        <ele>11.1</ele>
        <time>2013-01-25T14:54:40Z</time>
      </trkpt>
      <trkpt lat="46.43804" lon="-1.66906">
        <ele>11.3</ele>
        <time>2013-01-25T14:54:43Z</time>
      </trkpt>
      <trkpt lat="46.43803" lon="-1.66901">
        <ele>12.4</ele>
        <time>2013-01-25T14:54:47Z</time>
      </trkpt>
      <trkpt lat="46.43803" lon="-1.66895">
        <ele>11.8</ele>
        <time>2013-01-25T14:54:51Z</time>
      </trkpt>
      <trkpt lat="46.43803" lon="-1.66889">
        <ele>11.7</ele>
        <time>2013-01-25T14:54:56Z</time>
      </trkpt>
      <trkpt lat="46.43804" lon="-1.66882">
        <ele>11.9</ele>
        <time>2013-01-25T14:55:01Z</time>
      </trkpt>
      <trkpt lat="46.43806" lon="-1.66874">
        <ele>11.3</ele>
        <time>2013-01-25T14:55:06Z</time>
      </trkpt>
      <trkpt lat="46.43806" lon="-1.66873">
        <ele>11.6</ele>
        <time>2013-01-25T14:55:07Z</time>
      </trkpt>
      <trkpt lat="46.43807" lon="-1.66868">
        <ele>12.4</ele>
        <time>2013-01-25T14:55:10Z</time>
      </trkpt>
      <trkpt lat="46.43808" lon="-1.66863">
        <ele>12.5</ele>
        <time>2013-01-25T14:55:13Z</time>
      </trkpt>
      <trkpt lat="46.43809" lon="-1.66859">
        <ele>12.8</ele>
        <time>2013-01-25T14:55:16Z</time>
      </trkpt>
      <trkpt lat="46.43811" lon="-1.66854">
        <ele>13.3</ele>
        <time>2013-01-25T14:55:19Z</time>
      </trkpt>
      <trkpt lat="46.43813" lon="-1.66849">
        <ele>13.1</ele>
        <time>2013-01-25T14:55:22Z</time>
      </trkpt>
      <trkpt lat="46.43814" lon="-1.66843">
        <ele>13.4</ele>
        <time>2013-01-25T14:55:25Z</time>
      </trkpt>
      <trkpt lat="46.43815" lon="-1.66837">
        <ele>13.5</ele>
        <time>2013-01-25T14:55:28Z</time>
      </trkpt>
      <trkpt lat="46.43817" lon="-1.66832">
        <ele>13.6</ele>
        <time>2013-01-25T14:55:31Z</time>
      </trkpt>
      <trkpt lat="46.43817" lon="-1.66826">
        <ele>13.7</ele>
        <time>2013-01-25T14:55:34Z</time>
      </trkpt>
      <trkpt lat="46.43818" lon="-1.66821">
        <ele>13.7</ele>
        <time>2013-01-25T14:55:37Z</time>
      </trkpt>
      <trkpt lat="46.43819" lon="-1.66815">
        <ele>13.2</ele>
        <time>2013-01-25T14:55:40Z</time>
      </trkpt>
      <trkpt lat="46.43819" lon="-1.6681">
        <ele>12.9</ele>
        <time>2013-01-25T14:55:43Z</time>
      </trkpt>
      <trkpt lat="46.43819" lon="-1.66804">
        <ele>13.3</ele>
        <time>2013-01-25T14:55:46Z</time>
      </trkpt>
      <trkpt lat="46.43819" lon="-1.66798">
        <ele>12.9</ele>
        <time>2013-01-25T14:55:49Z</time>
      </trkpt>
      <trkpt lat="46.4382" lon="-1.66792">
        <ele>13.2</ele>
        <time>2013-01-25T14:55:52Z</time>
      </trkpt>
      <trkpt lat="46.4382" lon="-1.66787">
        <ele>13</ele>
        <time>2013-01-25T14:55:55Z</time>
      </trkpt>
      <trkpt lat="46.4382" lon="-1.6678">
        <ele>13.8</ele>
        <time>2013-01-25T14:55:59Z</time>
      </trkpt>
      <trkpt lat="46.4382" lon="-1.66774">
        <ele>14</ele>
        <time>2013-01-25T14:56:04Z</time>
      </trkpt>
      <trkpt lat="46.43821" lon="-1.66764">
        <ele>13.1</ele>
        <time>2013-01-25T14:56:10Z</time>
      </trkpt>
      <trkpt lat="46.43821" lon="-1.66762">
        <ele>13.1</ele>
        <time>2013-01-25T14:56:11Z</time>
      </trkpt>
      <trkpt lat="46.43821" lon="-1.66757">
        <ele>13</ele>
        <time>2013-01-25T14:56:14Z</time>
      </trkpt>
      <trkpt lat="46.4382" lon="-1.66753">
        <ele>12.9</ele>
        <time>2013-01-25T14:56:17Z</time>
      </trkpt>
      <trkpt lat="46.43819" lon="-1.66748">
        <ele>13</ele>
        <time>2013-01-25T14:56:20Z</time>
      </trkpt>
      <trkpt lat="46.43817" lon="-1.66742">
        <ele>12.8</ele>
        <time>2013-01-25T14:56:24Z</time>
      </trkpt>
      <trkpt lat="46.43815" lon="-1.66738">
        <ele>12.8</ele>
        <time>2013-01-25T14:56:27Z</time>
      </trkpt>
      <trkpt lat="46.43813" lon="-1.66732">
        <ele>12.2</ele>
        <time>2013-01-25T14:56:31Z</time>
      </trkpt>
      <trkpt lat="46.4381" lon="-1.66727">
        <ele>12</ele>
        <time>2013-01-25T14:56:35Z</time>
      </trkpt>
      <trkpt lat="46.43808" lon="-1.66723">
        <ele>11.1</ele>
        <time>2013-01-25T14:56:39Z</time>
      </trkpt>
      <trkpt lat="46.43805" lon="-1.66719">
        <ele>11.4</ele>
        <time>2013-01-25T14:56:44Z</time>
      </trkpt>
      <trkpt lat="46.43803" lon="-1.66713">
        <ele>11</ele>
        <time>2013-01-25T14:56:48Z</time>
      </trkpt>
      <trkpt lat="46.43801" lon="-1.66708">
        <ele>10.8</ele>
        <time>2013-01-25T14:56:52Z</time>
      </trkpt>
      <trkpt lat="46.438" lon="-1.66703">
        <ele>10.8</ele>
        <time>2013-01-25T14:56:56Z</time>
      </trkpt>
      <trkpt lat="46.43798" lon="-1.66698">
        <ele>11.5</ele>
        <time>2013-01-25T14:57:00Z</time>
      </trkpt>
      <trkpt lat="46.43795" lon="-1.66693">
        <ele>11.6</ele>
        <time>2013-01-25T14:57:04Z</time>
      </trkpt>
      <trkpt lat="46.43789" lon="-1.66688">
        <ele>11.1</ele>
        <time>2013-01-25T14:57:11Z</time>
      </trkpt>
      <trkpt lat="46.43789" lon="-1.66687">
        <ele>10.8</ele>
        <time>2013-01-25T14:57:12Z</time>
      </trkpt>
      <trkpt lat="46.43785" lon="-1.66682">
        <ele>10.5</ele>
        <time>2013-01-25T14:57:16Z</time>
      </trkpt>
      <trkpt lat="46.43783" lon="-1.66678">
        <ele>10.8</ele>
        <time>2013-01-25T14:57:24Z</time>
      </trkpt>
      <trkpt lat="46.4378" lon="-1.66674">
        <ele>10.9</ele>
        <time>2013-01-25T14:57:28Z</time>
      </trkpt>
      <trkpt lat="46.43777" lon="-1.6667">
        <ele>10.5</ele>
        <time>2013-01-25T14:57:35Z</time>
      </trkpt>
      <trkpt lat="46.43774" lon="-1.66666">
        <ele>10.9</ele>
        <time>2013-01-25T14:57:39Z</time>
      </trkpt>
      <trkpt lat="46.43772" lon="-1.66661">
        <ele>10.4</ele>
        <time>2013-01-25T14:57:44Z</time>
      </trkpt>
      <trkpt lat="46.43769" lon="-1.66656">
        <ele>10.5</ele>
        <time>2013-01-25T14:57:49Z</time>
      </trkpt>
      <trkpt lat="46.43767" lon="-1.6665">
        <ele>10.6</ele>
        <time>2013-01-25T14:57:54Z</time>
      </trkpt>
      <trkpt lat="46.43764" lon="-1.66646">
        <ele>10.3</ele>
        <time>2013-01-25T14:57:59Z</time>
      </trkpt>
      <trkpt lat="46.43761" lon="-1.66642">
        <ele>10</ele>
        <time>2013-01-25T14:58:05Z</time>
      </trkpt>
      <trkpt lat="46.43755" lon="-1.66637">
        <ele>10.3</ele>
        <time>2013-01-25T14:58:14Z</time>
      </trkpt>
      <trkpt lat="46.43755" lon="-1.66636">
        <ele>10.2</ele>
        <time>2013-01-25T14:58:15Z</time>
      </trkpt>
      <trkpt lat="46.43751" lon="-1.66633">
        <ele>9.9</ele>
        <time>2013-01-25T14:58:20Z</time>
      </trkpt>
      <trkpt lat="46.43748" lon="-1.66628">
        <ele>10.2</ele>
        <time>2013-01-25T14:58:25Z</time>
      </trkpt>
      <trkpt lat="46.43746" lon="-1.66625">
        <ele>9.8</ele>
        <time>2013-01-25T14:58:29Z</time>
      </trkpt>
      <trkpt lat="46.43743" lon="-1.6662">
        <ele>9.7</ele>
        <time>2013-01-25T14:58:34Z</time>
      </trkpt>
      <trkpt lat="46.43741" lon="-1.66614">
        <ele>9.5</ele>
        <time>2013-01-25T14:58:38Z</time>
      </trkpt>
      <trkpt lat="46.4374" lon="-1.66609">
        <ele>9.2</ele>
        <time>2013-01-25T14:58:42Z</time>
      </trkpt>
      <trkpt lat="46.43738" lon="-1.66604">
        <ele>8.8</ele>
        <time>2013-01-25T14:58:47Z</time>
      </trkpt>
      <trkpt lat="46.43735" lon="-1.66598">
        <ele>9.2</ele>
        <time>2013-01-25T14:58:52Z</time>
      </trkpt>
      <trkpt lat="46.43733" lon="-1.66593">
        <ele>8.8</ele>
        <time>2013-01-25T14:58:57Z</time>
      </trkpt>
      <trkpt lat="46.4373" lon="-1.66589">
        <ele>8.4</ele>
        <time>2013-01-25T14:59:02Z</time>
      </trkpt>
      <trkpt lat="46.43727" lon="-1.66584">
        <ele>9.1</ele>
        <time>2013-01-25T14:59:07Z</time>
      </trkpt>
      <trkpt lat="46.43723" lon="-1.66575">
        <ele>9.2</ele>
        <time>2013-01-25T14:59:15Z</time>
      </trkpt>
      <trkpt lat="46.43723" lon="-1.66574">
        <ele>9.2</ele>
        <time>2013-01-25T14:59:16Z</time>
      </trkpt>
      <trkpt lat="46.43721" lon="-1.66569">
        <ele>9.1</ele>
        <time>2013-01-25T14:59:22Z</time>
      </trkpt>
      <trkpt lat="46.43721" lon="-1.66563">
        <ele>9.1</ele>
        <time>2013-01-25T14:59:27Z</time>
      </trkpt>
      <trkpt lat="46.43721" lon="-1.66556">
        <ele>9.2</ele>
        <time>2013-01-25T14:59:33Z</time>
      </trkpt>
      <trkpt lat="46.43719" lon="-1.66551">
        <ele>9.3</ele>
        <time>2013-01-25T14:59:39Z</time>
      </trkpt>
      <trkpt lat="46.43718" lon="-1.66545">
        <ele>9.1</ele>
        <time>2013-01-25T14:59:58Z</time>
      </trkpt>
      <trkpt lat="46.43714" lon="-1.66542">
        <ele>8.5</ele>
        <time>2013-01-25T15:00:05Z</time>
      </trkpt>
      <trkpt lat="46.4371" lon="-1.6654">
        <ele>8.7</ele>
        <time>2013-01-25T15:00:09Z</time>
      </trkpt>
      <trkpt lat="46.43703" lon="-1.66536">
        <ele>8.1</ele>
        <time>2013-01-25T15:00:16Z</time>
      </trkpt>
      <trkpt lat="46.43702" lon="-1.66535">
        <ele>8</ele>
        <time>2013-01-25T15:00:17Z</time>
      </trkpt>
      <trkpt lat="46.43698" lon="-1.66533">
        <ele>8.4</ele>
        <time>2013-01-25T15:00:22Z</time>
      </trkpt>
      <trkpt lat="46.43694" lon="-1.6653">
        <ele>7.1</ele>
        <time>2013-01-25T15:00:28Z</time>
      </trkpt>
      <trkpt lat="46.43691" lon="-1.66526">
        <ele>7</ele>
        <time>2013-01-25T15:00:34Z</time>
      </trkpt>
      <trkpt lat="46.43689" lon="-1.6652">
        <ele>7.6</ele>
        <time>2013-01-25T15:00:39Z</time>
      </trkpt>
      <trkpt lat="46.43687" lon="-1.66515">
        <ele>6.2</ele>
        <time>2013-01-25T15:00:43Z</time>
      </trkpt>
      <trkpt lat="46.43685" lon="-1.66511">
        <ele>7.2</ele>
        <time>2013-01-25T15:00:49Z</time>
      </trkpt>
      <trkpt lat="46.43682" lon="-1.66506">
        <ele>7.5</ele>
        <time>2013-01-25T15:00:58Z</time>
      </trkpt>
      <trkpt lat="46.43679" lon="-1.66502">
        <ele>7.9</ele>
        <time>2013-01-25T15:01:08Z</time>
      </trkpt>
      <trkpt lat="46.43673" lon="-1.66496">
        <ele>8.3</ele>
        <time>2013-01-25T15:01:18Z</time>
      </trkpt>
      <trkpt lat="46.43672" lon="-1.66495">
        <ele>8.5</ele>
        <time>2013-01-25T15:01:19Z</time>
      </trkpt>
      <trkpt lat="46.43668" lon="-1.66492">
        <ele>7.4</ele>
        <time>2013-01-25T15:01:24Z</time>
      </trkpt>
      <trkpt lat="46.43666" lon="-1.66488">
        <ele>7.3</ele>
        <time>2013-01-25T15:01:28Z</time>
      </trkpt>
      <trkpt lat="46.43663" lon="-1.66484">
        <ele>7.9</ele>
        <time>2013-01-25T15:01:32Z</time>
      </trkpt>
      <trkpt lat="46.4366" lon="-1.6648">
        <ele>8.2</ele>
        <time>2013-01-25T15:01:36Z</time>
      </trkpt>
      <trkpt lat="46.43658" lon="-1.66476">
        <ele>8.8</ele>
        <time>2013-01-25T15:01:40Z</time>
      </trkpt>
      <trkpt lat="46.43655" lon="-1.66473">
        <ele>8.3</ele>
        <time>2013-01-25T15:01:44Z</time>
      </trkpt>
      <trkpt lat="46.43653" lon="-1.66468">
        <ele>8.4</ele>
        <time>2013-01-25T15:01:49Z</time>
      </trkpt>
      <trkpt lat="46.4365" lon="-1.66464">
        <ele>8.4</ele>
        <time>2013-01-25T15:01:53Z</time>
      </trkpt>
      <trkpt lat="46.43648" lon="-1.6646">
        <ele>8</ele>
        <time>2013-01-25T15:01:56Z</time>
      </trkpt>
      <trkpt lat="46.43645" lon="-1.66456">
        <ele>8</ele>
        <time>2013-01-25T15:02:00Z</time>
      </trkpt>
      <trkpt lat="46.43641" lon="-1.66453">
        <ele>8.4</ele>
        <time>2013-01-25T15:02:04Z</time>
      </trkpt>
      <trkpt lat="46.43639" lon="-1.6645">
        <ele>8.2</ele>
        <time>2013-01-25T15:02:08Z</time>
      </trkpt>
      <trkpt lat="46.43632" lon="-1.66443">
        <ele>8.7</ele>
        <time>2013-01-25T15:02:22Z</time>
      </trkpt>
      <trkpt lat="46.43632" lon="-1.66442">
        <ele>8.9</ele>
        <time>2013-01-25T15:02:23Z</time>
      </trkpt>
      <trkpt lat="46.4363" lon="-1.66437">
        <ele>8.6</ele>
        <time>2013-01-25T15:02:32Z</time>
      </trkpt>
      <trkpt lat="46.43626" lon="-1.66434">
        <ele>9.8</ele>
        <time>2013-01-25T15:02:37Z</time>
      </trkpt>
      <trkpt lat="46.43623" lon="-1.66432">
        <ele>8.8</ele>
        <time>2013-01-25T15:02:42Z</time>
      </trkpt>
      <trkpt lat="46.43619" lon="-1.66429">
        <ele>8.8</ele>
        <time>2013-01-25T15:02:47Z</time>
      </trkpt>
      <trkpt lat="46.43616" lon="-1.66427">
        <ele>8.9</ele>
        <time>2013-01-25T15:02:53Z</time>
      </trkpt>
      <trkpt lat="46.43613" lon="-1.66424">
        <ele>8.2</ele>
        <time>2013-01-25T15:02:57Z</time>
      </trkpt>
      <trkpt lat="46.4361" lon="-1.66419">
        <ele>8.6</ele>
        <time>2013-01-25T15:03:02Z</time>
      </trkpt>
      <trkpt lat="46.43606" lon="-1.66416">
        <ele>8.6</ele>
        <time>2013-01-25T15:03:08Z</time>
      </trkpt>
      <trkpt lat="46.43603" lon="-1.66414">
        <ele>8.8</ele>
        <time>2013-01-25T15:03:12Z</time>
      </trkpt>
      <trkpt lat="46.436" lon="-1.66411">
        <ele>9.2</ele>
        <time>2013-01-25T15:03:16Z</time>
      </trkpt>
      <trkpt lat="46.43597" lon="-1.66408">
        <ele>10</ele>
        <time>2013-01-25T15:03:20Z</time>
      </trkpt>
      <trkpt lat="46.43591" lon="-1.66403">
        <ele>9.1</ele>
        <time>2013-01-25T15:03:26Z</time>
      </trkpt>
      <trkpt lat="46.4359" lon="-1.66403">
        <ele>9</ele>
        <time>2013-01-25T15:03:27Z</time>
      </trkpt>
      <trkpt lat="46.43586" lon="-1.664">
        <ele>9</ele>
        <time>2013-01-25T15:03:31Z</time>
      </trkpt>
      <trkpt lat="46.43583" lon="-1.66397">
        <ele>9.1</ele>
        <time>2013-01-25T15:03:34Z</time>
      </trkpt>
      <trkpt lat="46.4358" lon="-1.66394">
        <ele>10.2</ele>
        <time>2013-01-25T15:03:37Z</time>
      </trkpt>
      <trkpt lat="46.43577" lon="-1.6639">
        <ele>11.1</ele>
        <time>2013-01-25T15:03:40Z</time>
      </trkpt>
      <trkpt lat="46.43575" lon="-1.66386">
        <ele>10.9</ele>
        <time>2013-01-25T15:03:43Z</time>
      </trkpt>
      <trkpt lat="46.43572" lon="-1.66381">
        <ele>10</ele>
        <time>2013-01-25T15:03:47Z</time>
      </trkpt>
      <trkpt lat="46.43569" lon="-1.66378">
        <ele>10.3</ele>
        <time>2013-01-25T15:03:50Z</time>
      </trkpt>
      <trkpt lat="46.43567" lon="-1.66374">
        <ele>10.3</ele>
        <time>2013-01-25T15:03:53Z</time>
      </trkpt>
      <trkpt lat="46.43565" lon="-1.6637">
        <ele>11.1</ele>
        <time>2013-01-25T15:03:56Z</time>
      </trkpt>
      <trkpt lat="46.43562" lon="-1.66366">
        <ele>11.6</ele>
        <time>2013-01-25T15:03:59Z</time>
      </trkpt>
      <trkpt lat="46.4356" lon="-1.66362">
        <ele>10.9</ele>
        <time>2013-01-25T15:04:02Z</time>
      </trkpt>
      <trkpt lat="46.43557" lon="-1.66359">
        <ele>10.9</ele>
        <time>2013-01-25T15:04:05Z</time>
      </trkpt>
      <trkpt lat="46.43553" lon="-1.66356">
        <ele>10.4</ele>
        <time>2013-01-25T15:04:09Z</time>
      </trkpt>
      <trkpt lat="46.43549" lon="-1.66354">
        <ele>10.6</ele>
        <time>2013-01-25T15:04:13Z</time>
      </trkpt>
      <trkpt lat="46.43545" lon="-1.66352">
        <ele>11.1</ele>
        <time>2013-01-25T15:04:17Z</time>
      </trkpt>
      <trkpt lat="46.43541" lon="-1.6635">
        <ele>11.5</ele>
        <time>2013-01-25T15:04:21Z</time>
      </trkpt>
      <trkpt lat="46.43538" lon="-1.66346">
        <ele>11.8</ele>
        <time>2013-01-25T15:04:24Z</time>
      </trkpt>
      <trkpt lat="46.43533" lon="-1.66342">
        <ele>11.8</ele>
        <time>2013-01-25T15:04:29Z</time>
      </trkpt>
      <trkpt lat="46.43531" lon="-1.66341">
        <ele>11.6</ele>
        <time>2013-01-25T15:04:30Z</time>
      </trkpt>
      <trkpt lat="46.43528" lon="-1.66338">
        <ele>11.9</ele>
        <time>2013-01-25T15:04:33Z</time>
      </trkpt>
      <trkpt lat="46.43525" lon="-1.66335">
        <ele>12.1</ele>
        <time>2013-01-25T15:04:36Z</time>
      </trkpt>
      <trkpt lat="46.43522" lon="-1.66331">
        <ele>11.6</ele>
        <time>2013-01-25T15:04:40Z</time>
      </trkpt>
      <trkpt lat="46.43518" lon="-1.66328">
        <ele>11.6</ele>
        <time>2013-01-25T15:04:44Z</time>
      </trkpt>
      <trkpt lat="46.43514" lon="-1.66325">
        <ele>11.8</ele>
        <time>2013-01-25T15:04:48Z</time>
      </trkpt>
      <trkpt lat="46.43511" lon="-1.66322">
        <ele>11.9</ele>
        <time>2013-01-25T15:04:51Z</time>
      </trkpt>
      <trkpt lat="46.43508" lon="-1.6632">
        <ele>12.2</ele>
        <time>2013-01-25T15:04:54Z</time>
      </trkpt>
      <trkpt lat="46.43505" lon="-1.66317">
        <ele>11.8</ele>
        <time>2013-01-25T15:04:57Z</time>
      </trkpt>
      <trkpt lat="46.43503" lon="-1.66312">
        <ele>12.4</ele>
        <time>2013-01-25T15:05:00Z</time>
      </trkpt>
      <trkpt lat="46.43502" lon="-1.66307">
        <ele>11.9</ele>
        <time>2013-01-25T15:05:03Z</time>
      </trkpt>
      <trkpt lat="46.435" lon="-1.66301">
        <ele>11.5</ele>
        <time>2013-01-25T15:05:07Z</time>
      </trkpt>
      <trkpt lat="46.43499" lon="-1.66296">
        <ele>11.5</ele>
        <time>2013-01-25T15:05:10Z</time>
      </trkpt>
      <trkpt lat="46.43498" lon="-1.6629">
        <ele>11.6</ele>
        <time>2013-01-25T15:05:14Z</time>
      </trkpt>
      <trkpt lat="46.43498" lon="-1.66284">
        <ele>11.4</ele>
        <time>2013-01-25T15:05:17Z</time>
      </trkpt>
      <trkpt lat="46.43498" lon="-1.66277">
        <ele>11</ele>
        <time>2013-01-25T15:05:20Z</time>
      </trkpt>
      <trkpt lat="46.43499" lon="-1.66272">
        <ele>11</ele>
        <time>2013-01-25T15:05:23Z</time>
      </trkpt>
      <trkpt lat="46.43498" lon="-1.66266">
        <ele>11.2</ele>
        <time>2013-01-25T15:05:26Z</time>
      </trkpt>
      <trkpt lat="46.43495" lon="-1.66257">
        <ele>11.2</ele>
        <time>2013-01-25T15:05:32Z</time>
      </trkpt>
      <trkpt lat="46.43495" lon="-1.66256">
        <ele>11.2</ele>
        <time>2013-01-25T15:05:33Z</time>
      </trkpt>
      <trkpt lat="46.43492" lon="-1.66251">
        <ele>10.4</ele>
        <time>2013-01-25T15:05:37Z</time>
      </trkpt>
      <trkpt lat="46.4349" lon="-1.66246">
        <ele>10.7</ele>
        <time>2013-01-25T15:05:40Z</time>
      </trkpt>
      <trkpt lat="46.43488" lon="-1.66241">
        <ele>10.7</ele>
        <time>2013-01-25T15:05:43Z</time>
      </trkpt>
      <trkpt lat="46.43487" lon="-1.66234">
        <ele>10.9</ele>
        <time>2013-01-25T15:05:46Z</time>
      </trkpt>
      <trkpt lat="46.43486" lon="-1.66229">
        <ele>11</ele>
        <time>2013-01-25T15:05:49Z</time>
      </trkpt>
      <trkpt lat="46.43485" lon="-1.66223">
        <ele>10.9</ele>
        <time>2013-01-25T15:05:52Z</time>
      </trkpt>
      <trkpt lat="46.43484" lon="-1.66217">
        <ele>11</ele>
        <time>2013-01-25T15:05:55Z</time>
      </trkpt>
      <trkpt lat="46.43483" lon="-1.66211">
        <ele>11.2</ele>
        <time>2013-01-25T15:05:58Z</time>
      </trkpt>
      <trkpt lat="46.43483" lon="-1.66206">
        <ele>11.2</ele>
        <time>2013-01-25T15:06:01Z</time>
      </trkpt>
      <trkpt lat="46.43481" lon="-1.662">
        <ele>11.2</ele>
        <time>2013-01-25T15:06:04Z</time>
      </trkpt>
      <trkpt lat="46.4348" lon="-1.66194">
        <ele>11</ele>
        <time>2013-01-25T15:06:07Z</time>
      </trkpt>
      <trkpt lat="46.43479" lon="-1.66188">
        <ele>11</ele>
        <time>2013-01-25T15:06:10Z</time>
      </trkpt>
      <trkpt lat="46.43479" lon="-1.66183">
        <ele>11</ele>
        <time>2013-01-25T15:06:13Z</time>
      </trkpt>
      <trkpt lat="46.43476" lon="-1.66178">
        <ele>11.4</ele>
        <time>2013-01-25T15:06:17Z</time>
      </trkpt>
      <trkpt lat="46.43474" lon="-1.66174">
        <ele>10.8</ele>
        <time>2013-01-25T15:06:20Z</time>
      </trkpt>
      <trkpt lat="46.43472" lon="-1.66168">
        <ele>11.2</ele>
        <time>2013-01-25T15:06:23Z</time>
      </trkpt>
      <trkpt lat="46.43471" lon="-1.66164">
        <ele>11.1</ele>
        <time>2013-01-25T15:06:26Z</time>
      </trkpt>
      <trkpt lat="46.43469" lon="-1.66159">
        <ele>11.2</ele>
        <time>2013-01-25T15:06:29Z</time>
      </trkpt>
      <trkpt lat="46.43468" lon="-1.6615">
        <ele>9.9</ele>
        <time>2013-01-25T15:06:34Z</time>
      </trkpt>
      <trkpt lat="46.43468" lon="-1.66148">
        <ele>10</ele>
        <time>2013-01-25T15:06:35Z</time>
      </trkpt>
      <trkpt lat="46.43468" lon="-1.66143">
        <ele>10.3</ele>
        <time>2013-01-25T15:06:38Z</time>
      </trkpt>
      <trkpt lat="46.43467" lon="-1.66138">
        <ele>10.6</ele>
        <time>2013-01-25T15:06:41Z</time>
      </trkpt>
      <trkpt lat="46.43467" lon="-1.66132">
        <ele>10.8</ele>
        <time>2013-01-25T15:06:44Z</time>
      </trkpt>
      <trkpt lat="46.43466" lon="-1.66128">
        <ele>10.4</ele>
        <time>2013-01-25T15:06:47Z</time>
      </trkpt>
      <trkpt lat="46.43465" lon="-1.66122">
        <ele>10.4</ele>
        <time>2013-01-25T15:06:50Z</time>
      </trkpt>
      <trkpt lat="46.43464" lon="-1.66117">
        <ele>10.4</ele>
        <time>2013-01-25T15:06:53Z</time>
      </trkpt>
      <trkpt lat="46.43464" lon="-1.66111">
        <ele>10.2</ele>
        <time>2013-01-25T15:06:56Z</time>
      </trkpt>
      <trkpt lat="46.43462" lon="-1.66105">
        <ele>10.1</ele>
        <time>2013-01-25T15:06:59Z</time>
      </trkpt>
      <trkpt lat="46.4346" lon="-1.661">
        <ele>9.8</ele>
        <time>2013-01-25T15:07:02Z</time>
      </trkpt>
      <trkpt lat="46.43458" lon="-1.66096">
        <ele>9.5</ele>
        <time>2013-01-25T15:07:05Z</time>
      </trkpt>
      <trkpt lat="46.43456" lon="-1.6609">
        <ele>9.3</ele>
        <time>2013-01-25T15:07:08Z</time>
      </trkpt>
      <trkpt lat="46.43457" lon="-1.66085">
        <ele>8.3</ele>
        <time>2013-01-25T15:07:10Z</time>
      </trkpt>
      <trkpt lat="46.43458" lon="-1.66081">
        <ele>8.4</ele>
        <time>2013-01-25T15:07:12Z</time>
      </trkpt>
      <trkpt lat="46.43459" lon="-1.66075">
        <ele>8.6</ele>
        <time>2013-01-25T15:07:15Z</time>
      </trkpt>
      <trkpt lat="46.4346" lon="-1.66071">
        <ele>8.7</ele>
        <time>2013-01-25T15:07:17Z</time>
      </trkpt>
      <trkpt lat="46.43461" lon="-1.66067">
        <ele>8.4</ele>
        <time>2013-01-25T15:07:19Z</time>
      </trkpt>
      <trkpt lat="46.43462" lon="-1.66062">
        <ele>8.6</ele>
        <time>2013-01-25T15:07:21Z</time>
      </trkpt>
      <trkpt lat="46.43462" lon="-1.66058">
        <ele>8.6</ele>
        <time>2013-01-25T15:07:23Z</time>
      </trkpt>
      <trkpt lat="46.43463" lon="-1.66054">
        <ele>8.3</ele>
        <time>2013-01-25T15:07:25Z</time>
      </trkpt>
      <trkpt lat="46.43463" lon="-1.66049">
        <ele>7.8</ele>
        <time>2013-01-25T15:07:27Z</time>
      </trkpt>
      <trkpt lat="46.43463" lon="-1.66045">
        <ele>7.8</ele>
        <time>2013-01-25T15:07:29Z</time>
      </trkpt>
      <trkpt lat="46.43464" lon="-1.66039">
        <ele>8.3</ele>
        <time>2013-01-25T15:07:32Z</time>
      </trkpt>
      <trkpt lat="46.43466" lon="-1.66032">
        <ele>8.7</ele>
        <time>2013-01-25T15:07:35Z</time>
      </trkpt>
      <trkpt lat="46.43466" lon="-1.6603">
        <ele>8.7</ele>
        <time>2013-01-25T15:07:36Z</time>
      </trkpt>
      <trkpt lat="46.43468" lon="-1.66026">
        <ele>9.1</ele>
        <time>2013-01-25T15:07:38Z</time>
      </trkpt>
      <trkpt lat="46.4347" lon="-1.66022">
        <ele>9.5</ele>
        <time>2013-01-25T15:07:40Z</time>
      </trkpt>
      <trkpt lat="46.43474" lon="-1.66019">
        <ele>10.4</ele>
        <time>2013-01-25T15:07:42Z</time>
      </trkpt>
      <trkpt lat="46.43477" lon="-1.66016">
        <ele>10.5</ele>
        <time>2013-01-25T15:07:44Z</time>
      </trkpt>
      <trkpt lat="46.4348" lon="-1.66014">
        <ele>10.6</ele>
        <time>2013-01-25T15:07:46Z</time>
      </trkpt>
      <trkpt lat="46.43483" lon="-1.66012">
        <ele>10.5</ele>
        <time>2013-01-25T15:07:48Z</time>
      </trkpt>
      <trkpt lat="46.43486" lon="-1.66009">
        <ele>11.1</ele>
        <time>2013-01-25T15:07:50Z</time>
      </trkpt>
      <trkpt lat="46.4349" lon="-1.66008">
        <ele>10.9</ele>
        <time>2013-01-25T15:07:52Z</time>
      </trkpt>
      <trkpt lat="46.43493" lon="-1.66007">
        <ele>10.9</ele>
        <time>2013-01-25T15:07:54Z</time>
      </trkpt>
      <trkpt lat="46.43496" lon="-1.66006">
        <ele>11.1</ele>
        <time>2013-01-25T15:07:56Z</time>
      </trkpt>
      <trkpt lat="46.435" lon="-1.66006">
        <ele>11</ele>
        <time>2013-01-25T15:07:58Z</time>
      </trkpt>
      <trkpt lat="46.43503" lon="-1.66005">
        <ele>10.8</ele>
        <time>2013-01-25T15:08:00Z</time>
      </trkpt>
      <trkpt lat="46.43507" lon="-1.66005">
        <ele>10.8</ele>
        <time>2013-01-25T15:08:02Z</time>
      </trkpt>
      <trkpt lat="46.4351" lon="-1.66005">
        <ele>10.8</ele>
        <time>2013-01-25T15:08:04Z</time>
      </trkpt>
      <trkpt lat="46.43513" lon="-1.66004">
        <ele>10.7</ele>
        <time>2013-01-25T15:08:07Z</time>
      </trkpt>
      <trkpt lat="46.43517" lon="-1.66003">
        <ele>11.2</ele>
        <time>2013-01-25T15:08:10Z</time>
      </trkpt>
      <trkpt lat="46.43521" lon="-1.66002">
        <ele>11.6</ele>
        <time>2013-01-25T15:08:12Z</time>
      </trkpt>
      <trkpt lat="46.43525" lon="-1.66002">
        <ele>11.6</ele>
        <time>2013-01-25T15:08:14Z</time>
      </trkpt>
      <trkpt lat="46.43528" lon="-1.66001">
        <ele>12.1</ele>
        <time>2013-01-25T15:08:16Z</time>
      </trkpt>
      <trkpt lat="46.43531" lon="-1.65998">
        <ele>13.1</ele>
        <time>2013-01-25T15:08:19Z</time>
      </trkpt>
      <trkpt lat="46.43535" lon="-1.65995">
        <ele>12.7</ele>
        <time>2013-01-25T15:08:22Z</time>
      </trkpt>
      <trkpt lat="46.43537" lon="-1.65991">
        <ele>12.4</ele>
        <time>2013-01-25T15:08:25Z</time>
      </trkpt>
      <trkpt lat="46.43538" lon="-1.65986">
        <ele>12.2</ele>
        <time>2013-01-25T15:08:28Z</time>
      </trkpt>
      <trkpt lat="46.43539" lon="-1.65981">
        <ele>12.1</ele>
        <time>2013-01-25T15:08:30Z</time>
      </trkpt>
      <trkpt lat="46.43541" lon="-1.65977">
        <ele>12</ele>
        <time>2013-01-25T15:08:32Z</time>
      </trkpt>
      <trkpt lat="46.43542" lon="-1.65973">
        <ele>11.6</ele>
        <time>2013-01-25T15:08:37Z</time>
      </trkpt>
      <trkpt lat="46.43544" lon="-1.65967">
        <ele>11.6</ele>
        <time>2013-01-25T15:08:38Z</time>
      </trkpt>
      <trkpt lat="46.43544" lon="-1.6596">
        <ele>11.5</ele>
        <time>2013-01-25T15:08:42Z</time>
      </trkpt>
      <trkpt lat="46.43544" lon="-1.65955">
        <ele>11.2</ele>
        <time>2013-01-25T15:08:44Z</time>
      </trkpt>
      <trkpt lat="46.43543" lon="-1.65948">
        <ele>11.2</ele>
        <time>2013-01-25T15:08:46Z</time>
      </trkpt>
      <trkpt lat="46.43542" lon="-1.65944">
        <ele>11.8</ele>
        <time>2013-01-25T15:08:57Z</time>
      </trkpt>
    </trkseg>
  </trk>
</gpx>